<?xml version="1.0" encoding="UTF-8" standalone="no" ?>
<gpx xmlns="http://www.topografix.com/GPX/1/1" xmlns:xsi="http://www.w3.org/2001/XMLSchema-instance" xsi:schemaLocation="http://www.topografix.com/GPX/1/1 http://www.topografix.com/GPX/1/1/gpx.xsd" version="1.1" creator="VisuGPX - https://www.visugpx.com">
  <metadata>
    <name>TOUR QUEYRAS_JOUR 2 : ST VERAN-REFUGE de la BLANCHE avec variante pic de Caramantran</name>
    <desc><![CDATA[

]]></desc>
  </metadata>
  <trk>
    <name><![CDATA[TOUR QUEYRAS_JOUR 2 : ST VERAN-REFUGE de la BLANCHE avec variante pic de Caramantran]]></name>
    <extensions>
      <line xmlns="http://www.topografix.com/GPX/gpx_style/0/2">
        <color>FF0000</color>
        <width>4</width>
      </line>
    </extensions>
    <trkseg>
      <trkpt lat="44.69912" lon="6.86995">
        <ele>1885.76</ele>
        <time>2018-09-10T06:00:33Z</time>
      </trkpt>
      <trkpt lat="44.69912" lon="6.86994">
        <ele>2015.54</ele>
        <time>2018-09-10T06:03:14Z</time>
      </trkpt>
      <trkpt lat="44.69905" lon="6.87016">
        <ele>2015.54</ele>
        <time>2018-09-10T06:03:51Z</time>
      </trkpt>
      <trkpt lat="44.69916" lon="6.87016">
        <ele>2018.43</ele>
        <time>2018-09-10T06:04:15Z</time>
      </trkpt>
      <trkpt lat="44.69934" lon="6.86996">
        <ele>2024.67</ele>
        <time>2018-09-10T06:05:09Z</time>
      </trkpt>
      <trkpt lat="44.69939" lon="6.86978">
        <ele>2027.08</ele>
        <time>2018-09-10T06:05:52Z</time>
      </trkpt>
      <trkpt lat="44.69934" lon="6.86995">
        <ele>2024.19</ele>
        <time>2018-09-10T06:06:03Z</time>
      </trkpt>
      <trkpt lat="44.69927" lon="6.8701">
        <ele>2025.15</ele>
        <time>2018-09-10T06:06:14Z</time>
      </trkpt>
      <trkpt lat="44.69921" lon="6.87023">
        <ele>2023.23</ele>
        <time>2018-09-10T06:06:24Z</time>
      </trkpt>
      <trkpt lat="44.69915" lon="6.87034">
        <ele>2022.27</ele>
        <time>2018-09-10T06:06:33Z</time>
      </trkpt>
      <trkpt lat="44.6991" lon="6.87043">
        <ele>2021.31</ele>
        <time>2018-09-10T06:06:43Z</time>
      </trkpt>
      <trkpt lat="44.69904" lon="6.87056">
        <ele>2020.83</ele>
        <time>2018-09-10T06:06:53Z</time>
      </trkpt>
      <trkpt lat="44.69897" lon="6.87067">
        <ele>2020.35</ele>
        <time>2018-09-10T06:07:02Z</time>
      </trkpt>
      <trkpt lat="44.69891" lon="6.87078">
        <ele>2019.87</ele>
        <time>2018-09-10T06:07:11Z</time>
      </trkpt>
      <trkpt lat="44.69884" lon="6.87093">
        <ele>2018.43</ele>
        <time>2018-09-10T06:07:21Z</time>
      </trkpt>
      <trkpt lat="44.69877" lon="6.87107">
        <ele>2017.46</ele>
        <time>2018-09-10T06:07:31Z</time>
      </trkpt>
      <trkpt lat="44.69871" lon="6.87118">
        <ele>2017.46</ele>
        <time>2018-09-10T06:07:42Z</time>
      </trkpt>
      <trkpt lat="44.69862" lon="6.87126">
        <ele>2016.02</ele>
        <time>2018-09-10T06:07:52Z</time>
      </trkpt>
      <trkpt lat="44.69852" lon="6.87132">
        <ele>2016.02</ele>
        <time>2018-09-10T06:08:03Z</time>
      </trkpt>
      <trkpt lat="44.69842" lon="6.87139">
        <ele>2015.06</ele>
        <time>2018-09-10T06:08:13Z</time>
      </trkpt>
      <trkpt lat="44.69832" lon="6.8714">
        <ele>2014.1</ele>
        <time>2018-09-10T06:08:23Z</time>
      </trkpt>
      <trkpt lat="44.69822" lon="6.87145">
        <ele>2014.1</ele>
        <time>2018-09-10T06:08:33Z</time>
      </trkpt>
      <trkpt lat="44.69811" lon="6.87153">
        <ele>2012.66</ele>
        <time>2018-09-10T06:08:45Z</time>
      </trkpt>
      <trkpt lat="44.69802" lon="6.87167">
        <ele>2012.66</ele>
        <time>2018-09-10T06:08:56Z</time>
      </trkpt>
      <trkpt lat="44.69798" lon="6.87181">
        <ele>2012.18</ele>
        <time>2018-09-10T06:09:07Z</time>
      </trkpt>
      <trkpt lat="44.69787" lon="6.87195">
        <ele>2011.7</ele>
        <time>2018-09-10T06:09:19Z</time>
      </trkpt>
      <trkpt lat="44.69777" lon="6.87208">
        <ele>2010.73</ele>
        <time>2018-09-10T06:09:32Z</time>
      </trkpt>
      <trkpt lat="44.69767" lon="6.87219">
        <ele>2010.73</ele>
        <time>2018-09-10T06:09:43Z</time>
      </trkpt>
      <trkpt lat="44.69758" lon="6.8723">
        <ele>2010.25</ele>
        <time>2018-09-10T06:09:53Z</time>
      </trkpt>
      <trkpt lat="44.6975" lon="6.87237">
        <ele>2009.77</ele>
        <time>2018-09-10T06:10:02Z</time>
      </trkpt>
      <trkpt lat="44.69741" lon="6.87245">
        <ele>2008.81</ele>
        <time>2018-09-10T06:10:11Z</time>
      </trkpt>
      <trkpt lat="44.69732" lon="6.87252">
        <ele>2007.85</ele>
        <time>2018-09-10T06:10:20Z</time>
      </trkpt>
      <trkpt lat="44.69726" lon="6.87259">
        <ele>2009.29</ele>
        <time>2018-09-10T06:10:34Z</time>
      </trkpt>
      <trkpt lat="44.69717" lon="6.8727">
        <ele>2007.85</ele>
        <time>2018-09-10T06:10:45Z</time>
      </trkpt>
      <trkpt lat="44.69709" lon="6.8728">
        <ele>2007.37</ele>
        <time>2018-09-10T06:10:55Z</time>
      </trkpt>
      <trkpt lat="44.69701" lon="6.8729">
        <ele>2007.37</ele>
        <time>2018-09-10T06:11:05Z</time>
      </trkpt>
      <trkpt lat="44.69692" lon="6.87299">
        <ele>2007.85</ele>
        <time>2018-09-10T06:11:15Z</time>
      </trkpt>
      <trkpt lat="44.69683" lon="6.87307">
        <ele>2007.37</ele>
        <time>2018-09-10T06:11:24Z</time>
      </trkpt>
      <trkpt lat="44.69674" lon="6.87315">
        <ele>2007.37</ele>
        <time>2018-09-10T06:11:33Z</time>
      </trkpt>
      <trkpt lat="44.69667" lon="6.87323">
        <ele>2007.85</ele>
        <time>2018-09-10T06:11:42Z</time>
      </trkpt>
      <trkpt lat="44.69658" lon="6.87333">
        <ele>2007.85</ele>
        <time>2018-09-10T06:11:52Z</time>
      </trkpt>
      <trkpt lat="44.69649" lon="6.87341">
        <ele>2007.85</ele>
        <time>2018-09-10T06:12:01Z</time>
      </trkpt>
      <trkpt lat="44.69642" lon="6.87349">
        <ele>2008.33</ele>
        <time>2018-09-10T06:12:10Z</time>
      </trkpt>
      <trkpt lat="44.69633" lon="6.87358">
        <ele>2007.37</ele>
        <time>2018-09-10T06:12:19Z</time>
      </trkpt>
      <trkpt lat="44.69625" lon="6.87369">
        <ele>2007.85</ele>
        <time>2018-09-10T06:12:30Z</time>
      </trkpt>
      <trkpt lat="44.69617" lon="6.87379">
        <ele>2008.33</ele>
        <time>2018-09-10T06:12:39Z</time>
      </trkpt>
      <trkpt lat="44.69611" lon="6.8739">
        <ele>2008.81</ele>
        <time>2018-09-10T06:12:48Z</time>
      </trkpt>
      <trkpt lat="44.69605" lon="6.87403">
        <ele>2008.33</ele>
        <time>2018-09-10T06:12:57Z</time>
      </trkpt>
      <trkpt lat="44.69599" lon="6.87414">
        <ele>2008.33</ele>
        <time>2018-09-10T06:13:06Z</time>
      </trkpt>
      <trkpt lat="44.69594" lon="6.87428">
        <ele>2008.33</ele>
        <time>2018-09-10T06:13:16Z</time>
      </trkpt>
      <trkpt lat="44.69589" lon="6.87442">
        <ele>2008.81</ele>
        <time>2018-09-10T06:13:26Z</time>
      </trkpt>
      <trkpt lat="44.69582" lon="6.87456">
        <ele>2008.81</ele>
        <time>2018-09-10T06:13:36Z</time>
      </trkpt>
      <trkpt lat="44.69575" lon="6.87465">
        <ele>2008.81</ele>
        <time>2018-09-10T06:13:46Z</time>
      </trkpt>
      <trkpt lat="44.69574" lon="6.87477">
        <ele>2009.77</ele>
        <time>2018-09-10T06:14:00Z</time>
      </trkpt>
      <trkpt lat="44.69575" lon="6.87464">
        <ele>2009.77</ele>
        <time>2018-09-10T06:14:36Z</time>
      </trkpt>
      <trkpt lat="44.69571" lon="6.87456">
        <ele>2008.81</ele>
        <time>2018-09-10T06:15:00Z</time>
      </trkpt>
      <trkpt lat="44.69562" lon="6.87452">
        <ele>2008.33</ele>
        <time>2018-09-10T06:15:09Z</time>
      </trkpt>
      <trkpt lat="44.69552" lon="6.87451">
        <ele>2007.37</ele>
        <time>2018-09-10T06:15:20Z</time>
      </trkpt>
      <trkpt lat="44.69542" lon="6.87452">
        <ele>2005.93</ele>
        <time>2018-09-10T06:15:30Z</time>
      </trkpt>
      <trkpt lat="44.69532" lon="6.87453">
        <ele>2004.97</ele>
        <time>2018-09-10T06:15:39Z</time>
      </trkpt>
      <trkpt lat="44.69522" lon="6.87449">
        <ele>2004.01</ele>
        <time>2018-09-10T06:15:48Z</time>
      </trkpt>
      <trkpt lat="44.69514" lon="6.87441">
        <ele>2003.52</ele>
        <time>2018-09-10T06:15:57Z</time>
      </trkpt>
      <trkpt lat="44.69506" lon="6.87434">
        <ele>2002.08</ele>
        <time>2018-09-10T06:16:07Z</time>
      </trkpt>
      <trkpt lat="44.69497" lon="6.87427">
        <ele>2002.08</ele>
        <time>2018-09-10T06:16:17Z</time>
      </trkpt>
      <trkpt lat="44.69487" lon="6.87424">
        <ele>2001.12</ele>
        <time>2018-09-10T06:16:26Z</time>
      </trkpt>
      <trkpt lat="44.69479" lon="6.87423">
        <ele>2000.64</ele>
        <time>2018-09-10T06:16:34Z</time>
      </trkpt>
      <trkpt lat="44.69469" lon="6.87424">
        <ele>2000.16</ele>
        <time>2018-09-10T06:16:43Z</time>
      </trkpt>
      <trkpt lat="44.6946" lon="6.87425">
        <ele>1999.68</ele>
        <time>2018-09-10T06:16:51Z</time>
      </trkpt>
      <trkpt lat="44.69451" lon="6.87427">
        <ele>1998.24</ele>
        <time>2018-09-10T06:16:59Z</time>
      </trkpt>
      <trkpt lat="44.69442" lon="6.8743">
        <ele>1997.76</ele>
        <time>2018-09-10T06:17:08Z</time>
      </trkpt>
      <trkpt lat="44.69433" lon="6.87433">
        <ele>1995.83</ele>
        <time>2018-09-10T06:17:17Z</time>
      </trkpt>
      <trkpt lat="44.69424" lon="6.87438">
        <ele>1994.87</ele>
        <time>2018-09-10T06:17:26Z</time>
      </trkpt>
      <trkpt lat="44.69414" lon="6.87443">
        <ele>1993.43</ele>
        <time>2018-09-10T06:17:36Z</time>
      </trkpt>
      <trkpt lat="44.69405" lon="6.87449">
        <ele>1991.51</ele>
        <time>2018-09-10T06:17:46Z</time>
      </trkpt>
      <trkpt lat="44.69395" lon="6.87451">
        <ele>1990.55</ele>
        <time>2018-09-10T06:17:55Z</time>
      </trkpt>
      <trkpt lat="44.69385" lon="6.87456">
        <ele>1988.62</ele>
        <time>2018-09-10T06:18:05Z</time>
      </trkpt>
      <trkpt lat="44.69376" lon="6.87462">
        <ele>1988.14</ele>
        <time>2018-09-10T06:18:14Z</time>
      </trkpt>
      <trkpt lat="44.69368" lon="6.87467">
        <ele>1987.18</ele>
        <time>2018-09-10T06:18:22Z</time>
      </trkpt>
      <trkpt lat="44.69359" lon="6.87473">
        <ele>1986.7</ele>
        <time>2018-09-10T06:18:30Z</time>
      </trkpt>
      <trkpt lat="44.69351" lon="6.8748">
        <ele>1986.22</ele>
        <time>2018-09-10T06:18:39Z</time>
      </trkpt>
      <trkpt lat="44.69342" lon="6.87489">
        <ele>1985.74</ele>
        <time>2018-09-10T06:18:48Z</time>
      </trkpt>
      <trkpt lat="44.69334" lon="6.87495">
        <ele>1985.26</ele>
        <time>2018-09-10T06:18:56Z</time>
      </trkpt>
      <trkpt lat="44.69325" lon="6.87505">
        <ele>1984.3</ele>
        <time>2018-09-10T06:19:05Z</time>
      </trkpt>
      <trkpt lat="44.69317" lon="6.87514">
        <ele>1983.34</ele>
        <time>2018-09-10T06:19:14Z</time>
      </trkpt>
      <trkpt lat="44.69309" lon="6.87524">
        <ele>1982.38</ele>
        <time>2018-09-10T06:19:22Z</time>
      </trkpt>
      <trkpt lat="44.693" lon="6.8753">
        <ele>1981.41</ele>
        <time>2018-09-10T06:19:31Z</time>
      </trkpt>
      <trkpt lat="44.6929" lon="6.87526">
        <ele>1981.41</ele>
        <time>2018-09-10T06:19:41Z</time>
      </trkpt>
      <trkpt lat="44.6928" lon="6.87524">
        <ele>1980.93</ele>
        <time>2018-09-10T06:19:50Z</time>
      </trkpt>
      <trkpt lat="44.69269" lon="6.87524">
        <ele>1979.97</ele>
        <time>2018-09-10T06:20:01Z</time>
      </trkpt>
      <trkpt lat="44.69257" lon="6.87524">
        <ele>1979.97</ele>
        <time>2018-09-10T06:20:12Z</time>
      </trkpt>
      <trkpt lat="44.69243" lon="6.87523">
        <ele>1978.53</ele>
        <time>2018-09-10T06:20:23Z</time>
      </trkpt>
      <trkpt lat="44.69231" lon="6.87525">
        <ele>1978.05</ele>
        <time>2018-09-10T06:20:34Z</time>
      </trkpt>
      <trkpt lat="44.6922" lon="6.87525">
        <ele>1977.57</ele>
        <time>2018-09-10T06:20:43Z</time>
      </trkpt>
      <trkpt lat="44.6921" lon="6.87526">
        <ele>1977.57</ele>
        <time>2018-09-10T06:20:52Z</time>
      </trkpt>
      <trkpt lat="44.692" lon="6.87525">
        <ele>1977.09</ele>
        <time>2018-09-10T06:21:00Z</time>
      </trkpt>
      <trkpt lat="44.6919" lon="6.87526">
        <ele>1977.09</ele>
        <time>2018-09-10T06:21:08Z</time>
      </trkpt>
      <trkpt lat="44.6918" lon="6.87527">
        <ele>1977.09</ele>
        <time>2018-09-10T06:21:16Z</time>
      </trkpt>
      <trkpt lat="44.6917" lon="6.87529">
        <ele>1976.61</ele>
        <time>2018-09-10T06:21:24Z</time>
      </trkpt>
      <trkpt lat="44.6916" lon="6.87534">
        <ele>1976.13</ele>
        <time>2018-09-10T06:21:33Z</time>
      </trkpt>
      <trkpt lat="44.69151" lon="6.87542">
        <ele>1976.13</ele>
        <time>2018-09-10T06:21:41Z</time>
      </trkpt>
      <trkpt lat="44.69141" lon="6.87546">
        <ele>1975.17</ele>
        <time>2018-09-10T06:21:49Z</time>
      </trkpt>
      <trkpt lat="44.6913" lon="6.87549">
        <ele>1974.69</ele>
        <time>2018-09-10T06:21:58Z</time>
      </trkpt>
      <trkpt lat="44.6912" lon="6.87552">
        <ele>1973.72</ele>
        <time>2018-09-10T06:22:08Z</time>
      </trkpt>
      <trkpt lat="44.69107" lon="6.87552">
        <ele>1972.76</ele>
        <time>2018-09-10T06:22:19Z</time>
      </trkpt>
      <trkpt lat="44.69097" lon="6.87551">
        <ele>1972.76</ele>
        <time>2018-09-10T06:22:29Z</time>
      </trkpt>
      <trkpt lat="44.69086" lon="6.87559">
        <ele>1971.8</ele>
        <time>2018-09-10T06:22:39Z</time>
      </trkpt>
      <trkpt lat="44.69078" lon="6.87567">
        <ele>1970.84</ele>
        <time>2018-09-10T06:22:48Z</time>
      </trkpt>
      <trkpt lat="44.69067" lon="6.87573">
        <ele>1970.36</ele>
        <time>2018-09-10T06:22:57Z</time>
      </trkpt>
      <trkpt lat="44.69055" lon="6.87573">
        <ele>1969.4</ele>
        <time>2018-09-10T06:23:08Z</time>
      </trkpt>
      <trkpt lat="44.69046" lon="6.87568">
        <ele>1968.92</ele>
        <time>2018-09-10T06:23:17Z</time>
      </trkpt>
      <trkpt lat="44.69032" lon="6.87567">
        <ele>1967.48</ele>
        <time>2018-09-10T06:23:29Z</time>
      </trkpt>
      <trkpt lat="44.69019" lon="6.87571">
        <ele>1966.51</ele>
        <time>2018-09-10T06:23:40Z</time>
      </trkpt>
      <trkpt lat="44.6901" lon="6.87577">
        <ele>1965.55</ele>
        <time>2018-09-10T06:23:50Z</time>
      </trkpt>
      <trkpt lat="44.69001" lon="6.87582">
        <ele>1965.07</ele>
        <time>2018-09-10T06:24:01Z</time>
      </trkpt>
      <trkpt lat="44.6899" lon="6.87587">
        <ele>1965.07</ele>
        <time>2018-09-10T06:24:12Z</time>
      </trkpt>
      <trkpt lat="44.68976" lon="6.87593">
        <ele>1966.03</ele>
        <time>2018-09-10T06:24:24Z</time>
      </trkpt>
      <trkpt lat="44.68963" lon="6.87592">
        <ele>1966.03</ele>
        <time>2018-09-10T06:24:35Z</time>
      </trkpt>
      <trkpt lat="44.68951" lon="6.87591">
        <ele>1966.03</ele>
        <time>2018-09-10T06:24:47Z</time>
      </trkpt>
      <trkpt lat="44.68938" lon="6.87592">
        <ele>1966.03</ele>
        <time>2018-09-10T06:24:58Z</time>
      </trkpt>
      <trkpt lat="44.68925" lon="6.87595">
        <ele>1965.55</ele>
        <time>2018-09-10T06:25:10Z</time>
      </trkpt>
      <trkpt lat="44.6891" lon="6.87592">
        <ele>1964.11</ele>
        <time>2018-09-10T06:25:23Z</time>
      </trkpt>
      <trkpt lat="44.68897" lon="6.87588">
        <ele>1961.71</ele>
        <time>2018-09-10T06:25:36Z</time>
      </trkpt>
      <trkpt lat="44.68881" lon="6.87586">
        <ele>1961.23</ele>
        <time>2018-09-10T06:25:47Z</time>
      </trkpt>
      <trkpt lat="44.68866" lon="6.87586">
        <ele>1960.27</ele>
        <time>2018-09-10T06:25:59Z</time>
      </trkpt>
      <trkpt lat="44.68855" lon="6.8759">
        <ele>1959.3</ele>
        <time>2018-09-10T06:26:10Z</time>
      </trkpt>
      <trkpt lat="44.68843" lon="6.87597">
        <ele>1958.34</ele>
        <time>2018-09-10T06:26:22Z</time>
      </trkpt>
      <trkpt lat="44.6883" lon="6.87598">
        <ele>1958.34</ele>
        <time>2018-09-10T06:26:33Z</time>
      </trkpt>
      <trkpt lat="44.68819" lon="6.87606">
        <ele>1958.82</ele>
        <time>2018-09-10T06:26:43Z</time>
      </trkpt>
      <trkpt lat="44.68807" lon="6.87613">
        <ele>1958.82</ele>
        <time>2018-09-10T06:26:52Z</time>
      </trkpt>
      <trkpt lat="44.68799" lon="6.87619">
        <ele>1958.82</ele>
        <time>2018-09-10T06:27:00Z</time>
      </trkpt>
      <trkpt lat="44.68788" lon="6.87625">
        <ele>1958.34</ele>
        <time>2018-09-10T06:27:10Z</time>
      </trkpt>
      <trkpt lat="44.68778" lon="6.87631">
        <ele>1958.82</ele>
        <time>2018-09-10T06:27:20Z</time>
      </trkpt>
      <trkpt lat="44.68767" lon="6.87635">
        <ele>1959.3</ele>
        <time>2018-09-10T06:27:31Z</time>
      </trkpt>
      <trkpt lat="44.68756" lon="6.87635">
        <ele>1959.78</ele>
        <time>2018-09-10T06:27:41Z</time>
      </trkpt>
      <trkpt lat="44.68748" lon="6.87625">
        <ele>1960.27</ele>
        <time>2018-09-10T06:27:50Z</time>
      </trkpt>
      <trkpt lat="44.6874" lon="6.87617">
        <ele>1960.27</ele>
        <time>2018-09-10T06:27:59Z</time>
      </trkpt>
      <trkpt lat="44.68732" lon="6.87608">
        <ele>1960.27</ele>
        <time>2018-09-10T06:28:07Z</time>
      </trkpt>
      <trkpt lat="44.68723" lon="6.87602">
        <ele>1960.75</ele>
        <time>2018-09-10T06:28:15Z</time>
      </trkpt>
      <trkpt lat="44.68714" lon="6.87598">
        <ele>1960.75</ele>
        <time>2018-09-10T06:28:23Z</time>
      </trkpt>
      <trkpt lat="44.68703" lon="6.87599">
        <ele>1961.23</ele>
        <time>2018-09-10T06:28:31Z</time>
      </trkpt>
      <trkpt lat="44.68694" lon="6.87607">
        <ele>1961.23</ele>
        <time>2018-09-10T06:28:41Z</time>
      </trkpt>
      <trkpt lat="44.68688" lon="6.87615">
        <ele>1961.71</ele>
        <time>2018-09-10T06:28:50Z</time>
      </trkpt>
      <trkpt lat="44.68682" lon="6.87624">
        <ele>1962.67</ele>
        <time>2018-09-10T06:29:01Z</time>
      </trkpt>
      <trkpt lat="44.68675" lon="6.87635">
        <ele>1963.15</ele>
        <time>2018-09-10T06:29:13Z</time>
      </trkpt>
      <trkpt lat="44.68666" lon="6.87648">
        <ele>1965.55</ele>
        <time>2018-09-10T06:29:28Z</time>
      </trkpt>
      <trkpt lat="44.68654" lon="6.87657">
        <ele>1966.99</ele>
        <time>2018-09-10T06:29:43Z</time>
      </trkpt>
      <trkpt lat="44.68645" lon="6.87667">
        <ele>1968.44</ele>
        <time>2018-09-10T06:29:56Z</time>
      </trkpt>
      <trkpt lat="44.68638" lon="6.87678">
        <ele>1969.88</ele>
        <time>2018-09-10T06:30:09Z</time>
      </trkpt>
      <trkpt lat="44.68631" lon="6.87688">
        <ele>1970.84</ele>
        <time>2018-09-10T06:30:21Z</time>
      </trkpt>
      <trkpt lat="44.68624" lon="6.87697">
        <ele>1971.8</ele>
        <time>2018-09-10T06:30:32Z</time>
      </trkpt>
      <trkpt lat="44.68616" lon="6.87707">
        <ele>1972.76</ele>
        <time>2018-09-10T06:30:43Z</time>
      </trkpt>
      <trkpt lat="44.68609" lon="6.87715">
        <ele>1973.24</ele>
        <time>2018-09-10T06:30:53Z</time>
      </trkpt>
      <trkpt lat="44.686" lon="6.87725">
        <ele>1973.24</ele>
        <time>2018-09-10T06:31:03Z</time>
      </trkpt>
      <trkpt lat="44.68592" lon="6.87734">
        <ele>1973.72</ele>
        <time>2018-09-10T06:31:13Z</time>
      </trkpt>
      <trkpt lat="44.68586" lon="6.87747">
        <ele>1974.69</ele>
        <time>2018-09-10T06:31:24Z</time>
      </trkpt>
      <trkpt lat="44.6858" lon="6.87758">
        <ele>1975.17</ele>
        <time>2018-09-10T06:31:34Z</time>
      </trkpt>
      <trkpt lat="44.68571" lon="6.87768">
        <ele>1975.17</ele>
        <time>2018-09-10T06:31:44Z</time>
      </trkpt>
      <trkpt lat="44.68563" lon="6.87778">
        <ele>1974.69</ele>
        <time>2018-09-10T06:31:54Z</time>
      </trkpt>
      <trkpt lat="44.68554" lon="6.87788">
        <ele>1975.65</ele>
        <time>2018-09-10T06:32:03Z</time>
      </trkpt>
      <trkpt lat="44.68547" lon="6.87797">
        <ele>1975.65</ele>
        <time>2018-09-10T06:32:12Z</time>
      </trkpt>
      <trkpt lat="44.68541" lon="6.87807">
        <ele>1976.61</ele>
        <time>2018-09-10T06:32:20Z</time>
      </trkpt>
      <trkpt lat="44.68534" lon="6.87817">
        <ele>1976.61</ele>
        <time>2018-09-10T06:32:30Z</time>
      </trkpt>
      <trkpt lat="44.68527" lon="6.87827">
        <ele>1977.09</ele>
        <time>2018-09-10T06:32:40Z</time>
      </trkpt>
      <trkpt lat="44.68519" lon="6.87838">
        <ele>1977.57</ele>
        <time>2018-09-10T06:32:50Z</time>
      </trkpt>
      <trkpt lat="44.68511" lon="6.8785">
        <ele>1978.53</ele>
        <time>2018-09-10T06:33:01Z</time>
      </trkpt>
      <trkpt lat="44.68503" lon="6.8786">
        <ele>1979.49</ele>
        <time>2018-09-10T06:33:11Z</time>
      </trkpt>
      <trkpt lat="44.68494" lon="6.87867">
        <ele>1979.49</ele>
        <time>2018-09-10T06:33:21Z</time>
      </trkpt>
      <trkpt lat="44.68483" lon="6.87873">
        <ele>1980.45</ele>
        <time>2018-09-10T06:33:31Z</time>
      </trkpt>
      <trkpt lat="44.68472" lon="6.8788">
        <ele>1980.93</ele>
        <time>2018-09-10T06:33:43Z</time>
      </trkpt>
      <trkpt lat="44.6846" lon="6.87889">
        <ele>1980.45</ele>
        <time>2018-09-10T06:33:56Z</time>
      </trkpt>
      <trkpt lat="44.68447" lon="6.87898">
        <ele>1981.41</ele>
        <time>2018-09-10T06:34:09Z</time>
      </trkpt>
      <trkpt lat="44.68436" lon="6.87906">
        <ele>1981.9</ele>
        <time>2018-09-10T06:34:21Z</time>
      </trkpt>
      <trkpt lat="44.68429" lon="6.87915">
        <ele>1982.38</ele>
        <time>2018-09-10T06:34:30Z</time>
      </trkpt>
      <trkpt lat="44.68421" lon="6.87928">
        <ele>1984.3</ele>
        <time>2018-09-10T06:34:41Z</time>
      </trkpt>
      <trkpt lat="44.68414" lon="6.87939">
        <ele>1984.3</ele>
        <time>2018-09-10T06:34:50Z</time>
      </trkpt>
      <trkpt lat="44.68408" lon="6.87951">
        <ele>1984.3</ele>
        <time>2018-09-10T06:35:01Z</time>
      </trkpt>
      <trkpt lat="44.68413" lon="6.87963">
        <ele>1984.3</ele>
        <time>2018-09-10T06:36:29Z</time>
      </trkpt>
      <trkpt lat="44.68398" lon="6.87966">
        <ele>1985.26</ele>
        <time>2018-09-10T06:36:56Z</time>
      </trkpt>
      <trkpt lat="44.68387" lon="6.87977">
        <ele>1985.74</ele>
        <time>2018-09-10T06:37:07Z</time>
      </trkpt>
      <trkpt lat="44.68379" lon="6.87985">
        <ele>1985.26</ele>
        <time>2018-09-10T06:37:17Z</time>
      </trkpt>
      <trkpt lat="44.68368" lon="6.87995">
        <ele>1986.22</ele>
        <time>2018-09-10T06:37:29Z</time>
      </trkpt>
      <trkpt lat="44.68354" lon="6.88003">
        <ele>1987.18</ele>
        <time>2018-09-10T06:37:42Z</time>
      </trkpt>
      <trkpt lat="44.68339" lon="6.88009">
        <ele>1988.62</ele>
        <time>2018-09-10T06:37:55Z</time>
      </trkpt>
      <trkpt lat="44.68328" lon="6.88015">
        <ele>1989.59</ele>
        <time>2018-09-10T06:38:07Z</time>
      </trkpt>
      <trkpt lat="44.68317" lon="6.88026">
        <ele>1990.55</ele>
        <time>2018-09-10T06:38:18Z</time>
      </trkpt>
      <trkpt lat="44.68308" lon="6.88031">
        <ele>1990.55</ele>
        <time>2018-09-10T06:38:27Z</time>
      </trkpt>
      <trkpt lat="44.68301" lon="6.88041">
        <ele>1991.03</ele>
        <time>2018-09-10T06:38:36Z</time>
      </trkpt>
      <trkpt lat="44.68296" lon="6.88053">
        <ele>1991.51</ele>
        <time>2018-09-10T06:38:45Z</time>
      </trkpt>
      <trkpt lat="44.68289" lon="6.88064">
        <ele>1991.99</ele>
        <time>2018-09-10T06:38:54Z</time>
      </trkpt>
      <trkpt lat="44.68283" lon="6.88075">
        <ele>1992.95</ele>
        <time>2018-09-10T06:39:04Z</time>
      </trkpt>
      <trkpt lat="44.68277" lon="6.88088">
        <ele>1992.95</ele>
        <time>2018-09-10T06:39:15Z</time>
      </trkpt>
      <trkpt lat="44.68269" lon="6.88099">
        <ele>1993.91</ele>
        <time>2018-09-10T06:39:27Z</time>
      </trkpt>
      <trkpt lat="44.68262" lon="6.8811">
        <ele>1994.87</ele>
        <time>2018-09-10T06:39:39Z</time>
      </trkpt>
      <trkpt lat="44.68255" lon="6.88122">
        <ele>1996.32</ele>
        <time>2018-09-10T06:39:52Z</time>
      </trkpt>
      <trkpt lat="44.68248" lon="6.88133">
        <ele>1997.28</ele>
        <time>2018-09-10T06:40:05Z</time>
      </trkpt>
      <trkpt lat="44.68241" lon="6.88146">
        <ele>1998.72</ele>
        <time>2018-09-10T06:40:17Z</time>
      </trkpt>
      <trkpt lat="44.68234" lon="6.88158">
        <ele>1999.2</ele>
        <time>2018-09-10T06:40:29Z</time>
      </trkpt>
      <trkpt lat="44.68227" lon="6.88168">
        <ele>2000.16</ele>
        <time>2018-09-10T06:40:40Z</time>
      </trkpt>
      <trkpt lat="44.6822" lon="6.8818">
        <ele>2000.64</ele>
        <time>2018-09-10T06:40:51Z</time>
      </trkpt>
      <trkpt lat="44.68213" lon="6.8819">
        <ele>2001.6</ele>
        <time>2018-09-10T06:41:02Z</time>
      </trkpt>
      <trkpt lat="44.68207" lon="6.88203">
        <ele>2002.56</ele>
        <time>2018-09-10T06:41:15Z</time>
      </trkpt>
      <trkpt lat="44.682" lon="6.88219">
        <ele>2004.01</ele>
        <time>2018-09-10T06:41:29Z</time>
      </trkpt>
      <trkpt lat="44.68191" lon="6.88232">
        <ele>2004.97</ele>
        <time>2018-09-10T06:41:45Z</time>
      </trkpt>
      <trkpt lat="44.68182" lon="6.88243">
        <ele>2005.93</ele>
        <time>2018-09-10T06:41:57Z</time>
      </trkpt>
      <trkpt lat="44.68173" lon="6.88256">
        <ele>2006.89</ele>
        <time>2018-09-10T06:42:10Z</time>
      </trkpt>
      <trkpt lat="44.68165" lon="6.88267">
        <ele>2007.85</ele>
        <time>2018-09-10T06:42:22Z</time>
      </trkpt>
      <trkpt lat="44.68158" lon="6.8828">
        <ele>2008.81</ele>
        <time>2018-09-10T06:42:33Z</time>
      </trkpt>
      <trkpt lat="44.68152" lon="6.88294">
        <ele>2009.77</ele>
        <time>2018-09-10T06:42:45Z</time>
      </trkpt>
      <trkpt lat="44.68146" lon="6.88308">
        <ele>2011.7</ele>
        <time>2018-09-10T06:42:58Z</time>
      </trkpt>
      <trkpt lat="44.68139" lon="6.8832">
        <ele>2012.66</ele>
        <time>2018-09-10T06:43:11Z</time>
      </trkpt>
      <trkpt lat="44.6813" lon="6.88332">
        <ele>2013.62</ele>
        <time>2018-09-10T06:43:24Z</time>
      </trkpt>
      <trkpt lat="44.68122" lon="6.88345">
        <ele>2015.06</ele>
        <time>2018-09-10T06:43:37Z</time>
      </trkpt>
      <trkpt lat="44.68113" lon="6.88359">
        <ele>2016.5</ele>
        <time>2018-09-10T06:43:54Z</time>
      </trkpt>
      <trkpt lat="44.68102" lon="6.88374">
        <ele>2017.94</ele>
        <time>2018-09-10T06:44:09Z</time>
      </trkpt>
      <trkpt lat="44.68094" lon="6.88385">
        <ele>2019.39</ele>
        <time>2018-09-10T06:44:22Z</time>
      </trkpt>
      <trkpt lat="44.68084" lon="6.88393">
        <ele>2021.31</ele>
        <time>2018-09-10T06:44:36Z</time>
      </trkpt>
      <trkpt lat="44.68074" lon="6.884">
        <ele>2021.79</ele>
        <time>2018-09-10T06:44:49Z</time>
      </trkpt>
      <trkpt lat="44.68064" lon="6.8841">
        <ele>2023.71</ele>
        <time>2018-09-10T06:45:02Z</time>
      </trkpt>
      <trkpt lat="44.68055" lon="6.88418">
        <ele>2024.67</ele>
        <time>2018-09-10T06:45:14Z</time>
      </trkpt>
      <trkpt lat="44.68043" lon="6.88427">
        <ele>2025.64</ele>
        <time>2018-09-10T06:45:26Z</time>
      </trkpt>
      <trkpt lat="44.68032" lon="6.88437">
        <ele>2026.12</ele>
        <time>2018-09-10T06:45:39Z</time>
      </trkpt>
      <trkpt lat="44.68026" lon="6.88449">
        <ele>2027.56</ele>
        <time>2018-09-10T06:45:52Z</time>
      </trkpt>
      <trkpt lat="44.6802" lon="6.88466">
        <ele>2028.52</ele>
        <time>2018-09-10T06:46:30Z</time>
      </trkpt>
      <trkpt lat="44.68009" lon="6.88477">
        <ele>2029.96</ele>
        <time>2018-09-10T06:46:44Z</time>
      </trkpt>
      <trkpt lat="44.68003" lon="6.88491">
        <ele>2031.4</ele>
        <time>2018-09-10T06:46:57Z</time>
      </trkpt>
      <trkpt lat="44.67996" lon="6.8851">
        <ele>2032.84</ele>
        <time>2018-09-10T06:47:13Z</time>
      </trkpt>
      <trkpt lat="44.67987" lon="6.88529">
        <ele>2034.29</ele>
        <time>2018-09-10T06:47:30Z</time>
      </trkpt>
      <trkpt lat="44.67979" lon="6.88543">
        <ele>2035.73</ele>
        <time>2018-09-10T06:47:44Z</time>
      </trkpt>
      <trkpt lat="44.67972" lon="6.88556">
        <ele>2037.65</ele>
        <time>2018-09-10T06:47:57Z</time>
      </trkpt>
      <trkpt lat="44.67965" lon="6.88568">
        <ele>2038.61</ele>
        <time>2018-09-10T06:48:10Z</time>
      </trkpt>
      <trkpt lat="44.67959" lon="6.88584">
        <ele>2039.57</ele>
        <time>2018-09-10T06:48:24Z</time>
      </trkpt>
      <trkpt lat="44.67951" lon="6.88599">
        <ele>2041.02</ele>
        <time>2018-09-10T06:48:38Z</time>
      </trkpt>
      <trkpt lat="44.67944" lon="6.88617">
        <ele>2041.98</ele>
        <time>2018-09-10T06:48:53Z</time>
      </trkpt>
      <trkpt lat="44.67936" lon="6.88631">
        <ele>2043.42</ele>
        <time>2018-09-10T06:49:08Z</time>
      </trkpt>
      <trkpt lat="44.67928" lon="6.88645">
        <ele>2043.9</ele>
        <time>2018-09-10T06:49:21Z</time>
      </trkpt>
      <trkpt lat="44.67919" lon="6.88662">
        <ele>2044.86</ele>
        <time>2018-09-10T06:49:34Z</time>
      </trkpt>
      <trkpt lat="44.6791" lon="6.88675">
        <ele>2046.3</ele>
        <time>2018-09-10T06:49:49Z</time>
      </trkpt>
      <trkpt lat="44.67905" lon="6.88689">
        <ele>2048.23</ele>
        <time>2018-09-10T06:50:03Z</time>
      </trkpt>
      <trkpt lat="44.67897" lon="6.88707">
        <ele>2049.19</ele>
        <time>2018-09-10T06:50:20Z</time>
      </trkpt>
      <trkpt lat="44.6789" lon="6.88723">
        <ele>2051.11</ele>
        <time>2018-09-10T06:50:34Z</time>
      </trkpt>
      <trkpt lat="44.67884" lon="6.88738">
        <ele>2052.07</ele>
        <time>2018-09-10T06:50:52Z</time>
      </trkpt>
      <trkpt lat="44.67874" lon="6.88755">
        <ele>2054.96</ele>
        <time>2018-09-10T06:51:11Z</time>
      </trkpt>
      <trkpt lat="44.67861" lon="6.88764">
        <ele>2056.4</ele>
        <time>2018-09-10T06:51:26Z</time>
      </trkpt>
      <trkpt lat="44.67849" lon="6.88776">
        <ele>2057.36</ele>
        <time>2018-09-10T06:51:39Z</time>
      </trkpt>
      <trkpt lat="44.67842" lon="6.88795">
        <ele>2059.28</ele>
        <time>2018-09-10T06:51:56Z</time>
      </trkpt>
      <trkpt lat="44.67835" lon="6.88811">
        <ele>2061.68</ele>
        <time>2018-09-10T06:52:14Z</time>
      </trkpt>
      <trkpt lat="44.67827" lon="6.88825">
        <ele>2063.13</ele>
        <time>2018-09-10T06:52:31Z</time>
      </trkpt>
      <trkpt lat="44.67819" lon="6.88845">
        <ele>2065.05</ele>
        <time>2018-09-10T06:52:52Z</time>
      </trkpt>
      <trkpt lat="44.67816" lon="6.88866">
        <ele>2066.49</ele>
        <time>2018-09-10T06:53:08Z</time>
      </trkpt>
      <trkpt lat="44.6781" lon="6.88885">
        <ele>2067.93</ele>
        <time>2018-09-10T06:53:24Z</time>
      </trkpt>
      <trkpt lat="44.67807" lon="6.88903">
        <ele>2068.89</ele>
        <time>2018-09-10T06:53:37Z</time>
      </trkpt>
      <trkpt lat="44.67802" lon="6.88922">
        <ele>2069.38</ele>
        <time>2018-09-10T06:53:51Z</time>
      </trkpt>
      <trkpt lat="44.67795" lon="6.88935">
        <ele>2070.82</ele>
        <time>2018-09-10T06:54:04Z</time>
      </trkpt>
      <trkpt lat="44.67788" lon="6.8895">
        <ele>2071.78</ele>
        <time>2018-09-10T06:54:17Z</time>
      </trkpt>
      <trkpt lat="44.6778" lon="6.88965">
        <ele>2072.74</ele>
        <time>2018-09-10T06:54:31Z</time>
      </trkpt>
      <trkpt lat="44.67777" lon="6.88986">
        <ele>2074.18</ele>
        <time>2018-09-10T06:54:46Z</time>
      </trkpt>
      <trkpt lat="44.67771" lon="6.89008">
        <ele>2076.1</ele>
        <time>2018-09-10T06:55:02Z</time>
      </trkpt>
      <trkpt lat="44.67764" lon="6.89032">
        <ele>2077.55</ele>
        <time>2018-09-10T06:55:18Z</time>
      </trkpt>
      <trkpt lat="44.67761" lon="6.89052">
        <ele>2078.03</ele>
        <time>2018-09-10T06:55:35Z</time>
      </trkpt>
      <trkpt lat="44.67754" lon="6.89076">
        <ele>2078.99</ele>
        <time>2018-09-10T06:55:53Z</time>
      </trkpt>
      <trkpt lat="44.67746" lon="6.89092">
        <ele>2080.43</ele>
        <time>2018-09-10T06:56:08Z</time>
      </trkpt>
      <trkpt lat="44.6774" lon="6.8911">
        <ele>2082.35</ele>
        <time>2018-09-10T06:56:51Z</time>
      </trkpt>
      <trkpt lat="44.67728" lon="6.89124">
        <ele>2084.76</ele>
        <time>2018-09-10T06:57:11Z</time>
      </trkpt>
      <trkpt lat="44.67719" lon="6.89139">
        <ele>2086.68</ele>
        <time>2018-09-10T06:57:26Z</time>
      </trkpt>
      <trkpt lat="44.67714" lon="6.89161">
        <ele>2087.64</ele>
        <time>2018-09-10T06:57:43Z</time>
      </trkpt>
      <trkpt lat="44.67708" lon="6.8918">
        <ele>2089.08</ele>
        <time>2018-09-10T06:57:58Z</time>
      </trkpt>
      <trkpt lat="44.67701" lon="6.89198">
        <ele>2090.52</ele>
        <time>2018-09-10T06:58:15Z</time>
      </trkpt>
      <trkpt lat="44.67694" lon="6.89213">
        <ele>2092.45</ele>
        <time>2018-09-10T06:58:29Z</time>
      </trkpt>
      <trkpt lat="44.67686" lon="6.89226">
        <ele>2094.37</ele>
        <time>2018-09-10T06:58:45Z</time>
      </trkpt>
      <trkpt lat="44.67678" lon="6.89244">
        <ele>2096.77</ele>
        <time>2018-09-10T06:59:05Z</time>
      </trkpt>
      <trkpt lat="44.67671" lon="6.89264">
        <ele>2098.7</ele>
        <time>2018-09-10T06:59:21Z</time>
      </trkpt>
      <trkpt lat="44.67662" lon="6.89275">
        <ele>2100.14</ele>
        <time>2018-09-10T06:59:36Z</time>
      </trkpt>
      <trkpt lat="44.67652" lon="6.89307">
        <ele>2102.06</ele>
        <time>2018-09-10T07:00:03Z</time>
      </trkpt>
      <trkpt lat="44.67643" lon="6.89343">
        <ele>2103.98</ele>
        <time>2018-09-10T07:00:26Z</time>
      </trkpt>
      <trkpt lat="44.67631" lon="6.89374">
        <ele>2105.42</ele>
        <time>2018-09-10T07:00:51Z</time>
      </trkpt>
      <trkpt lat="44.67623" lon="6.89393">
        <ele>2105.91</ele>
        <time>2018-09-10T07:01:09Z</time>
      </trkpt>
      <trkpt lat="44.6761" lon="6.89423">
        <ele>2106.39</ele>
        <time>2018-09-10T07:01:27Z</time>
      </trkpt>
      <trkpt lat="44.67599" lon="6.89449">
        <ele>2108.31</ele>
        <time>2018-09-10T07:01:46Z</time>
      </trkpt>
      <trkpt lat="44.67593" lon="6.89466">
        <ele>2109.27</ele>
        <time>2018-09-10T07:02:04Z</time>
      </trkpt>
      <trkpt lat="44.67582" lon="6.89484">
        <ele>2111.19</ele>
        <time>2018-09-10T07:02:24Z</time>
      </trkpt>
      <trkpt lat="44.67569" lon="6.89501">
        <ele>2111.19</ele>
        <time>2018-09-10T07:02:40Z</time>
      </trkpt>
      <trkpt lat="44.67551" lon="6.89527">
        <ele>2111.19</ele>
        <time>2018-09-10T07:03:06Z</time>
      </trkpt>
      <trkpt lat="44.67533" lon="6.8955">
        <ele>2112.15</ele>
        <time>2018-09-10T07:03:30Z</time>
      </trkpt>
      <trkpt lat="44.6752" lon="6.89571">
        <ele>2113.12</ele>
        <time>2018-09-10T07:03:46Z</time>
      </trkpt>
      <trkpt lat="44.67506" lon="6.89591">
        <ele>2112.63</ele>
        <time>2018-09-10T07:04:02Z</time>
      </trkpt>
      <trkpt lat="44.6749" lon="6.89622">
        <ele>2113.12</ele>
        <time>2018-09-10T07:04:30Z</time>
      </trkpt>
      <trkpt lat="44.67473" lon="6.89645">
        <ele>2112.63</ele>
        <time>2018-09-10T07:04:53Z</time>
      </trkpt>
      <trkpt lat="44.67468" lon="6.89665">
        <ele>2115.04</ele>
        <time>2018-09-10T07:05:11Z</time>
      </trkpt>
      <trkpt lat="44.67458" lon="6.89685">
        <ele>2115.04</ele>
        <time>2018-09-10T07:05:28Z</time>
      </trkpt>
      <trkpt lat="44.67451" lon="6.89707">
        <ele>2118.4</ele>
        <time>2018-09-10T07:05:44Z</time>
      </trkpt>
      <trkpt lat="44.67444" lon="6.8973">
        <ele>2116.96</ele>
        <time>2018-09-10T07:06:00Z</time>
      </trkpt>
      <trkpt lat="44.67437" lon="6.89749">
        <ele>2117.44</ele>
        <time>2018-09-10T07:06:12Z</time>
      </trkpt>
      <trkpt lat="44.67433" lon="6.89773">
        <ele>2118.88</ele>
        <time>2018-09-10T07:06:31Z</time>
      </trkpt>
      <trkpt lat="44.67425" lon="6.89795">
        <ele>2119.36</ele>
        <time>2018-09-10T07:06:47Z</time>
      </trkpt>
      <trkpt lat="44.67415" lon="6.89816">
        <ele>2120.32</ele>
        <time>2018-09-10T07:07:04Z</time>
      </trkpt>
      <trkpt lat="44.6741" lon="6.89834">
        <ele>2121.29</ele>
        <time>2018-09-10T07:07:18Z</time>
      </trkpt>
      <trkpt lat="44.67408" lon="6.89853">
        <ele>2124.65</ele>
        <time>2018-09-10T07:07:33Z</time>
      </trkpt>
      <trkpt lat="44.67408" lon="6.89867">
        <ele>2126.57</ele>
        <time>2018-09-10T07:07:47Z</time>
      </trkpt>
      <trkpt lat="44.67405" lon="6.89884">
        <ele>2128.98</ele>
        <time>2018-09-10T07:08:03Z</time>
      </trkpt>
      <trkpt lat="44.67399" lon="6.89905">
        <ele>2130.9</ele>
        <time>2018-09-10T07:08:22Z</time>
      </trkpt>
      <trkpt lat="44.67397" lon="6.89923">
        <ele>2133.3</ele>
        <time>2018-09-10T07:08:41Z</time>
      </trkpt>
      <trkpt lat="44.67393" lon="6.89949">
        <ele>2135.71</ele>
        <time>2018-09-10T07:09:00Z</time>
      </trkpt>
      <trkpt lat="44.67395" lon="6.89968">
        <ele>2136.67</ele>
        <time>2018-09-10T07:09:16Z</time>
      </trkpt>
      <trkpt lat="44.67394" lon="6.89989">
        <ele>2136.67</ele>
        <time>2018-09-10T07:09:28Z</time>
      </trkpt>
      <trkpt lat="44.67388" lon="6.90004">
        <ele>2137.15</ele>
        <time>2018-09-10T07:09:41Z</time>
      </trkpt>
      <trkpt lat="44.67387" lon="6.90021">
        <ele>2137.63</ele>
        <time>2018-09-10T07:09:54Z</time>
      </trkpt>
      <trkpt lat="44.67386" lon="6.90039">
        <ele>2138.11</ele>
        <time>2018-09-10T07:10:06Z</time>
      </trkpt>
      <trkpt lat="44.67388" lon="6.90056">
        <ele>2138.11</ele>
        <time>2018-09-10T07:10:17Z</time>
      </trkpt>
      <trkpt lat="44.67394" lon="6.90072">
        <ele>2139.55</ele>
        <time>2018-09-10T07:10:29Z</time>
      </trkpt>
      <trkpt lat="44.67401" lon="6.90088">
        <ele>2140.51</ele>
        <time>2018-09-10T07:10:42Z</time>
      </trkpt>
      <trkpt lat="44.67406" lon="6.90106">
        <ele>2142.92</ele>
        <time>2018-09-10T07:11:01Z</time>
      </trkpt>
      <trkpt lat="44.67406" lon="6.90129">
        <ele>2143.88</ele>
        <time>2018-09-10T07:11:17Z</time>
      </trkpt>
      <trkpt lat="44.67409" lon="6.90149">
        <ele>2144.36</ele>
        <time>2018-09-10T07:11:34Z</time>
      </trkpt>
      <trkpt lat="44.67409" lon="6.9017">
        <ele>2145.32</ele>
        <time>2018-09-10T07:11:48Z</time>
      </trkpt>
      <trkpt lat="44.6741" lon="6.90186">
        <ele>2146.76</ele>
        <time>2018-09-10T07:12:03Z</time>
      </trkpt>
      <trkpt lat="44.67416" lon="6.90204">
        <ele>2147.72</ele>
        <time>2018-09-10T07:12:16Z</time>
      </trkpt>
      <trkpt lat="44.67421" lon="6.90221">
        <ele>2148.68</ele>
        <time>2018-09-10T07:12:28Z</time>
      </trkpt>
      <trkpt lat="44.67424" lon="6.90237">
        <ele>2147.24</ele>
        <time>2018-09-10T07:12:39Z</time>
      </trkpt>
      <trkpt lat="44.67429" lon="6.90251">
        <ele>2149.65</ele>
        <time>2018-09-10T07:12:53Z</time>
      </trkpt>
      <trkpt lat="44.67448" lon="6.90267">
        <ele>2150.13</ele>
        <time>2018-09-10T07:13:09Z</time>
      </trkpt>
      <trkpt lat="44.67453" lon="6.90294">
        <ele>2150.13</ele>
        <time>2018-09-10T07:13:23Z</time>
      </trkpt>
      <trkpt lat="44.67457" lon="6.9031">
        <ele>2154.45</ele>
        <time>2018-09-10T07:13:38Z</time>
      </trkpt>
      <trkpt lat="44.6746" lon="6.90326">
        <ele>2151.09</ele>
        <time>2018-09-10T07:13:50Z</time>
      </trkpt>
      <trkpt lat="44.67465" lon="6.9034">
        <ele>2157.34</ele>
        <time>2018-09-10T07:14:04Z</time>
      </trkpt>
      <trkpt lat="44.67468" lon="6.90359">
        <ele>2157.34</ele>
        <time>2018-09-10T07:14:22Z</time>
      </trkpt>
      <trkpt lat="44.67469" lon="6.90382">
        <ele>2158.3</ele>
        <time>2018-09-10T07:14:41Z</time>
      </trkpt>
      <trkpt lat="44.67473" lon="6.904">
        <ele>2161.18</ele>
        <time>2018-09-10T07:14:55Z</time>
      </trkpt>
      <trkpt lat="44.67478" lon="6.90414">
        <ele>2161.18</ele>
        <time>2018-09-10T07:15:07Z</time>
      </trkpt>
      <trkpt lat="44.67486" lon="6.90431">
        <ele>2159.74</ele>
        <time>2018-09-10T07:15:19Z</time>
      </trkpt>
      <trkpt lat="44.67486" lon="6.90447">
        <ele>2160.7</ele>
        <time>2018-09-10T07:15:32Z</time>
      </trkpt>
      <trkpt lat="44.6749" lon="6.90463">
        <ele>2165.99</ele>
        <time>2018-09-10T07:15:46Z</time>
      </trkpt>
      <trkpt lat="44.67493" lon="6.90481">
        <ele>2165.51</ele>
        <time>2018-09-10T07:15:58Z</time>
      </trkpt>
      <trkpt lat="44.67496" lon="6.90498">
        <ele>2165.03</ele>
        <time>2018-09-10T07:16:09Z</time>
      </trkpt>
      <trkpt lat="44.67497" lon="6.90513">
        <ele>2164.55</ele>
        <time>2018-09-10T07:16:20Z</time>
      </trkpt>
      <trkpt lat="44.675" lon="6.90526">
        <ele>2167.43</ele>
        <time>2018-09-10T07:16:31Z</time>
      </trkpt>
      <trkpt lat="44.67503" lon="6.90545">
        <ele>2168.39</ele>
        <time>2018-09-10T07:16:42Z</time>
      </trkpt>
      <trkpt lat="44.67504" lon="6.90563">
        <ele>2167.43</ele>
        <time>2018-09-10T07:16:54Z</time>
      </trkpt>
      <trkpt lat="44.67505" lon="6.90578">
        <ele>2166.95</ele>
        <time>2018-09-10T07:17:05Z</time>
      </trkpt>
      <trkpt lat="44.67507" lon="6.90591">
        <ele>2169.35</ele>
        <time>2018-09-10T07:17:15Z</time>
      </trkpt>
      <trkpt lat="44.67511" lon="6.90607">
        <ele>2168.87</ele>
        <time>2018-09-10T07:17:26Z</time>
      </trkpt>
      <trkpt lat="44.67515" lon="6.90625">
        <ele>2168.87</ele>
        <time>2018-09-10T07:17:37Z</time>
      </trkpt>
      <trkpt lat="44.67517" lon="6.90643">
        <ele>2166.95</ele>
        <time>2018-09-10T07:17:48Z</time>
      </trkpt>
      <trkpt lat="44.6752" lon="6.90653">
        <ele>2171.27</ele>
        <time>2018-09-10T07:17:59Z</time>
      </trkpt>
      <trkpt lat="44.67524" lon="6.90669">
        <ele>2172.72</ele>
        <time>2018-09-10T07:18:11Z</time>
      </trkpt>
      <trkpt lat="44.67526" lon="6.90685">
        <ele>2175.6</ele>
        <time>2018-09-10T07:18:23Z</time>
      </trkpt>
      <trkpt lat="44.67529" lon="6.90699">
        <ele>2176.08</ele>
        <time>2018-09-10T07:18:34Z</time>
      </trkpt>
      <trkpt lat="44.67532" lon="6.90714">
        <ele>2174.16</ele>
        <time>2018-09-10T07:18:45Z</time>
      </trkpt>
      <trkpt lat="44.67534" lon="6.90728">
        <ele>2177.04</ele>
        <time>2018-09-10T07:18:57Z</time>
      </trkpt>
      <trkpt lat="44.67538" lon="6.90744">
        <ele>2178</ele>
        <time>2018-09-10T07:19:08Z</time>
      </trkpt>
      <trkpt lat="44.67541" lon="6.90759">
        <ele>2178</ele>
        <time>2018-09-10T07:19:20Z</time>
      </trkpt>
      <trkpt lat="44.67543" lon="6.90774">
        <ele>2179.93</ele>
        <time>2018-09-10T07:19:31Z</time>
      </trkpt>
      <trkpt lat="44.67545" lon="6.9079">
        <ele>2181.37</ele>
        <time>2018-09-10T07:19:43Z</time>
      </trkpt>
      <trkpt lat="44.67546" lon="6.90804">
        <ele>2182.81</ele>
        <time>2018-09-10T07:19:56Z</time>
      </trkpt>
      <trkpt lat="44.67548" lon="6.90817">
        <ele>2182.81</ele>
        <time>2018-09-10T07:20:08Z</time>
      </trkpt>
      <trkpt lat="44.67551" lon="6.90835">
        <ele>2183.29</ele>
        <time>2018-09-10T07:20:20Z</time>
      </trkpt>
      <trkpt lat="44.67554" lon="6.90851">
        <ele>2184.25</ele>
        <time>2018-09-10T07:20:31Z</time>
      </trkpt>
      <trkpt lat="44.67558" lon="6.90866">
        <ele>2185.69</ele>
        <time>2018-09-10T07:20:42Z</time>
      </trkpt>
      <trkpt lat="44.67559" lon="6.90882">
        <ele>2185.21</ele>
        <time>2018-09-10T07:20:54Z</time>
      </trkpt>
      <trkpt lat="44.6756" lon="6.90901">
        <ele>2186.66</ele>
        <time>2018-09-10T07:21:07Z</time>
      </trkpt>
      <trkpt lat="44.67563" lon="6.90919">
        <ele>2186.18</ele>
        <time>2018-09-10T07:21:20Z</time>
      </trkpt>
      <trkpt lat="44.6757" lon="6.90934">
        <ele>2186.66</ele>
        <time>2018-09-10T07:21:32Z</time>
      </trkpt>
      <trkpt lat="44.67574" lon="6.90944">
        <ele>2186.66</ele>
        <time>2018-09-10T07:21:44Z</time>
      </trkpt>
      <trkpt lat="44.67581" lon="6.90962">
        <ele>2188.58</ele>
        <time>2018-09-10T07:21:56Z</time>
      </trkpt>
      <trkpt lat="44.67591" lon="6.90973">
        <ele>2188.58</ele>
        <time>2018-09-10T07:22:08Z</time>
      </trkpt>
      <trkpt lat="44.67598" lon="6.90984">
        <ele>2189.54</ele>
        <time>2018-09-10T07:22:20Z</time>
      </trkpt>
      <trkpt lat="44.67604" lon="6.90996">
        <ele>2189.54</ele>
        <time>2018-09-10T07:22:31Z</time>
      </trkpt>
      <trkpt lat="44.6761" lon="6.91006">
        <ele>2190.5</ele>
        <time>2018-09-10T07:22:42Z</time>
      </trkpt>
      <trkpt lat="44.67613" lon="6.91023">
        <ele>2191.46</ele>
        <time>2018-09-10T07:22:54Z</time>
      </trkpt>
      <trkpt lat="44.67617" lon="6.91039">
        <ele>2191.94</ele>
        <time>2018-09-10T07:23:05Z</time>
      </trkpt>
      <trkpt lat="44.67622" lon="6.91053">
        <ele>2192.42</ele>
        <time>2018-09-10T07:23:16Z</time>
      </trkpt>
      <trkpt lat="44.67626" lon="6.91069">
        <ele>2193.39</ele>
        <time>2018-09-10T07:23:28Z</time>
      </trkpt>
      <trkpt lat="44.67628" lon="6.91085">
        <ele>2193.39</ele>
        <time>2018-09-10T07:23:40Z</time>
      </trkpt>
      <trkpt lat="44.67631" lon="6.91103">
        <ele>2195.31</ele>
        <time>2018-09-10T07:23:55Z</time>
      </trkpt>
      <trkpt lat="44.67636" lon="6.91118">
        <ele>2196.27</ele>
        <time>2018-09-10T07:24:07Z</time>
      </trkpt>
      <trkpt lat="44.67639" lon="6.91129">
        <ele>2197.71</ele>
        <time>2018-09-10T07:24:18Z</time>
      </trkpt>
      <trkpt lat="44.67641" lon="6.91146">
        <ele>2197.23</ele>
        <time>2018-09-10T07:24:29Z</time>
      </trkpt>
      <trkpt lat="44.67645" lon="6.91161">
        <ele>2198.67</ele>
        <time>2018-09-10T07:24:40Z</time>
      </trkpt>
      <trkpt lat="44.67649" lon="6.91175">
        <ele>2199.63</ele>
        <time>2018-09-10T07:24:51Z</time>
      </trkpt>
      <trkpt lat="44.67655" lon="6.91186">
        <ele>2200.11</ele>
        <time>2018-09-10T07:25:01Z</time>
      </trkpt>
      <trkpt lat="44.67658" lon="6.912">
        <ele>2200.59</ele>
        <time>2018-09-10T07:25:18Z</time>
      </trkpt>
      <trkpt lat="44.67656" lon="6.91214">
        <ele>2202.04</ele>
        <time>2018-09-10T07:25:38Z</time>
      </trkpt>
      <trkpt lat="44.67658" lon="6.9123">
        <ele>2202.52</ele>
        <time>2018-09-10T07:25:49Z</time>
      </trkpt>
      <trkpt lat="44.67664" lon="6.91241">
        <ele>2203</ele>
        <time>2018-09-10T07:25:59Z</time>
      </trkpt>
      <trkpt lat="44.67669" lon="6.91256">
        <ele>2204.44</ele>
        <time>2018-09-10T07:26:10Z</time>
      </trkpt>
      <trkpt lat="44.67675" lon="6.91268">
        <ele>2204.92</ele>
        <time>2018-09-10T07:26:21Z</time>
      </trkpt>
      <trkpt lat="44.67677" lon="6.91284">
        <ele>2206.36</ele>
        <time>2018-09-10T07:26:32Z</time>
      </trkpt>
      <trkpt lat="44.67673" lon="6.91301">
        <ele>2206.36</ele>
        <time>2018-09-10T07:26:43Z</time>
      </trkpt>
      <trkpt lat="44.67672" lon="6.91307">
        <ele>2207.81</ele>
        <time>2018-09-10T07:33:30Z</time>
      </trkpt>
      <trkpt lat="44.6767" lon="6.91309">
        <ele>2207.32</ele>
        <time>2018-09-10T07:34:32Z</time>
      </trkpt>
      <trkpt lat="44.67671" lon="6.91327">
        <ele>2208.29</ele>
        <time>2018-09-10T07:35:13Z</time>
      </trkpt>
      <trkpt lat="44.6768" lon="6.91351">
        <ele>2209.73</ele>
        <time>2018-09-10T07:35:37Z</time>
      </trkpt>
      <trkpt lat="44.67685" lon="6.91374">
        <ele>2211.17</ele>
        <time>2018-09-10T07:36:05Z</time>
      </trkpt>
      <trkpt lat="44.67689" lon="6.91391">
        <ele>2211.65</ele>
        <time>2018-09-10T07:36:19Z</time>
      </trkpt>
      <trkpt lat="44.6769" lon="6.9141">
        <ele>2212.61</ele>
        <time>2018-09-10T07:36:36Z</time>
      </trkpt>
      <trkpt lat="44.67686" lon="6.91431">
        <ele>2214.53</ele>
        <time>2018-09-10T07:36:52Z</time>
      </trkpt>
      <trkpt lat="44.67686" lon="6.9145">
        <ele>2215.5</ele>
        <time>2018-09-10T07:37:10Z</time>
      </trkpt>
      <trkpt lat="44.67682" lon="6.91474">
        <ele>2216.94</ele>
        <time>2018-09-10T07:37:34Z</time>
      </trkpt>
      <trkpt lat="44.67679" lon="6.915">
        <ele>2217.9</ele>
        <time>2018-09-10T07:37:56Z</time>
      </trkpt>
      <trkpt lat="44.67665" lon="6.91529">
        <ele>2221.26</ele>
        <time>2018-09-10T07:38:34Z</time>
      </trkpt>
      <trkpt lat="44.67647" lon="6.91533">
        <ele>2224.63</ele>
        <time>2018-09-10T07:39:05Z</time>
      </trkpt>
      <trkpt lat="44.67634" lon="6.91562">
        <ele>2226.07</ele>
        <time>2018-09-10T07:39:33Z</time>
      </trkpt>
      <trkpt lat="44.67623" lon="6.91582">
        <ele>2229.43</ele>
        <time>2018-09-10T07:39:58Z</time>
      </trkpt>
      <trkpt lat="44.67618" lon="6.916">
        <ele>2231.84</ele>
        <time>2018-09-10T07:40:20Z</time>
      </trkpt>
      <trkpt lat="44.67623" lon="6.91611">
        <ele>2234.24</ele>
        <time>2018-09-10T07:40:57Z</time>
      </trkpt>
      <trkpt lat="44.67614" lon="6.91642">
        <ele>2234.72</ele>
        <time>2018-09-10T07:41:17Z</time>
      </trkpt>
      <trkpt lat="44.6761" lon="6.91666">
        <ele>2235.2</ele>
        <time>2018-09-10T07:41:35Z</time>
      </trkpt>
      <trkpt lat="44.67593" lon="6.91668">
        <ele>2238.57</ele>
        <time>2018-09-10T07:42:15Z</time>
      </trkpt>
      <trkpt lat="44.67586" lon="6.91681">
        <ele>2241.93</ele>
        <time>2018-09-10T07:42:32Z</time>
      </trkpt>
      <trkpt lat="44.67576" lon="6.91692">
        <ele>2243.37</ele>
        <time>2018-09-10T07:42:47Z</time>
      </trkpt>
      <trkpt lat="44.67568" lon="6.91701">
        <ele>2245.78</ele>
        <time>2018-09-10T07:43:01Z</time>
      </trkpt>
      <trkpt lat="44.67561" lon="6.91713">
        <ele>2247.22</ele>
        <time>2018-09-10T07:43:18Z</time>
      </trkpt>
      <trkpt lat="44.67559" lon="6.91734">
        <ele>2249.14</ele>
        <time>2018-09-10T07:43:35Z</time>
      </trkpt>
      <trkpt lat="44.67553" lon="6.91756">
        <ele>2251.06</ele>
        <time>2018-09-10T07:43:57Z</time>
      </trkpt>
      <trkpt lat="44.67544" lon="6.91764">
        <ele>2253.95</ele>
        <time>2018-09-10T07:44:16Z</time>
      </trkpt>
      <trkpt lat="44.67533" lon="6.91777">
        <ele>2257.31</ele>
        <time>2018-09-10T07:44:40Z</time>
      </trkpt>
      <trkpt lat="44.67524" lon="6.9179">
        <ele>2261.64</ele>
        <time>2018-09-10T07:45:06Z</time>
      </trkpt>
      <trkpt lat="44.67517" lon="6.918">
        <ele>2263.56</ele>
        <time>2018-09-10T07:45:23Z</time>
      </trkpt>
      <trkpt lat="44.67509" lon="6.91811">
        <ele>2265.96</ele>
        <time>2018-09-10T07:45:40Z</time>
      </trkpt>
      <trkpt lat="44.67501" lon="6.91822">
        <ele>2268.85</ele>
        <time>2018-09-10T07:45:59Z</time>
      </trkpt>
      <trkpt lat="44.67493" lon="6.9183">
        <ele>2270.29</ele>
        <time>2018-09-10T07:46:15Z</time>
      </trkpt>
      <trkpt lat="44.67486" lon="6.91836">
        <ele>2272.69</ele>
        <time>2018-09-10T07:46:32Z</time>
      </trkpt>
      <trkpt lat="44.67481" lon="6.91846">
        <ele>2275.1</ele>
        <time>2018-09-10T07:46:49Z</time>
      </trkpt>
      <trkpt lat="44.67475" lon="6.91854">
        <ele>2277.02</ele>
        <time>2018-09-10T07:47:12Z</time>
      </trkpt>
      <trkpt lat="44.67468" lon="6.9187">
        <ele>2279.42</ele>
        <time>2018-09-10T07:47:52Z</time>
      </trkpt>
      <trkpt lat="44.67462" lon="6.91875">
        <ele>2281.35</ele>
        <time>2018-09-10T07:48:08Z</time>
      </trkpt>
      <trkpt lat="44.67457" lon="6.91885">
        <ele>2282.31</ele>
        <time>2018-09-10T07:48:28Z</time>
      </trkpt>
      <trkpt lat="44.6745" lon="6.91893">
        <ele>2283.75</ele>
        <time>2018-09-10T07:48:41Z</time>
      </trkpt>
      <trkpt lat="44.67441" lon="6.91902">
        <ele>2285.67</ele>
        <time>2018-09-10T07:48:54Z</time>
      </trkpt>
      <trkpt lat="44.67431" lon="6.91907">
        <ele>2288.56</ele>
        <time>2018-09-10T07:49:10Z</time>
      </trkpt>
      <trkpt lat="44.67422" lon="6.91912">
        <ele>2290</ele>
        <time>2018-09-10T07:49:23Z</time>
      </trkpt>
      <trkpt lat="44.67413" lon="6.9192">
        <ele>2290.96</ele>
        <time>2018-09-10T07:49:35Z</time>
      </trkpt>
      <trkpt lat="44.67409" lon="6.91931">
        <ele>2293.36</ele>
        <time>2018-09-10T07:49:50Z</time>
      </trkpt>
      <trkpt lat="44.674" lon="6.91934">
        <ele>2295.28</ele>
        <time>2018-09-10T07:50:05Z</time>
      </trkpt>
      <trkpt lat="44.67403" lon="6.91955">
        <ele>2297.69</ele>
        <time>2018-09-10T07:50:23Z</time>
      </trkpt>
      <trkpt lat="44.67414" lon="6.91955">
        <ele>2301.05</ele>
        <time>2018-09-10T07:50:44Z</time>
      </trkpt>
      <trkpt lat="44.67426" lon="6.9196">
        <ele>2303.94</ele>
        <time>2018-09-10T07:51:10Z</time>
      </trkpt>
      <trkpt lat="44.67437" lon="6.91978">
        <ele>2308.26</ele>
        <time>2018-09-10T07:51:38Z</time>
      </trkpt>
      <trkpt lat="44.67432" lon="6.91993">
        <ele>2313.07</ele>
        <time>2018-09-10T07:52:09Z</time>
      </trkpt>
      <trkpt lat="44.67425" lon="6.92001">
        <ele>2315.95</ele>
        <time>2018-09-10T07:52:28Z</time>
      </trkpt>
      <trkpt lat="44.67417" lon="6.9201">
        <ele>2317.4</ele>
        <time>2018-09-10T07:52:41Z</time>
      </trkpt>
      <trkpt lat="44.67411" lon="6.92021">
        <ele>2318.84</ele>
        <time>2018-09-10T07:52:54Z</time>
      </trkpt>
      <trkpt lat="44.67423" lon="6.92021">
        <ele>2320.76</ele>
        <time>2018-09-10T07:53:09Z</time>
      </trkpt>
      <trkpt lat="44.67424" lon="6.92025">
        <ele>2323.16</ele>
        <time>2018-09-10T07:53:29Z</time>
      </trkpt>
      <trkpt lat="44.67419" lon="6.92038">
        <ele>2324.61</ele>
        <time>2018-09-10T07:53:44Z</time>
      </trkpt>
      <trkpt lat="44.67414" lon="6.92046">
        <ele>2325.57</ele>
        <time>2018-09-10T07:53:57Z</time>
      </trkpt>
      <trkpt lat="44.67427" lon="6.92043">
        <ele>2327.97</ele>
        <time>2018-09-10T07:54:16Z</time>
      </trkpt>
      <trkpt lat="44.67428" lon="6.92057">
        <ele>2331.33</ele>
        <time>2018-09-10T07:54:34Z</time>
      </trkpt>
      <trkpt lat="44.67429" lon="6.92073">
        <ele>2335.18</ele>
        <time>2018-09-10T07:54:54Z</time>
      </trkpt>
      <trkpt lat="44.67426" lon="6.92086">
        <ele>2338.06</ele>
        <time>2018-09-10T07:55:12Z</time>
      </trkpt>
      <trkpt lat="44.67418" lon="6.92096">
        <ele>2339.51</ele>
        <time>2018-09-10T07:55:26Z</time>
      </trkpt>
      <trkpt lat="44.67409" lon="6.92104">
        <ele>2340.47</ele>
        <time>2018-09-10T07:55:39Z</time>
      </trkpt>
      <trkpt lat="44.67402" lon="6.92113">
        <ele>2343.35</ele>
        <time>2018-09-10T07:56:05Z</time>
      </trkpt>
      <trkpt lat="44.67402" lon="6.92127">
        <ele>2346.72</ele>
        <time>2018-09-10T07:56:25Z</time>
      </trkpt>
      <trkpt lat="44.67396" lon="6.92138">
        <ele>2350.08</ele>
        <time>2018-09-10T07:56:50Z</time>
      </trkpt>
      <trkpt lat="44.67397" lon="6.92146">
        <ele>2352.96</ele>
        <time>2018-09-10T07:57:09Z</time>
      </trkpt>
      <trkpt lat="44.67387" lon="6.92146">
        <ele>2354.89</ele>
        <time>2018-09-10T07:57:22Z</time>
      </trkpt>
      <trkpt lat="44.67378" lon="6.92147">
        <ele>2355.85</ele>
        <time>2018-09-10T07:57:34Z</time>
      </trkpt>
      <trkpt lat="44.67368" lon="6.92149">
        <ele>2356.81</ele>
        <time>2018-09-10T07:57:47Z</time>
      </trkpt>
      <trkpt lat="44.67361" lon="6.92155">
        <ele>2358.73</ele>
        <time>2018-09-10T07:58:01Z</time>
      </trkpt>
      <trkpt lat="44.67352" lon="6.92156">
        <ele>2359.69</ele>
        <time>2018-09-10T07:58:13Z</time>
      </trkpt>
      <trkpt lat="44.67345" lon="6.92157">
        <ele>2361.62</ele>
        <time>2018-09-10T07:58:27Z</time>
      </trkpt>
      <trkpt lat="44.67336" lon="6.92158">
        <ele>2362.1</ele>
        <time>2018-09-10T07:58:38Z</time>
      </trkpt>
      <trkpt lat="44.67328" lon="6.92164">
        <ele>2363.06</ele>
        <time>2018-09-10T07:58:50Z</time>
      </trkpt>
      <trkpt lat="44.6732" lon="6.92168">
        <ele>2364.02</ele>
        <time>2018-09-10T07:59:01Z</time>
      </trkpt>
      <trkpt lat="44.67314" lon="6.92178">
        <ele>2364.98</ele>
        <time>2018-09-10T07:59:13Z</time>
      </trkpt>
      <trkpt lat="44.67308" lon="6.92189">
        <ele>2365.94</ele>
        <time>2018-09-10T07:59:24Z</time>
      </trkpt>
      <trkpt lat="44.67303" lon="6.922">
        <ele>2367.38</ele>
        <time>2018-09-10T07:59:35Z</time>
      </trkpt>
      <trkpt lat="44.67311" lon="6.92206">
        <ele>2372.19</ele>
        <time>2018-09-10T07:59:57Z</time>
      </trkpt>
      <trkpt lat="44.67321" lon="6.92214">
        <ele>2377.48</ele>
        <time>2018-09-10T08:00:28Z</time>
      </trkpt>
      <trkpt lat="44.67328" lon="6.92213">
        <ele>2380.36</ele>
        <time>2018-09-10T08:00:45Z</time>
      </trkpt>
      <trkpt lat="44.67338" lon="6.92225">
        <ele>2383.25</ele>
        <time>2018-09-10T08:01:07Z</time>
      </trkpt>
      <trkpt lat="44.67342" lon="6.9223">
        <ele>2385.17</ele>
        <time>2018-09-10T08:01:29Z</time>
      </trkpt>
      <trkpt lat="44.67343" lon="6.92245">
        <ele>2384.69</ele>
        <time>2018-09-10T08:02:33Z</time>
      </trkpt>
      <trkpt lat="44.67339" lon="6.9226">
        <ele>2383.73</ele>
        <time>2018-09-10T08:02:49Z</time>
      </trkpt>
      <trkpt lat="44.67337" lon="6.92246">
        <ele>2386.61</ele>
        <time>2018-09-10T08:03:08Z</time>
      </trkpt>
      <trkpt lat="44.67332" lon="6.92257">
        <ele>2386.61</ele>
        <time>2018-09-10T08:03:49Z</time>
      </trkpt>
      <trkpt lat="44.67324" lon="6.92268">
        <ele>2387.57</ele>
        <time>2018-09-10T08:04:02Z</time>
      </trkpt>
      <trkpt lat="44.67316" lon="6.92271">
        <ele>2387.57</ele>
        <time>2018-09-10T08:04:15Z</time>
      </trkpt>
      <trkpt lat="44.67309" lon="6.9228">
        <ele>2389.49</ele>
        <time>2018-09-10T08:04:57Z</time>
      </trkpt>
      <trkpt lat="44.67301" lon="6.92281">
        <ele>2389.49</ele>
        <time>2018-09-10T08:05:07Z</time>
      </trkpt>
      <trkpt lat="44.67291" lon="6.92283">
        <ele>2389.97</ele>
        <time>2018-09-10T08:05:17Z</time>
      </trkpt>
      <trkpt lat="44.67282" lon="6.92288">
        <ele>2389.97</ele>
        <time>2018-09-10T08:05:27Z</time>
      </trkpt>
      <trkpt lat="44.67271" lon="6.92294">
        <ele>2390.46</ele>
        <time>2018-09-10T08:05:43Z</time>
      </trkpt>
      <trkpt lat="44.67263" lon="6.92292">
        <ele>2391.9</ele>
        <time>2018-09-10T08:05:52Z</time>
      </trkpt>
      <trkpt lat="44.67253" lon="6.92293">
        <ele>2394.78</ele>
        <time>2018-09-10T08:06:02Z</time>
      </trkpt>
      <trkpt lat="44.67247" lon="6.923">
        <ele>2392.38</ele>
        <time>2018-09-10T08:06:13Z</time>
      </trkpt>
      <trkpt lat="44.67237" lon="6.92308">
        <ele>2392.38</ele>
        <time>2018-09-10T08:06:25Z</time>
      </trkpt>
      <trkpt lat="44.67228" lon="6.92311">
        <ele>2391.9</ele>
        <time>2018-09-10T08:06:36Z</time>
      </trkpt>
      <trkpt lat="44.6722" lon="6.92312">
        <ele>2392.86</ele>
        <time>2018-09-10T08:06:46Z</time>
      </trkpt>
      <trkpt lat="44.67212" lon="6.92317">
        <ele>2393.82</ele>
        <time>2018-09-10T08:06:56Z</time>
      </trkpt>
      <trkpt lat="44.67204" lon="6.92322">
        <ele>2394.3</ele>
        <time>2018-09-10T08:07:06Z</time>
      </trkpt>
      <trkpt lat="44.67195" lon="6.92328">
        <ele>2394.3</ele>
        <time>2018-09-10T08:07:17Z</time>
      </trkpt>
      <trkpt lat="44.67184" lon="6.92331">
        <ele>2394.78</ele>
        <time>2018-09-10T08:07:50Z</time>
      </trkpt>
      <trkpt lat="44.67174" lon="6.92333">
        <ele>2396.7</ele>
        <time>2018-09-10T08:08:01Z</time>
      </trkpt>
      <trkpt lat="44.67166" lon="6.92341">
        <ele>2397.18</ele>
        <time>2018-09-10T08:08:11Z</time>
      </trkpt>
      <trkpt lat="44.67159" lon="6.92351">
        <ele>2399.11</ele>
        <time>2018-09-10T08:08:22Z</time>
      </trkpt>
      <trkpt lat="44.67153" lon="6.9236">
        <ele>2398.63</ele>
        <time>2018-09-10T08:08:32Z</time>
      </trkpt>
      <trkpt lat="44.67147" lon="6.92369">
        <ele>2399.59</ele>
        <time>2018-09-10T08:08:42Z</time>
      </trkpt>
      <trkpt lat="44.67141" lon="6.92377">
        <ele>2401.03</ele>
        <time>2018-09-10T08:08:53Z</time>
      </trkpt>
      <trkpt lat="44.67132" lon="6.92384">
        <ele>2401.99</ele>
        <time>2018-09-10T08:09:04Z</time>
      </trkpt>
      <trkpt lat="44.67123" lon="6.92387">
        <ele>2403.43</ele>
        <time>2018-09-10T08:09:15Z</time>
      </trkpt>
      <trkpt lat="44.67113" lon="6.92388">
        <ele>2404.39</ele>
        <time>2018-09-10T08:09:26Z</time>
      </trkpt>
      <trkpt lat="44.67103" lon="6.92387">
        <ele>2404.88</ele>
        <time>2018-09-10T08:09:36Z</time>
      </trkpt>
      <trkpt lat="44.67094" lon="6.92386">
        <ele>2405.84</ele>
        <time>2018-09-10T08:09:46Z</time>
      </trkpt>
      <trkpt lat="44.67085" lon="6.92388">
        <ele>2406.32</ele>
        <time>2018-09-10T08:09:56Z</time>
      </trkpt>
      <trkpt lat="44.67077" lon="6.92391">
        <ele>2406.32</ele>
        <time>2018-09-10T08:10:06Z</time>
      </trkpt>
      <trkpt lat="44.67068" lon="6.92397">
        <ele>2407.28</ele>
        <time>2018-09-10T08:10:16Z</time>
      </trkpt>
      <trkpt lat="44.67059" lon="6.92403">
        <ele>2407.76</ele>
        <time>2018-09-10T08:10:27Z</time>
      </trkpt>
      <trkpt lat="44.67052" lon="6.92413">
        <ele>2408.24</ele>
        <time>2018-09-10T08:10:37Z</time>
      </trkpt>
      <trkpt lat="44.67044" lon="6.92421">
        <ele>2409.2</ele>
        <time>2018-09-10T08:10:51Z</time>
      </trkpt>
      <trkpt lat="44.67039" lon="6.92431">
        <ele>2410.64</ele>
        <time>2018-09-10T08:11:01Z</time>
      </trkpt>
      <trkpt lat="44.67033" lon="6.9244">
        <ele>2411.12</ele>
        <time>2018-09-10T08:11:12Z</time>
      </trkpt>
      <trkpt lat="44.67026" lon="6.92448">
        <ele>2412.09</ele>
        <time>2018-09-10T08:11:23Z</time>
      </trkpt>
      <trkpt lat="44.67019" lon="6.92457">
        <ele>2413.05</ele>
        <time>2018-09-10T08:11:34Z</time>
      </trkpt>
      <trkpt lat="44.6701" lon="6.92463">
        <ele>2414.01</ele>
        <time>2018-09-10T08:11:45Z</time>
      </trkpt>
      <trkpt lat="44.67003" lon="6.92469">
        <ele>2414.49</ele>
        <time>2018-09-10T08:11:55Z</time>
      </trkpt>
      <trkpt lat="44.66996" lon="6.9248">
        <ele>2414.97</ele>
        <time>2018-09-10T08:12:06Z</time>
      </trkpt>
      <trkpt lat="44.66989" lon="6.92488">
        <ele>2416.41</ele>
        <time>2018-09-10T08:12:16Z</time>
      </trkpt>
      <trkpt lat="44.66981" lon="6.92494">
        <ele>2418.33</ele>
        <time>2018-09-10T08:12:26Z</time>
      </trkpt>
      <trkpt lat="44.66973" lon="6.92504">
        <ele>2418.33</ele>
        <time>2018-09-10T08:12:44Z</time>
      </trkpt>
      <trkpt lat="44.66965" lon="6.92511">
        <ele>2419.78</ele>
        <time>2018-09-10T08:13:16Z</time>
      </trkpt>
      <trkpt lat="44.66955" lon="6.92516">
        <ele>2420.26</ele>
        <time>2018-09-10T08:13:29Z</time>
      </trkpt>
      <trkpt lat="44.66946" lon="6.92522">
        <ele>2420.26</ele>
        <time>2018-09-10T08:13:40Z</time>
      </trkpt>
      <trkpt lat="44.66938" lon="6.92529">
        <ele>2421.7</ele>
        <time>2018-09-10T08:13:50Z</time>
      </trkpt>
      <trkpt lat="44.6693" lon="6.92538">
        <ele>2422.18</ele>
        <time>2018-09-10T08:14:00Z</time>
      </trkpt>
      <trkpt lat="44.66925" lon="6.9255">
        <ele>2423.14</ele>
        <time>2018-09-10T08:14:10Z</time>
      </trkpt>
      <trkpt lat="44.66921" lon="6.92561">
        <ele>2425.06</ele>
        <time>2018-09-10T08:14:20Z</time>
      </trkpt>
      <trkpt lat="44.66918" lon="6.92575">
        <ele>2426.02</ele>
        <time>2018-09-10T08:14:30Z</time>
      </trkpt>
      <trkpt lat="44.66917" lon="6.9259">
        <ele>2426.99</ele>
        <time>2018-09-10T08:14:43Z</time>
      </trkpt>
      <trkpt lat="44.66919" lon="6.92603">
        <ele>2426.02</ele>
        <time>2018-09-10T08:15:09Z</time>
      </trkpt>
      <trkpt lat="44.66922" lon="6.92617">
        <ele>2426.02</ele>
        <time>2018-09-10T08:15:21Z</time>
      </trkpt>
      <trkpt lat="44.66928" lon="6.9263">
        <ele>2426.5</ele>
        <time>2018-09-10T08:15:32Z</time>
      </trkpt>
      <trkpt lat="44.66931" lon="6.92644">
        <ele>2427.95</ele>
        <time>2018-09-10T08:15:44Z</time>
      </trkpt>
      <trkpt lat="44.66933" lon="6.92659">
        <ele>2430.83</ele>
        <time>2018-09-10T08:15:58Z</time>
      </trkpt>
      <trkpt lat="44.66932" lon="6.92673">
        <ele>2432.27</ele>
        <time>2018-09-10T08:16:08Z</time>
      </trkpt>
      <trkpt lat="44.6693" lon="6.92686">
        <ele>2432.75</ele>
        <time>2018-09-10T08:16:18Z</time>
      </trkpt>
      <trkpt lat="44.66925" lon="6.92697">
        <ele>2433.23</ele>
        <time>2018-09-10T08:16:28Z</time>
      </trkpt>
      <trkpt lat="44.66921" lon="6.92709">
        <ele>2433.23</ele>
        <time>2018-09-10T08:16:38Z</time>
      </trkpt>
      <trkpt lat="44.66916" lon="6.9272">
        <ele>2433.71</ele>
        <time>2018-09-10T08:16:47Z</time>
      </trkpt>
      <trkpt lat="44.66912" lon="6.92731">
        <ele>2434.2</ele>
        <time>2018-09-10T08:16:56Z</time>
      </trkpt>
      <trkpt lat="44.66906" lon="6.92742">
        <ele>2434.68</ele>
        <time>2018-09-10T08:17:06Z</time>
      </trkpt>
      <trkpt lat="44.66902" lon="6.92754">
        <ele>2435.16</ele>
        <time>2018-09-10T08:17:15Z</time>
      </trkpt>
      <trkpt lat="44.66897" lon="6.92765">
        <ele>2435.64</ele>
        <time>2018-09-10T08:17:24Z</time>
      </trkpt>
      <trkpt lat="44.66893" lon="6.92776">
        <ele>2436.6</ele>
        <time>2018-09-10T08:17:33Z</time>
      </trkpt>
      <trkpt lat="44.66887" lon="6.92786">
        <ele>2436.6</ele>
        <time>2018-09-10T08:17:42Z</time>
      </trkpt>
      <trkpt lat="44.66881" lon="6.92797">
        <ele>2436.6</ele>
        <time>2018-09-10T08:17:51Z</time>
      </trkpt>
      <trkpt lat="44.66876" lon="6.92808">
        <ele>2437.08</ele>
        <time>2018-09-10T08:18:00Z</time>
      </trkpt>
      <trkpt lat="44.66871" lon="6.92818">
        <ele>2437.56</ele>
        <time>2018-09-10T08:18:09Z</time>
      </trkpt>
      <trkpt lat="44.66865" lon="6.92828">
        <ele>2439</ele>
        <time>2018-09-10T08:18:18Z</time>
      </trkpt>
      <trkpt lat="44.6686" lon="6.9284">
        <ele>2438.52</ele>
        <time>2018-09-10T08:18:28Z</time>
      </trkpt>
      <trkpt lat="44.66854" lon="6.92849">
        <ele>2439.48</ele>
        <time>2018-09-10T08:18:38Z</time>
      </trkpt>
      <trkpt lat="44.6685" lon="6.92861">
        <ele>2439.96</ele>
        <time>2018-09-10T08:18:48Z</time>
      </trkpt>
      <trkpt lat="44.66845" lon="6.92873">
        <ele>2440.92</ele>
        <time>2018-09-10T08:18:58Z</time>
      </trkpt>
      <trkpt lat="44.66841" lon="6.92885">
        <ele>2440.92</ele>
        <time>2018-09-10T08:19:06Z</time>
      </trkpt>
      <trkpt lat="44.66836" lon="6.92896">
        <ele>2440.92</ele>
        <time>2018-09-10T08:19:15Z</time>
      </trkpt>
      <trkpt lat="44.66831" lon="6.92908">
        <ele>2441.89</ele>
        <time>2018-09-10T08:19:24Z</time>
      </trkpt>
      <trkpt lat="44.66826" lon="6.9292">
        <ele>2442.37</ele>
        <time>2018-09-10T08:19:33Z</time>
      </trkpt>
      <trkpt lat="44.6682" lon="6.92931">
        <ele>2442.37</ele>
        <time>2018-09-10T08:19:42Z</time>
      </trkpt>
      <trkpt lat="44.66813" lon="6.92941">
        <ele>2442.37</ele>
        <time>2018-09-10T08:19:51Z</time>
      </trkpt>
      <trkpt lat="44.66807" lon="6.92952">
        <ele>2442.37</ele>
        <time>2018-09-10T08:20:00Z</time>
      </trkpt>
      <trkpt lat="44.66801" lon="6.92962">
        <ele>2442.85</ele>
        <time>2018-09-10T08:20:08Z</time>
      </trkpt>
      <trkpt lat="44.66796" lon="6.92973">
        <ele>2442.85</ele>
        <time>2018-09-10T08:20:16Z</time>
      </trkpt>
      <trkpt lat="44.6679" lon="6.92982">
        <ele>2442.37</ele>
        <time>2018-09-10T08:20:24Z</time>
      </trkpt>
      <trkpt lat="44.66783" lon="6.92993">
        <ele>2442.37</ele>
        <time>2018-09-10T08:20:33Z</time>
      </trkpt>
      <trkpt lat="44.66776" lon="6.93003">
        <ele>2442.37</ele>
        <time>2018-09-10T08:20:42Z</time>
      </trkpt>
      <trkpt lat="44.66771" lon="6.93014">
        <ele>2441.89</ele>
        <time>2018-09-10T08:20:51Z</time>
      </trkpt>
      <trkpt lat="44.66763" lon="6.93024">
        <ele>2441.89</ele>
        <time>2018-09-10T08:21:01Z</time>
      </trkpt>
      <trkpt lat="44.66755" lon="6.93033">
        <ele>2441.41</ele>
        <time>2018-09-10T08:21:09Z</time>
      </trkpt>
      <trkpt lat="44.66748" lon="6.93041">
        <ele>2442.37</ele>
        <time>2018-09-10T08:21:17Z</time>
      </trkpt>
      <trkpt lat="44.66739" lon="6.93049">
        <ele>2441.89</ele>
        <time>2018-09-10T08:21:26Z</time>
      </trkpt>
      <trkpt lat="44.66733" lon="6.93057">
        <ele>2441.41</ele>
        <time>2018-09-10T08:21:35Z</time>
      </trkpt>
      <trkpt lat="44.66727" lon="6.93066">
        <ele>2440.92</ele>
        <time>2018-09-10T08:21:43Z</time>
      </trkpt>
      <trkpt lat="44.66722" lon="6.93079">
        <ele>2441.41</ele>
        <time>2018-09-10T08:21:52Z</time>
      </trkpt>
      <trkpt lat="44.66715" lon="6.93088">
        <ele>2441.41</ele>
        <time>2018-09-10T08:22:00Z</time>
      </trkpt>
      <trkpt lat="44.66708" lon="6.93099">
        <ele>2441.41</ele>
        <time>2018-09-10T08:22:09Z</time>
      </trkpt>
      <trkpt lat="44.66702" lon="6.93108">
        <ele>2440.44</ele>
        <time>2018-09-10T08:22:18Z</time>
      </trkpt>
      <trkpt lat="44.66694" lon="6.93115">
        <ele>2440.44</ele>
        <time>2018-09-10T08:22:26Z</time>
      </trkpt>
      <trkpt lat="44.66686" lon="6.93125">
        <ele>2439.96</ele>
        <time>2018-09-10T08:22:34Z</time>
      </trkpt>
      <trkpt lat="44.66681" lon="6.93135">
        <ele>2439.48</ele>
        <time>2018-09-10T08:22:42Z</time>
      </trkpt>
      <trkpt lat="44.66676" lon="6.93147">
        <ele>2439.96</ele>
        <time>2018-09-10T08:22:51Z</time>
      </trkpt>
      <trkpt lat="44.66671" lon="6.9316">
        <ele>2439.96</ele>
        <time>2018-09-10T08:23:00Z</time>
      </trkpt>
      <trkpt lat="44.66668" lon="6.93172">
        <ele>2440.44</ele>
        <time>2018-09-10T08:23:08Z</time>
      </trkpt>
      <trkpt lat="44.66666" lon="6.93185">
        <ele>2440.92</ele>
        <time>2018-09-10T08:23:17Z</time>
      </trkpt>
      <trkpt lat="44.66664" lon="6.93199">
        <ele>2441.89</ele>
        <time>2018-09-10T08:23:26Z</time>
      </trkpt>
      <trkpt lat="44.66663" lon="6.93211">
        <ele>2442.85</ele>
        <time>2018-09-10T08:23:35Z</time>
      </trkpt>
      <trkpt lat="44.66658" lon="6.9322">
        <ele>2442.85</ele>
        <time>2018-09-10T08:23:44Z</time>
      </trkpt>
      <trkpt lat="44.66654" lon="6.93233">
        <ele>2443.81</ele>
        <time>2018-09-10T08:23:54Z</time>
      </trkpt>
      <trkpt lat="44.66649" lon="6.93246">
        <ele>2444.77</ele>
        <time>2018-09-10T08:24:04Z</time>
      </trkpt>
      <trkpt lat="44.66645" lon="6.93258">
        <ele>2445.25</ele>
        <time>2018-09-10T08:24:13Z</time>
      </trkpt>
      <trkpt lat="44.66642" lon="6.9327">
        <ele>2446.21</ele>
        <time>2018-09-10T08:24:22Z</time>
      </trkpt>
      <trkpt lat="44.6664" lon="6.93283">
        <ele>2447.17</ele>
        <time>2018-09-10T08:24:31Z</time>
      </trkpt>
      <trkpt lat="44.66635" lon="6.93293">
        <ele>2447.65</ele>
        <time>2018-09-10T08:24:40Z</time>
      </trkpt>
      <trkpt lat="44.66631" lon="6.93303">
        <ele>2448.13</ele>
        <time>2018-09-10T08:24:49Z</time>
      </trkpt>
      <trkpt lat="44.66627" lon="6.93315">
        <ele>2449.1</ele>
        <time>2018-09-10T08:24:59Z</time>
      </trkpt>
      <trkpt lat="44.66623" lon="6.93329">
        <ele>2449.58</ele>
        <time>2018-09-10T08:25:09Z</time>
      </trkpt>
      <trkpt lat="44.66618" lon="6.93341">
        <ele>2449.58</ele>
        <time>2018-09-10T08:25:18Z</time>
      </trkpt>
      <trkpt lat="44.66614" lon="6.93355">
        <ele>2449.58</ele>
        <time>2018-09-10T08:25:27Z</time>
      </trkpt>
      <trkpt lat="44.66612" lon="6.93366">
        <ele>2450.06</ele>
        <time>2018-09-10T08:25:36Z</time>
      </trkpt>
      <trkpt lat="44.66607" lon="6.93378">
        <ele>2451.02</ele>
        <time>2018-09-10T08:25:46Z</time>
      </trkpt>
      <trkpt lat="44.66602" lon="6.93392">
        <ele>2451.98</ele>
        <time>2018-09-10T08:25:56Z</time>
      </trkpt>
      <trkpt lat="44.66598" lon="6.93403">
        <ele>2452.46</ele>
        <time>2018-09-10T08:26:05Z</time>
      </trkpt>
      <trkpt lat="44.66596" lon="6.93416">
        <ele>2453.42</ele>
        <time>2018-09-10T08:26:14Z</time>
      </trkpt>
      <trkpt lat="44.66592" lon="6.93429">
        <ele>2453.42</ele>
        <time>2018-09-10T08:26:23Z</time>
      </trkpt>
      <trkpt lat="44.6659" lon="6.93441">
        <ele>2453.42</ele>
        <time>2018-09-10T08:26:32Z</time>
      </trkpt>
      <trkpt lat="44.66588" lon="6.93453">
        <ele>2454.38</ele>
        <time>2018-09-10T08:26:41Z</time>
      </trkpt>
      <trkpt lat="44.66585" lon="6.93467">
        <ele>2455.34</ele>
        <time>2018-09-10T08:26:51Z</time>
      </trkpt>
      <trkpt lat="44.66581" lon="6.93482">
        <ele>2455.34</ele>
        <time>2018-09-10T08:27:00Z</time>
      </trkpt>
      <trkpt lat="44.66579" lon="6.93496">
        <ele>2455.82</ele>
        <time>2018-09-10T08:27:10Z</time>
      </trkpt>
      <trkpt lat="44.66576" lon="6.93509">
        <ele>2455.82</ele>
        <time>2018-09-10T08:27:19Z</time>
      </trkpt>
      <trkpt lat="44.66579" lon="6.93519">
        <ele>2454.38</ele>
        <time>2018-09-10T08:27:39Z</time>
      </trkpt>
      <trkpt lat="44.66577" lon="6.93526">
        <ele>2455.82</ele>
        <time>2018-09-10T08:27:50Z</time>
      </trkpt>
      <trkpt lat="44.66583" lon="6.93543">
        <ele>2457.75</ele>
        <time>2018-09-10T08:28:03Z</time>
      </trkpt>
      <trkpt lat="44.66585" lon="6.93557">
        <ele>2461.11</ele>
        <time>2018-09-10T08:28:15Z</time>
      </trkpt>
      <trkpt lat="44.66586" lon="6.93571">
        <ele>2462.55</ele>
        <time>2018-09-10T08:28:28Z</time>
      </trkpt>
      <trkpt lat="44.66587" lon="6.93585">
        <ele>2464.96</ele>
        <time>2018-09-10T08:28:42Z</time>
      </trkpt>
      <trkpt lat="44.66589" lon="6.93599">
        <ele>2465.44</ele>
        <time>2018-09-10T08:28:52Z</time>
      </trkpt>
      <trkpt lat="44.66592" lon="6.93612">
        <ele>2466.88</ele>
        <time>2018-09-10T08:29:03Z</time>
      </trkpt>
      <trkpt lat="44.66595" lon="6.93624">
        <ele>2468.32</ele>
        <time>2018-09-10T08:29:13Z</time>
      </trkpt>
      <trkpt lat="44.66591" lon="6.93636">
        <ele>2470.24</ele>
        <time>2018-09-10T08:29:24Z</time>
      </trkpt>
      <trkpt lat="44.66592" lon="6.93648">
        <ele>2470.73</ele>
        <time>2018-09-10T08:29:34Z</time>
      </trkpt>
      <trkpt lat="44.66587" lon="6.93659">
        <ele>2473.13</ele>
        <time>2018-09-10T08:29:46Z</time>
      </trkpt>
      <trkpt lat="44.66587" lon="6.93671">
        <ele>2474.09</ele>
        <time>2018-09-10T08:29:57Z</time>
      </trkpt>
      <trkpt lat="44.66587" lon="6.93685">
        <ele>2476.49</ele>
        <time>2018-09-10T08:30:08Z</time>
      </trkpt>
      <trkpt lat="44.66592" lon="6.93694">
        <ele>2477.45</ele>
        <time>2018-09-10T08:30:21Z</time>
      </trkpt>
      <trkpt lat="44.66599" lon="6.93702">
        <ele>2477.94</ele>
        <time>2018-09-10T08:30:33Z</time>
      </trkpt>
      <trkpt lat="44.66605" lon="6.93711">
        <ele>2477.45</ele>
        <time>2018-09-10T08:30:43Z</time>
      </trkpt>
      <trkpt lat="44.6661" lon="6.93722">
        <ele>2478.42</ele>
        <time>2018-09-10T08:30:53Z</time>
      </trkpt>
      <trkpt lat="44.66615" lon="6.93732">
        <ele>2479.38</ele>
        <time>2018-09-10T08:31:01Z</time>
      </trkpt>
      <trkpt lat="44.66616" lon="6.93743">
        <ele>2478.42</ele>
        <time>2018-09-10T08:31:13Z</time>
      </trkpt>
      <trkpt lat="44.66619" lon="6.93756">
        <ele>2478.42</ele>
        <time>2018-09-10T08:31:23Z</time>
      </trkpt>
      <trkpt lat="44.66623" lon="6.93769">
        <ele>2477.94</ele>
        <time>2018-09-10T08:31:33Z</time>
      </trkpt>
      <trkpt lat="44.66624" lon="6.93781">
        <ele>2477.94</ele>
        <time>2018-09-10T08:31:42Z</time>
      </trkpt>
      <trkpt lat="44.66628" lon="6.93792">
        <ele>2477.94</ele>
        <time>2018-09-10T08:31:52Z</time>
      </trkpt>
      <trkpt lat="44.66629" lon="6.93802">
        <ele>2478.42</ele>
        <time>2018-09-10T08:32:03Z</time>
      </trkpt>
      <trkpt lat="44.66632" lon="6.93812">
        <ele>2478.42</ele>
        <time>2018-09-10T08:32:13Z</time>
      </trkpt>
      <trkpt lat="44.66636" lon="6.93823">
        <ele>2478.42</ele>
        <time>2018-09-10T08:32:22Z</time>
      </trkpt>
      <trkpt lat="44.66637" lon="6.93834">
        <ele>2478.9</ele>
        <time>2018-09-10T08:32:33Z</time>
      </trkpt>
      <trkpt lat="44.66634" lon="6.93845">
        <ele>2477.94</ele>
        <time>2018-09-10T08:32:48Z</time>
      </trkpt>
      <trkpt lat="44.66642" lon="6.93853">
        <ele>2478.42</ele>
        <time>2018-09-10T08:32:57Z</time>
      </trkpt>
      <trkpt lat="44.66649" lon="6.93865">
        <ele>2478.42</ele>
        <time>2018-09-10T08:33:06Z</time>
      </trkpt>
      <trkpt lat="44.66654" lon="6.93874">
        <ele>2478.42</ele>
        <time>2018-09-10T08:33:14Z</time>
      </trkpt>
      <trkpt lat="44.6666" lon="6.93885">
        <ele>2478.42</ele>
        <time>2018-09-10T08:33:22Z</time>
      </trkpt>
      <trkpt lat="44.66664" lon="6.93898">
        <ele>2479.38</ele>
        <time>2018-09-10T08:33:31Z</time>
      </trkpt>
      <trkpt lat="44.66671" lon="6.93903">
        <ele>2480.82</ele>
        <time>2018-09-10T08:33:41Z</time>
      </trkpt>
      <trkpt lat="44.66673" lon="6.93916">
        <ele>2480.34</ele>
        <time>2018-09-10T08:33:51Z</time>
      </trkpt>
      <trkpt lat="44.66672" lon="6.93931">
        <ele>2482.26</ele>
        <time>2018-09-10T08:34:03Z</time>
      </trkpt>
      <trkpt lat="44.66674" lon="6.93945">
        <ele>2484.18</ele>
        <time>2018-09-10T08:34:18Z</time>
      </trkpt>
      <trkpt lat="44.66675" lon="6.93955">
        <ele>2486.11</ele>
        <time>2018-09-10T08:34:31Z</time>
      </trkpt>
      <trkpt lat="44.66671" lon="6.93967">
        <ele>2487.55</ele>
        <time>2018-09-10T08:34:42Z</time>
      </trkpt>
      <trkpt lat="44.66669" lon="6.93978">
        <ele>2487.55</ele>
        <time>2018-09-10T08:34:54Z</time>
      </trkpt>
      <trkpt lat="44.66673" lon="6.93992">
        <ele>2489.47</ele>
        <time>2018-09-10T08:35:07Z</time>
      </trkpt>
      <trkpt lat="44.66673" lon="6.94004">
        <ele>2490.91</ele>
        <time>2018-09-10T08:35:19Z</time>
      </trkpt>
      <trkpt lat="44.66675" lon="6.94015">
        <ele>2493.8</ele>
        <time>2018-09-10T08:35:31Z</time>
      </trkpt>
      <trkpt lat="44.66669" lon="6.94023">
        <ele>2495.72</ele>
        <time>2018-09-10T08:35:46Z</time>
      </trkpt>
      <trkpt lat="44.66662" lon="6.94019">
        <ele>2499.57</ele>
        <time>2018-09-10T08:36:02Z</time>
      </trkpt>
      <trkpt lat="44.66659" lon="6.94033">
        <ele>2501.01</ele>
        <time>2018-09-10T08:36:23Z</time>
      </trkpt>
      <trkpt lat="44.66655" lon="6.94046">
        <ele>2501.49</ele>
        <time>2018-09-10T08:36:57Z</time>
      </trkpt>
      <trkpt lat="44.66648" lon="6.94055">
        <ele>2502.45</ele>
        <time>2018-09-10T08:37:11Z</time>
      </trkpt>
      <trkpt lat="44.66641" lon="6.9405">
        <ele>2504.85</ele>
        <time>2018-09-10T08:37:27Z</time>
      </trkpt>
      <trkpt lat="44.66634" lon="6.94044">
        <ele>2505.81</ele>
        <time>2018-09-10T08:37:42Z</time>
      </trkpt>
      <trkpt lat="44.66629" lon="6.94049">
        <ele>2505.81</ele>
        <time>2018-09-10T08:39:29Z</time>
      </trkpt>
      <trkpt lat="44.66593" lon="6.94084">
        <ele>2495.24</ele>
        <time>2018-09-10T09:40:59Z</time>
      </trkpt>
      <trkpt lat="44.66584" lon="6.94088">
        <ele>2493.8</ele>
        <time>2018-09-10T09:41:10Z</time>
      </trkpt>
      <trkpt lat="44.66575" lon="6.94093">
        <ele>2494.28</ele>
        <time>2018-09-10T09:41:21Z</time>
      </trkpt>
      <trkpt lat="44.66565" lon="6.94094">
        <ele>2494.76</ele>
        <time>2018-09-10T09:41:30Z</time>
      </trkpt>
      <trkpt lat="44.66555" lon="6.94098">
        <ele>2494.76</ele>
        <time>2018-09-10T09:41:41Z</time>
      </trkpt>
      <trkpt lat="44.66546" lon="6.94106">
        <ele>2496.68</ele>
        <time>2018-09-10T09:41:51Z</time>
      </trkpt>
      <trkpt lat="44.66541" lon="6.94121">
        <ele>2498.6</ele>
        <time>2018-09-10T09:42:00Z</time>
      </trkpt>
      <trkpt lat="44.66535" lon="6.94138">
        <ele>2499.08</ele>
        <time>2018-09-10T09:42:10Z</time>
      </trkpt>
      <trkpt lat="44.66529" lon="6.94154">
        <ele>2499.08</ele>
        <time>2018-09-10T09:42:17Z</time>
      </trkpt>
      <trkpt lat="44.66524" lon="6.94169">
        <ele>2501.01</ele>
        <time>2018-09-10T09:42:26Z</time>
      </trkpt>
      <trkpt lat="44.66523" lon="6.94184">
        <ele>2501.49</ele>
        <time>2018-09-10T09:42:36Z</time>
      </trkpt>
      <trkpt lat="44.66514" lon="6.94191">
        <ele>2504.85</ele>
        <time>2018-09-10T09:42:49Z</time>
      </trkpt>
      <trkpt lat="44.66505" lon="6.94193">
        <ele>2506.77</ele>
        <time>2018-09-10T09:43:00Z</time>
      </trkpt>
      <trkpt lat="44.66495" lon="6.94194">
        <ele>2510.14</ele>
        <time>2018-09-10T09:43:19Z</time>
      </trkpt>
      <trkpt lat="44.66487" lon="6.94187">
        <ele>2510.62</ele>
        <time>2018-09-10T09:43:28Z</time>
      </trkpt>
      <trkpt lat="44.66479" lon="6.94184">
        <ele>2512.06</ele>
        <time>2018-09-10T09:43:39Z</time>
      </trkpt>
      <trkpt lat="44.6647" lon="6.94181">
        <ele>2513.02</ele>
        <time>2018-09-10T09:43:50Z</time>
      </trkpt>
      <trkpt lat="44.66462" lon="6.94173">
        <ele>2514.47</ele>
        <time>2018-09-10T09:44:02Z</time>
      </trkpt>
      <trkpt lat="44.66453" lon="6.94166">
        <ele>2513.5</ele>
        <time>2018-09-10T09:44:14Z</time>
      </trkpt>
      <trkpt lat="44.66441" lon="6.94173">
        <ele>2517.83</ele>
        <time>2018-09-10T09:44:36Z</time>
      </trkpt>
      <trkpt lat="44.66431" lon="6.94184">
        <ele>2519.75</ele>
        <time>2018-09-10T09:44:53Z</time>
      </trkpt>
      <trkpt lat="44.66422" lon="6.94196">
        <ele>2521.68</ele>
        <time>2018-09-10T09:45:10Z</time>
      </trkpt>
      <trkpt lat="44.66411" lon="6.94206">
        <ele>2524.08</ele>
        <time>2018-09-10T09:45:29Z</time>
      </trkpt>
      <trkpt lat="44.66402" lon="6.9421">
        <ele>2526.96</ele>
        <time>2018-09-10T09:45:48Z</time>
      </trkpt>
      <trkpt lat="44.66393" lon="6.94219">
        <ele>2529.85</ele>
        <time>2018-09-10T09:46:10Z</time>
      </trkpt>
      <trkpt lat="44.66383" lon="6.9423">
        <ele>2532.25</ele>
        <time>2018-09-10T09:46:28Z</time>
      </trkpt>
      <trkpt lat="44.66372" lon="6.94236">
        <ele>2534.17</ele>
        <time>2018-09-10T09:46:47Z</time>
      </trkpt>
      <trkpt lat="44.66365" lon="6.94229">
        <ele>2536.58</ele>
        <time>2018-09-10T09:47:03Z</time>
      </trkpt>
      <trkpt lat="44.66359" lon="6.94219">
        <ele>2538.02</ele>
        <time>2018-09-10T09:47:20Z</time>
      </trkpt>
      <trkpt lat="44.66349" lon="6.94214">
        <ele>2540.9</ele>
        <time>2018-09-10T09:47:36Z</time>
      </trkpt>
      <trkpt lat="44.6634" lon="6.94221">
        <ele>2543.79</ele>
        <time>2018-09-10T09:47:55Z</time>
      </trkpt>
      <trkpt lat="44.66332" lon="6.9422">
        <ele>2545.23</ele>
        <time>2018-09-10T09:48:12Z</time>
      </trkpt>
      <trkpt lat="44.6634" lon="6.94229">
        <ele>2548.11</ele>
        <time>2018-09-10T09:48:29Z</time>
      </trkpt>
      <trkpt lat="44.66346" lon="6.9424">
        <ele>2550.03</ele>
        <time>2018-09-10T09:48:45Z</time>
      </trkpt>
      <trkpt lat="44.66352" lon="6.9425">
        <ele>2551</ele>
        <time>2018-09-10T09:48:59Z</time>
      </trkpt>
      <trkpt lat="44.66351" lon="6.94265">
        <ele>2553.88</ele>
        <time>2018-09-10T09:49:19Z</time>
      </trkpt>
      <trkpt lat="44.66344" lon="6.94271">
        <ele>2557.73</ele>
        <time>2018-09-10T09:49:42Z</time>
      </trkpt>
      <trkpt lat="44.66335" lon="6.94262">
        <ele>2559.17</ele>
        <time>2018-09-10T09:49:59Z</time>
      </trkpt>
      <trkpt lat="44.66327" lon="6.94256">
        <ele>2561.09</ele>
        <time>2018-09-10T09:50:14Z</time>
      </trkpt>
      <trkpt lat="44.66319" lon="6.94265">
        <ele>2564.45</ele>
        <time>2018-09-10T09:50:34Z</time>
      </trkpt>
      <trkpt lat="44.66309" lon="6.94266">
        <ele>2568.3</ele>
        <time>2018-09-10T09:50:56Z</time>
      </trkpt>
      <trkpt lat="44.66299" lon="6.94272">
        <ele>2571.66</ele>
        <time>2018-09-10T09:51:19Z</time>
      </trkpt>
      <trkpt lat="44.663" lon="6.9428">
        <ele>2575.51</ele>
        <time>2018-09-10T09:51:37Z</time>
      </trkpt>
      <trkpt lat="44.66299" lon="6.94289">
        <ele>2578.87</ele>
        <time>2018-09-10T09:51:59Z</time>
      </trkpt>
      <trkpt lat="44.66291" lon="6.94281">
        <ele>2582.24</ele>
        <time>2018-09-10T09:52:18Z</time>
      </trkpt>
      <trkpt lat="44.6629" lon="6.9429">
        <ele>2585.12</ele>
        <time>2018-09-10T09:52:39Z</time>
      </trkpt>
      <trkpt lat="44.66279" lon="6.94286">
        <ele>2588.97</ele>
        <time>2018-09-10T09:52:58Z</time>
      </trkpt>
      <trkpt lat="44.66271" lon="6.94293">
        <ele>2592.33</ele>
        <time>2018-09-10T09:53:21Z</time>
      </trkpt>
      <trkpt lat="44.66261" lon="6.94299">
        <ele>2596.66</ele>
        <time>2018-09-10T09:53:45Z</time>
      </trkpt>
      <trkpt lat="44.66254" lon="6.94306">
        <ele>2600.5</ele>
        <time>2018-09-10T09:54:02Z</time>
      </trkpt>
      <trkpt lat="44.66245" lon="6.94313">
        <ele>2603.87</ele>
        <time>2018-09-10T09:54:21Z</time>
      </trkpt>
      <trkpt lat="44.66237" lon="6.94319">
        <ele>2605.79</ele>
        <time>2018-09-10T09:54:40Z</time>
      </trkpt>
      <trkpt lat="44.66229" lon="6.94325">
        <ele>2609.64</ele>
        <time>2018-09-10T09:54:58Z</time>
      </trkpt>
      <trkpt lat="44.6622" lon="6.94324">
        <ele>2610.12</ele>
        <time>2018-09-10T09:55:12Z</time>
      </trkpt>
      <trkpt lat="44.66211" lon="6.94316">
        <ele>2610.6</ele>
        <time>2018-09-10T09:55:25Z</time>
      </trkpt>
      <trkpt lat="44.66201" lon="6.94311">
        <ele>2613.96</ele>
        <time>2018-09-10T09:55:45Z</time>
      </trkpt>
      <trkpt lat="44.66191" lon="6.94306">
        <ele>2616.37</ele>
        <time>2018-09-10T09:56:01Z</time>
      </trkpt>
      <trkpt lat="44.66182" lon="6.94296">
        <ele>2618.29</ele>
        <time>2018-09-10T09:56:16Z</time>
      </trkpt>
      <trkpt lat="44.66173" lon="6.94286">
        <ele>2621.17</ele>
        <time>2018-09-10T09:56:35Z</time>
      </trkpt>
      <trkpt lat="44.66172" lon="6.943">
        <ele>2623.58</ele>
        <time>2018-09-10T09:56:51Z</time>
      </trkpt>
      <trkpt lat="44.66171" lon="6.94316">
        <ele>2625.98</ele>
        <time>2018-09-10T09:57:10Z</time>
      </trkpt>
      <trkpt lat="44.66169" lon="6.94326">
        <ele>2628.86</ele>
        <time>2018-09-10T09:57:28Z</time>
      </trkpt>
      <trkpt lat="44.66161" lon="6.94318">
        <ele>2631.75</ele>
        <time>2018-09-10T09:57:47Z</time>
      </trkpt>
      <trkpt lat="44.66152" lon="6.94313">
        <ele>2634.15</ele>
        <time>2018-09-10T09:58:02Z</time>
      </trkpt>
      <trkpt lat="44.66155" lon="6.94326">
        <ele>2637.03</ele>
        <time>2018-09-10T09:58:21Z</time>
      </trkpt>
      <trkpt lat="44.66155" lon="6.9434">
        <ele>2638.96</ele>
        <time>2018-09-10T09:58:36Z</time>
      </trkpt>
      <trkpt lat="44.66156" lon="6.94356">
        <ele>2642.32</ele>
        <time>2018-09-10T09:58:56Z</time>
      </trkpt>
      <trkpt lat="44.66155" lon="6.94373">
        <ele>2644.72</ele>
        <time>2018-09-10T09:59:16Z</time>
      </trkpt>
      <trkpt lat="44.66159" lon="6.94386">
        <ele>2647.61</ele>
        <time>2018-09-10T09:59:36Z</time>
      </trkpt>
      <trkpt lat="44.66154" lon="6.94388">
        <ele>2651.45</ele>
        <time>2018-09-10T09:59:59Z</time>
      </trkpt>
      <trkpt lat="44.66145" lon="6.94385">
        <ele>2654.34</ele>
        <time>2018-09-10T10:00:19Z</time>
      </trkpt>
      <trkpt lat="44.66146" lon="6.944">
        <ele>2657.7</ele>
        <time>2018-09-10T10:00:37Z</time>
      </trkpt>
      <trkpt lat="44.66145" lon="6.94412">
        <ele>2660.11</ele>
        <time>2018-09-10T10:00:56Z</time>
      </trkpt>
      <trkpt lat="44.66144" lon="6.94422">
        <ele>2662.99</ele>
        <time>2018-09-10T10:01:18Z</time>
      </trkpt>
      <trkpt lat="44.6615" lon="6.94435">
        <ele>2666.35</ele>
        <time>2018-09-10T10:01:41Z</time>
      </trkpt>
      <trkpt lat="44.66149" lon="6.94451">
        <ele>2669.72</ele>
        <time>2018-09-10T10:02:03Z</time>
      </trkpt>
      <trkpt lat="44.66145" lon="6.94461">
        <ele>2672.6</ele>
        <time>2018-09-10T10:02:22Z</time>
      </trkpt>
      <trkpt lat="44.66137" lon="6.94462">
        <ele>2675.49</ele>
        <time>2018-09-10T10:02:39Z</time>
      </trkpt>
      <trkpt lat="44.66129" lon="6.94467">
        <ele>2678.85</ele>
        <time>2018-09-10T10:03:01Z</time>
      </trkpt>
      <trkpt lat="44.66123" lon="6.94477">
        <ele>2682.22</ele>
        <time>2018-09-10T10:03:24Z</time>
      </trkpt>
      <trkpt lat="44.66117" lon="6.94489">
        <ele>2686.06</ele>
        <time>2018-09-10T10:03:46Z</time>
      </trkpt>
      <trkpt lat="44.6611" lon="6.94501">
        <ele>2687.5</ele>
        <time>2018-09-10T10:04:02Z</time>
      </trkpt>
      <trkpt lat="44.6611" lon="6.94514">
        <ele>2691.35</ele>
        <time>2018-09-10T10:04:20Z</time>
      </trkpt>
      <trkpt lat="44.66118" lon="6.94517">
        <ele>2693.75</ele>
        <time>2018-09-10T10:04:39Z</time>
      </trkpt>
      <trkpt lat="44.66127" lon="6.94525">
        <ele>2696.15</ele>
        <time>2018-09-10T10:04:56Z</time>
      </trkpt>
      <trkpt lat="44.66124" lon="6.94538">
        <ele>2698.56</ele>
        <time>2018-09-10T10:05:13Z</time>
      </trkpt>
      <trkpt lat="44.66118" lon="6.94546">
        <ele>2701.44</ele>
        <time>2018-09-10T10:05:31Z</time>
      </trkpt>
      <trkpt lat="44.66112" lon="6.94554">
        <ele>2702.88</ele>
        <time>2018-09-10T10:05:49Z</time>
      </trkpt>
      <trkpt lat="44.66113" lon="6.94568">
        <ele>2705.77</ele>
        <time>2018-09-10T10:06:06Z</time>
      </trkpt>
      <trkpt lat="44.66117" lon="6.94576">
        <ele>2709.13</ele>
        <time>2018-09-10T10:06:24Z</time>
      </trkpt>
      <trkpt lat="44.66115" lon="6.94587">
        <ele>2711.54</ele>
        <time>2018-09-10T10:06:39Z</time>
      </trkpt>
      <trkpt lat="44.6612" lon="6.94596">
        <ele>2713.46</ele>
        <time>2018-09-10T10:06:53Z</time>
      </trkpt>
      <trkpt lat="44.66128" lon="6.94608">
        <ele>2715.86</ele>
        <time>2018-09-10T10:07:12Z</time>
      </trkpt>
      <trkpt lat="44.66136" lon="6.94615">
        <ele>2717.3</ele>
        <time>2018-09-10T10:07:25Z</time>
      </trkpt>
      <trkpt lat="44.66138" lon="6.94628">
        <ele>2719.23</ele>
        <time>2018-09-10T10:07:38Z</time>
      </trkpt>
      <trkpt lat="44.66141" lon="6.94639">
        <ele>2720.67</ele>
        <time>2018-09-10T10:07:51Z</time>
      </trkpt>
      <trkpt lat="44.66141" lon="6.94653">
        <ele>2721.63</ele>
        <time>2018-09-10T10:08:01Z</time>
      </trkpt>
      <trkpt lat="44.66141" lon="6.94666">
        <ele>2722.59</ele>
        <time>2018-09-10T10:08:11Z</time>
      </trkpt>
      <trkpt lat="44.66144" lon="6.94679">
        <ele>2724.51</ele>
        <time>2018-09-10T10:08:24Z</time>
      </trkpt>
      <trkpt lat="44.66147" lon="6.94691">
        <ele>2724.99</ele>
        <time>2018-09-10T10:08:37Z</time>
      </trkpt>
      <trkpt lat="44.6615" lon="6.94704">
        <ele>2726.92</ele>
        <time>2018-09-10T10:08:50Z</time>
      </trkpt>
      <trkpt lat="44.66153" lon="6.94715">
        <ele>2729.32</ele>
        <time>2018-09-10T10:09:05Z</time>
      </trkpt>
      <trkpt lat="44.66157" lon="6.94728">
        <ele>2731.24</ele>
        <time>2018-09-10T10:09:21Z</time>
      </trkpt>
      <trkpt lat="44.6616" lon="6.94739">
        <ele>2735.09</ele>
        <time>2018-09-10T10:09:42Z</time>
      </trkpt>
      <trkpt lat="44.66163" lon="6.94751">
        <ele>2737.97</ele>
        <time>2018-09-10T10:09:58Z</time>
      </trkpt>
      <trkpt lat="44.66165" lon="6.94763">
        <ele>2740.38</ele>
        <time>2018-09-10T10:10:17Z</time>
      </trkpt>
      <trkpt lat="44.66173" lon="6.94771">
        <ele>2743.26</ele>
        <time>2018-09-10T10:10:32Z</time>
      </trkpt>
      <trkpt lat="44.6618" lon="6.9478">
        <ele>2744.7</ele>
        <time>2018-09-10T10:10:44Z</time>
      </trkpt>
      <trkpt lat="44.66183" lon="6.94792">
        <ele>2744.7</ele>
        <time>2018-09-10T10:10:56Z</time>
      </trkpt>
      <trkpt lat="44.66185" lon="6.94805">
        <ele>2746.14</ele>
        <time>2018-09-10T10:11:08Z</time>
      </trkpt>
      <trkpt lat="44.6619" lon="6.94818">
        <ele>2747.59</ele>
        <time>2018-09-10T10:11:19Z</time>
      </trkpt>
      <trkpt lat="44.66195" lon="6.94829">
        <ele>2748.55</ele>
        <time>2018-09-10T10:11:30Z</time>
      </trkpt>
      <trkpt lat="44.66198" lon="6.94841">
        <ele>2749.51</ele>
        <time>2018-09-10T10:11:40Z</time>
      </trkpt>
      <trkpt lat="44.66206" lon="6.94848">
        <ele>2751.43</ele>
        <time>2018-09-10T10:11:56Z</time>
      </trkpt>
      <trkpt lat="44.66214" lon="6.94855">
        <ele>2751.91</ele>
        <time>2018-09-10T10:12:11Z</time>
      </trkpt>
      <trkpt lat="44.66219" lon="6.94866">
        <ele>2752.39</ele>
        <time>2018-09-10T10:12:22Z</time>
      </trkpt>
      <trkpt lat="44.66223" lon="6.94876">
        <ele>2751.91</ele>
        <time>2018-09-10T10:12:32Z</time>
      </trkpt>
      <trkpt lat="44.66231" lon="6.94886">
        <ele>2749.99</ele>
        <time>2018-09-10T10:12:51Z</time>
      </trkpt>
      <trkpt lat="44.66236" lon="6.94896">
        <ele>2747.59</ele>
        <time>2018-09-10T10:13:02Z</time>
      </trkpt>
      <trkpt lat="44.66242" lon="6.94907">
        <ele>2747.1</ele>
        <time>2018-09-10T10:13:13Z</time>
      </trkpt>
      <trkpt lat="44.66248" lon="6.94915">
        <ele>2747.59</ele>
        <time>2018-09-10T10:13:22Z</time>
      </trkpt>
      <trkpt lat="44.66252" lon="6.94927">
        <ele>2747.59</ele>
        <time>2018-09-10T10:13:32Z</time>
      </trkpt>
      <trkpt lat="44.66255" lon="6.94942">
        <ele>2747.1</ele>
        <time>2018-09-10T10:13:43Z</time>
      </trkpt>
      <trkpt lat="44.66255" lon="6.94958">
        <ele>2747.59</ele>
        <time>2018-09-10T10:13:55Z</time>
      </trkpt>
      <trkpt lat="44.6625" lon="6.9497">
        <ele>2748.07</ele>
        <time>2018-09-10T10:14:07Z</time>
      </trkpt>
      <trkpt lat="44.66252" lon="6.94984">
        <ele>2749.51</ele>
        <time>2018-09-10T10:14:25Z</time>
      </trkpt>
      <trkpt lat="44.66251" lon="6.94997">
        <ele>2750.95</ele>
        <time>2018-09-10T10:14:46Z</time>
      </trkpt>
      <trkpt lat="44.66258" lon="6.95004">
        <ele>2753.35</ele>
        <time>2018-09-10T10:15:00Z</time>
      </trkpt>
      <trkpt lat="44.66266" lon="6.95007">
        <ele>2756.24</ele>
        <time>2018-09-10T10:15:32Z</time>
      </trkpt>
      <trkpt lat="44.66276" lon="6.95009">
        <ele>2757.2</ele>
        <time>2018-09-10T10:15:46Z</time>
      </trkpt>
      <trkpt lat="44.66287" lon="6.95007">
        <ele>2755.28</ele>
        <time>2018-09-10T10:16:21Z</time>
      </trkpt>
      <trkpt lat="44.66298" lon="6.95009">
        <ele>2754.31</ele>
        <time>2018-09-10T10:16:31Z</time>
      </trkpt>
      <trkpt lat="44.66309" lon="6.95016">
        <ele>2754.31</ele>
        <time>2018-09-10T10:16:41Z</time>
      </trkpt>
      <trkpt lat="44.66319" lon="6.95024">
        <ele>2755.28</ele>
        <time>2018-09-10T10:16:51Z</time>
      </trkpt>
      <trkpt lat="44.66328" lon="6.95028">
        <ele>2754.8</ele>
        <time>2018-09-10T10:17:05Z</time>
      </trkpt>
      <trkpt lat="44.66337" lon="6.95037">
        <ele>2755.76</ele>
        <time>2018-09-10T10:17:18Z</time>
      </trkpt>
      <trkpt lat="44.66345" lon="6.95048">
        <ele>2757.68</ele>
        <time>2018-09-10T10:17:33Z</time>
      </trkpt>
      <trkpt lat="44.66354" lon="6.95053">
        <ele>2760.56</ele>
        <time>2018-09-10T10:17:52Z</time>
      </trkpt>
      <trkpt lat="44.66359" lon="6.95065">
        <ele>2762.49</ele>
        <time>2018-09-10T10:18:19Z</time>
      </trkpt>
      <trkpt lat="44.66369" lon="6.95072">
        <ele>2764.41</ele>
        <time>2018-09-10T10:18:35Z</time>
      </trkpt>
      <trkpt lat="44.6638" lon="6.95068">
        <ele>2765.85</ele>
        <time>2018-09-10T10:18:50Z</time>
      </trkpt>
      <trkpt lat="44.66388" lon="6.9508">
        <ele>2767.77</ele>
        <time>2018-09-10T10:19:04Z</time>
      </trkpt>
      <trkpt lat="44.66398" lon="6.95079">
        <ele>2769.21</ele>
        <time>2018-09-10T10:19:18Z</time>
      </trkpt>
      <trkpt lat="44.66403" lon="6.95088">
        <ele>2770.66</ele>
        <time>2018-09-10T10:20:13Z</time>
      </trkpt>
      <trkpt lat="44.66407" lon="6.95098">
        <ele>2772.58</ele>
        <time>2018-09-10T10:20:32Z</time>
      </trkpt>
      <trkpt lat="44.66409" lon="6.95109">
        <ele>2775.94</ele>
        <time>2018-09-10T10:20:48Z</time>
      </trkpt>
      <trkpt lat="44.6642" lon="6.95112">
        <ele>2777.87</ele>
        <time>2018-09-10T10:21:00Z</time>
      </trkpt>
      <trkpt lat="44.66426" lon="6.95124">
        <ele>2779.79</ele>
        <time>2018-09-10T10:21:13Z</time>
      </trkpt>
      <trkpt lat="44.66436" lon="6.95129">
        <ele>2781.23</ele>
        <time>2018-09-10T10:21:27Z</time>
      </trkpt>
      <trkpt lat="44.66441" lon="6.95142">
        <ele>2784.12</ele>
        <time>2018-09-10T10:21:47Z</time>
      </trkpt>
      <trkpt lat="44.66448" lon="6.95145">
        <ele>2787.96</ele>
        <time>2018-09-10T10:22:07Z</time>
      </trkpt>
      <trkpt lat="44.6646" lon="6.95152">
        <ele>2794.21</ele>
        <time>2018-09-10T10:22:34Z</time>
      </trkpt>
      <trkpt lat="44.66447" lon="6.95183">
        <ele>2795.17</ele>
        <time>2018-09-10T10:23:45Z</time>
      </trkpt>
      <trkpt lat="44.66453" lon="6.95192">
        <ele>2796.13</ele>
        <time>2018-09-10T10:23:56Z</time>
      </trkpt>
      <trkpt lat="44.6647" lon="6.95183">
        <ele>2797.57</ele>
        <time>2018-09-10T10:24:07Z</time>
      </trkpt>
      <trkpt lat="44.66481" lon="6.95188">
        <ele>2799.98</ele>
        <time>2018-09-10T10:24:19Z</time>
      </trkpt>
      <trkpt lat="44.66487" lon="6.95202">
        <ele>2802.38</ele>
        <time>2018-09-10T10:24:33Z</time>
      </trkpt>
      <trkpt lat="44.66495" lon="6.95205">
        <ele>2804.3</ele>
        <time>2018-09-10T10:24:45Z</time>
      </trkpt>
      <trkpt lat="44.66508" lon="6.95207">
        <ele>2806.23</ele>
        <time>2018-09-10T10:24:58Z</time>
      </trkpt>
      <trkpt lat="44.66505" lon="6.95193">
        <ele>2807.19</ele>
        <time>2018-09-10T10:25:12Z</time>
      </trkpt>
      <trkpt lat="44.66514" lon="6.95196">
        <ele>2808.15</ele>
        <time>2018-09-10T10:26:01Z</time>
      </trkpt>
      <trkpt lat="44.66523" lon="6.952">
        <ele>2808.63</ele>
        <time>2018-09-10T10:26:11Z</time>
      </trkpt>
      <trkpt lat="44.66532" lon="6.95202">
        <ele>2809.59</ele>
        <time>2018-09-10T10:26:42Z</time>
      </trkpt>
      <trkpt lat="44.66536" lon="6.95191">
        <ele>2809.11</ele>
        <time>2018-09-10T10:26:55Z</time>
      </trkpt>
      <trkpt lat="44.66538" lon="6.95178">
        <ele>2808.15</ele>
        <time>2018-09-10T10:28:05Z</time>
      </trkpt>
      <trkpt lat="44.66539" lon="6.95191">
        <ele>2808.15</ele>
        <time>2018-09-10T10:29:11Z</time>
      </trkpt>
      <trkpt lat="44.66548" lon="6.95194">
        <ele>2806.71</ele>
        <time>2018-09-10T10:30:17Z</time>
      </trkpt>
      <trkpt lat="44.66548" lon="6.95183">
        <ele>2807.19</ele>
        <time>2018-09-10T10:30:58Z</time>
      </trkpt>
      <trkpt lat="44.66551" lon="6.95187">
        <ele>2806.71</ele>
        <time>2018-09-10T10:32:08Z</time>
      </trkpt>
      <trkpt lat="44.66555" lon="6.95189">
        <ele>2807.19</ele>
        <time>2018-09-10T10:32:45Z</time>
      </trkpt>
      <trkpt lat="44.66554" lon="6.95197">
        <ele>2807.19</ele>
        <time>2018-09-10T10:33:19Z</time>
      </trkpt>
      <trkpt lat="44.66549" lon="6.95188">
        <ele>2807.19</ele>
        <time>2018-09-10T10:34:04Z</time>
      </trkpt>
      <trkpt lat="44.6654" lon="6.95186">
        <ele>2807.67</ele>
        <time>2018-09-10T10:34:48Z</time>
      </trkpt>
      <trkpt lat="44.6654" lon="6.95183">
        <ele>2809.11</ele>
        <time>2018-09-10T10:35:32Z</time>
      </trkpt>
      <trkpt lat="44.66541" lon="6.95185">
        <ele>2811.03</ele>
        <time>2018-09-10T10:48:53Z</time>
      </trkpt>
      <trkpt lat="44.66541" lon="6.9519">
        <ele>2811.99</ele>
        <time>2018-09-10T10:51:31Z</time>
      </trkpt>
      <trkpt lat="44.66537" lon="6.95196">
        <ele>2811.99</ele>
        <time>2018-09-10T10:51:51Z</time>
      </trkpt>
      <trkpt lat="44.66543" lon="6.95209">
        <ele>2810.07</ele>
        <time>2018-09-10T10:52:07Z</time>
      </trkpt>
      <trkpt lat="44.66548" lon="6.95223">
        <ele>2810.55</ele>
        <time>2018-09-10T10:52:18Z</time>
      </trkpt>
      <trkpt lat="44.66554" lon="6.95235">
        <ele>2811.03</ele>
        <time>2018-09-10T10:52:30Z</time>
      </trkpt>
      <trkpt lat="44.66554" lon="6.95253">
        <ele>2812.96</ele>
        <time>2018-09-10T10:52:57Z</time>
      </trkpt>
      <trkpt lat="44.66555" lon="6.95266">
        <ele>2814.88</ele>
        <time>2018-09-10T10:53:13Z</time>
      </trkpt>
      <trkpt lat="44.66557" lon="6.95278">
        <ele>2816.32</ele>
        <time>2018-09-10T10:53:29Z</time>
      </trkpt>
      <trkpt lat="44.66563" lon="6.95287">
        <ele>2818.24</ele>
        <time>2018-09-10T10:53:55Z</time>
      </trkpt>
      <trkpt lat="44.66575" lon="6.95291">
        <ele>2817.76</ele>
        <time>2018-09-10T10:54:15Z</time>
      </trkpt>
      <trkpt lat="44.66582" lon="6.95303">
        <ele>2818.24</ele>
        <time>2018-09-10T10:54:29Z</time>
      </trkpt>
      <trkpt lat="44.66592" lon="6.9531">
        <ele>2819.2</ele>
        <time>2018-09-10T10:54:46Z</time>
      </trkpt>
      <trkpt lat="44.66601" lon="6.95317">
        <ele>2822.09</ele>
        <time>2018-09-10T10:55:03Z</time>
      </trkpt>
      <trkpt lat="44.66609" lon="6.95326">
        <ele>2823.53</ele>
        <time>2018-09-10T10:55:18Z</time>
      </trkpt>
      <trkpt lat="44.66619" lon="6.9533">
        <ele>2823.53</ele>
        <time>2018-09-10T10:55:35Z</time>
      </trkpt>
      <trkpt lat="44.66631" lon="6.95326">
        <ele>2821.13</ele>
        <time>2018-09-10T10:56:20Z</time>
      </trkpt>
      <trkpt lat="44.66638" lon="6.95332">
        <ele>2822.57</ele>
        <time>2018-09-10T10:56:50Z</time>
      </trkpt>
      <trkpt lat="44.66644" lon="6.95341">
        <ele>2824.97</ele>
        <time>2018-09-10T10:57:06Z</time>
      </trkpt>
      <trkpt lat="44.66653" lon="6.95347">
        <ele>2826.89</ele>
        <time>2018-09-10T10:57:21Z</time>
      </trkpt>
      <trkpt lat="44.66662" lon="6.95353">
        <ele>2828.34</ele>
        <time>2018-09-10T10:57:36Z</time>
      </trkpt>
      <trkpt lat="44.66672" lon="6.9536">
        <ele>2830.74</ele>
        <time>2018-09-10T10:57:55Z</time>
      </trkpt>
      <trkpt lat="44.66683" lon="6.95354">
        <ele>2831.7</ele>
        <time>2018-09-10T10:58:08Z</time>
      </trkpt>
      <trkpt lat="44.66694" lon="6.95353">
        <ele>2830.74</ele>
        <time>2018-09-10T10:58:21Z</time>
      </trkpt>
      <trkpt lat="44.66705" lon="6.95349">
        <ele>2831.22</ele>
        <time>2018-09-10T10:58:32Z</time>
      </trkpt>
      <trkpt lat="44.66716" lon="6.9535">
        <ele>2830.74</ele>
        <time>2018-09-10T10:58:43Z</time>
      </trkpt>
      <trkpt lat="44.66728" lon="6.95355">
        <ele>2830.74</ele>
        <time>2018-09-10T10:58:55Z</time>
      </trkpt>
      <trkpt lat="44.66737" lon="6.95351">
        <ele>2830.74</ele>
        <time>2018-09-10T10:59:06Z</time>
      </trkpt>
      <trkpt lat="44.66745" lon="6.95344">
        <ele>2830.26</ele>
        <time>2018-09-10T10:59:19Z</time>
      </trkpt>
      <trkpt lat="44.66754" lon="6.95346">
        <ele>2830.26</ele>
        <time>2018-09-10T10:59:30Z</time>
      </trkpt>
      <trkpt lat="44.66764" lon="6.95344">
        <ele>2830.26</ele>
        <time>2018-09-10T10:59:41Z</time>
      </trkpt>
      <trkpt lat="44.66773" lon="6.95342">
        <ele>2830.26</ele>
        <time>2018-09-10T10:59:54Z</time>
      </trkpt>
      <trkpt lat="44.6678" lon="6.9535">
        <ele>2830.26</ele>
        <time>2018-09-10T11:00:55Z</time>
      </trkpt>
      <trkpt lat="44.66777" lon="6.95362">
        <ele>2834.1</ele>
        <time>2018-09-10T11:01:18Z</time>
      </trkpt>
      <trkpt lat="44.66779" lon="6.95377">
        <ele>2838.43</ele>
        <time>2018-09-10T11:01:46Z</time>
      </trkpt>
      <trkpt lat="44.66788" lon="6.95386">
        <ele>2841.31</ele>
        <time>2018-09-10T11:02:07Z</time>
      </trkpt>
      <trkpt lat="44.66791" lon="6.95402">
        <ele>2843.72</ele>
        <time>2018-09-10T11:02:26Z</time>
      </trkpt>
      <trkpt lat="44.66795" lon="6.95415">
        <ele>2845.64</ele>
        <time>2018-09-10T11:02:42Z</time>
      </trkpt>
      <trkpt lat="44.668" lon="6.95428">
        <ele>2847.08</ele>
        <time>2018-09-10T11:02:58Z</time>
      </trkpt>
      <trkpt lat="44.66806" lon="6.95439">
        <ele>2848.04</ele>
        <time>2018-09-10T11:03:10Z</time>
      </trkpt>
      <trkpt lat="44.66809" lon="6.95452">
        <ele>2849.97</ele>
        <time>2018-09-10T11:03:23Z</time>
      </trkpt>
      <trkpt lat="44.66813" lon="6.95463">
        <ele>2849.48</ele>
        <time>2018-09-10T11:03:34Z</time>
      </trkpt>
      <trkpt lat="44.66814" lon="6.95477">
        <ele>2851.41</ele>
        <time>2018-09-10T11:03:48Z</time>
      </trkpt>
      <trkpt lat="44.66812" lon="6.95491">
        <ele>2852.85</ele>
        <time>2018-09-10T11:04:00Z</time>
      </trkpt>
      <trkpt lat="44.66822" lon="6.95499">
        <ele>2852.85</ele>
        <time>2018-09-10T11:04:17Z</time>
      </trkpt>
      <trkpt lat="44.66829" lon="6.95511">
        <ele>2852.85</ele>
        <time>2018-09-10T11:04:29Z</time>
      </trkpt>
      <trkpt lat="44.66831" lon="6.95525">
        <ele>2854.29</ele>
        <time>2018-09-10T11:04:48Z</time>
      </trkpt>
      <trkpt lat="44.66831" lon="6.95538">
        <ele>2855.25</ele>
        <time>2018-09-10T11:05:01Z</time>
      </trkpt>
      <trkpt lat="44.66825" lon="6.95553">
        <ele>2857.18</ele>
        <time>2018-09-10T11:05:19Z</time>
      </trkpt>
      <trkpt lat="44.66815" lon="6.95551">
        <ele>2859.58</ele>
        <time>2018-09-10T11:05:34Z</time>
      </trkpt>
      <trkpt lat="44.6682" lon="6.95566">
        <ele>2860.06</ele>
        <time>2018-09-10T11:05:48Z</time>
      </trkpt>
      <trkpt lat="44.66828" lon="6.95575">
        <ele>2858.62</ele>
        <time>2018-09-10T11:06:01Z</time>
      </trkpt>
      <trkpt lat="44.66834" lon="6.95587">
        <ele>2861.98</ele>
        <time>2018-09-10T11:06:20Z</time>
      </trkpt>
      <trkpt lat="44.66839" lon="6.95605">
        <ele>2865.83</ele>
        <time>2018-09-10T11:06:48Z</time>
      </trkpt>
      <trkpt lat="44.66843" lon="6.95618">
        <ele>2869.67</ele>
        <time>2018-09-10T11:07:13Z</time>
      </trkpt>
      <trkpt lat="44.66851" lon="6.95624">
        <ele>2870.63</ele>
        <time>2018-09-10T11:07:35Z</time>
      </trkpt>
      <trkpt lat="44.66859" lon="6.95636">
        <ele>2872.08</ele>
        <time>2018-09-10T11:07:59Z</time>
      </trkpt>
      <trkpt lat="44.66866" lon="6.95646">
        <ele>2873.52</ele>
        <time>2018-09-10T11:08:13Z</time>
      </trkpt>
      <trkpt lat="44.6687" lon="6.95658">
        <ele>2874</ele>
        <time>2018-09-10T11:08:26Z</time>
      </trkpt>
      <trkpt lat="44.66874" lon="6.9567">
        <ele>2875.44</ele>
        <time>2018-09-10T11:08:44Z</time>
      </trkpt>
      <trkpt lat="44.66881" lon="6.95681">
        <ele>2875.44</ele>
        <time>2018-09-10T11:08:58Z</time>
      </trkpt>
      <trkpt lat="44.66887" lon="6.95693">
        <ele>2875.44</ele>
        <time>2018-09-10T11:09:10Z</time>
      </trkpt>
      <trkpt lat="44.66892" lon="6.95704">
        <ele>2875.44</ele>
        <time>2018-09-10T11:09:21Z</time>
      </trkpt>
      <trkpt lat="44.66897" lon="6.95716">
        <ele>2877.84</ele>
        <time>2018-09-10T11:09:35Z</time>
      </trkpt>
      <trkpt lat="44.66904" lon="6.95726">
        <ele>2879.29</ele>
        <time>2018-09-10T11:09:47Z</time>
      </trkpt>
      <trkpt lat="44.66908" lon="6.95739">
        <ele>2880.25</ele>
        <time>2018-09-10T11:10:00Z</time>
      </trkpt>
      <trkpt lat="44.66911" lon="6.95752">
        <ele>2882.65</ele>
        <time>2018-09-10T11:10:14Z</time>
      </trkpt>
      <trkpt lat="44.66913" lon="6.95766">
        <ele>2885.05</ele>
        <time>2018-09-10T11:10:28Z</time>
      </trkpt>
      <trkpt lat="44.66912" lon="6.9578">
        <ele>2886.02</ele>
        <time>2018-09-10T11:10:43Z</time>
      </trkpt>
      <trkpt lat="44.6692" lon="6.95787">
        <ele>2888.9</ele>
        <time>2018-09-10T11:11:01Z</time>
      </trkpt>
      <trkpt lat="44.66929" lon="6.95785">
        <ele>2887.94</ele>
        <time>2018-09-10T11:11:34Z</time>
      </trkpt>
      <trkpt lat="44.66938" lon="6.95778">
        <ele>2886.5</ele>
        <time>2018-09-10T11:11:53Z</time>
      </trkpt>
      <trkpt lat="44.66945" lon="6.95777">
        <ele>2884.09</ele>
        <time>2018-09-10T11:12:09Z</time>
      </trkpt>
      <trkpt lat="44.66955" lon="6.9578">
        <ele>2882.17</ele>
        <time>2018-09-10T11:12:22Z</time>
      </trkpt>
      <trkpt lat="44.66964" lon="6.95776">
        <ele>2880.73</ele>
        <time>2018-09-10T11:12:34Z</time>
      </trkpt>
      <trkpt lat="44.66973" lon="6.95778">
        <ele>2878.32</ele>
        <time>2018-09-10T11:12:47Z</time>
      </trkpt>
      <trkpt lat="44.66981" lon="6.95781">
        <ele>2875.92</ele>
        <time>2018-09-10T11:13:13Z</time>
      </trkpt>
      <trkpt lat="44.66991" lon="6.95788">
        <ele>2873.52</ele>
        <time>2018-09-10T11:13:27Z</time>
      </trkpt>
      <trkpt lat="44.67" lon="6.95793">
        <ele>2871.11</ele>
        <time>2018-09-10T11:13:40Z</time>
      </trkpt>
      <trkpt lat="44.67011" lon="6.95791">
        <ele>2870.63</ele>
        <time>2018-09-10T11:13:50Z</time>
      </trkpt>
      <trkpt lat="44.67022" lon="6.9579">
        <ele>2869.19</ele>
        <time>2018-09-10T11:14:00Z</time>
      </trkpt>
      <trkpt lat="44.67032" lon="6.95788">
        <ele>2867.75</ele>
        <time>2018-09-10T11:14:10Z</time>
      </trkpt>
      <trkpt lat="44.67041" lon="6.9579">
        <ele>2866.31</ele>
        <time>2018-09-10T11:14:21Z</time>
      </trkpt>
      <trkpt lat="44.67052" lon="6.95787">
        <ele>2865.35</ele>
        <time>2018-09-10T11:14:31Z</time>
      </trkpt>
      <trkpt lat="44.67061" lon="6.95793">
        <ele>2863.42</ele>
        <time>2018-09-10T11:14:40Z</time>
      </trkpt>
      <trkpt lat="44.6707" lon="6.95795">
        <ele>2864.87</ele>
        <time>2018-09-10T11:14:49Z</time>
      </trkpt>
      <trkpt lat="44.6708" lon="6.958">
        <ele>2863.9</ele>
        <time>2018-09-10T11:15:00Z</time>
      </trkpt>
      <trkpt lat="44.6709" lon="6.958">
        <ele>2861.98</ele>
        <time>2018-09-10T11:15:10Z</time>
      </trkpt>
      <trkpt lat="44.67098" lon="6.958">
        <ele>2860.54</ele>
        <time>2018-09-10T11:15:19Z</time>
      </trkpt>
      <trkpt lat="44.67108" lon="6.95802">
        <ele>2858.14</ele>
        <time>2018-09-10T11:15:30Z</time>
      </trkpt>
      <trkpt lat="44.67117" lon="6.95797">
        <ele>2857.18</ele>
        <time>2018-09-10T11:15:40Z</time>
      </trkpt>
      <trkpt lat="44.67126" lon="6.95796">
        <ele>2855.25</ele>
        <time>2018-09-10T11:15:51Z</time>
      </trkpt>
      <trkpt lat="44.67136" lon="6.95796">
        <ele>2854.29</ele>
        <time>2018-09-10T11:16:05Z</time>
      </trkpt>
      <trkpt lat="44.67145" lon="6.95792">
        <ele>2853.81</ele>
        <time>2018-09-10T11:16:14Z</time>
      </trkpt>
      <trkpt lat="44.67154" lon="6.95786">
        <ele>2851.89</ele>
        <time>2018-09-10T11:16:23Z</time>
      </trkpt>
      <trkpt lat="44.67164" lon="6.95788">
        <ele>2851.41</ele>
        <time>2018-09-10T11:16:32Z</time>
      </trkpt>
      <trkpt lat="44.67171" lon="6.95794">
        <ele>2849.97</ele>
        <time>2018-09-10T11:16:42Z</time>
      </trkpt>
      <trkpt lat="44.67182" lon="6.95796">
        <ele>2849.48</ele>
        <time>2018-09-10T11:16:51Z</time>
      </trkpt>
      <trkpt lat="44.67191" lon="6.95801">
        <ele>2849.97</ele>
        <time>2018-09-10T11:17:01Z</time>
      </trkpt>
      <trkpt lat="44.67198" lon="6.95809">
        <ele>2850.93</ele>
        <time>2018-09-10T11:17:11Z</time>
      </trkpt>
      <trkpt lat="44.67209" lon="6.95811">
        <ele>2849.48</ele>
        <time>2018-09-10T11:17:22Z</time>
      </trkpt>
      <trkpt lat="44.6722" lon="6.95813">
        <ele>2849</ele>
        <time>2018-09-10T11:17:33Z</time>
      </trkpt>
      <trkpt lat="44.6723" lon="6.95813">
        <ele>2848.52</ele>
        <time>2018-09-10T11:17:43Z</time>
      </trkpt>
      <trkpt lat="44.6724" lon="6.95816">
        <ele>2848.52</ele>
        <time>2018-09-10T11:17:53Z</time>
      </trkpt>
      <trkpt lat="44.67248" lon="6.95823">
        <ele>2847.56</ele>
        <time>2018-09-10T11:18:05Z</time>
      </trkpt>
      <trkpt lat="44.67254" lon="6.95832">
        <ele>2848.04</ele>
        <time>2018-09-10T11:18:18Z</time>
      </trkpt>
      <trkpt lat="44.67263" lon="6.95839">
        <ele>2849</ele>
        <time>2018-09-10T11:18:29Z</time>
      </trkpt>
      <trkpt lat="44.6727" lon="6.95848">
        <ele>2850.93</ele>
        <time>2018-09-10T11:18:44Z</time>
      </trkpt>
      <trkpt lat="44.67279" lon="6.95854">
        <ele>2853.33</ele>
        <time>2018-09-10T11:19:19Z</time>
      </trkpt>
      <trkpt lat="44.67289" lon="6.95854">
        <ele>2852.37</ele>
        <time>2018-09-10T11:19:31Z</time>
      </trkpt>
      <trkpt lat="44.67299" lon="6.95859">
        <ele>2852.85</ele>
        <time>2018-09-10T11:19:42Z</time>
      </trkpt>
      <trkpt lat="44.67306" lon="6.95871">
        <ele>2855.25</ele>
        <time>2018-09-10T11:19:58Z</time>
      </trkpt>
      <trkpt lat="44.67315" lon="6.95876">
        <ele>2857.18</ele>
        <time>2018-09-10T11:20:10Z</time>
      </trkpt>
      <trkpt lat="44.67323" lon="6.95883">
        <ele>2857.66</ele>
        <time>2018-09-10T11:20:22Z</time>
      </trkpt>
      <trkpt lat="44.67334" lon="6.95884">
        <ele>2858.62</ele>
        <time>2018-09-10T11:20:33Z</time>
      </trkpt>
      <trkpt lat="44.67344" lon="6.95879">
        <ele>2859.1</ele>
        <time>2018-09-10T11:20:46Z</time>
      </trkpt>
      <trkpt lat="44.67355" lon="6.95876">
        <ele>2860.06</ele>
        <time>2018-09-10T11:20:58Z</time>
      </trkpt>
      <trkpt lat="44.67364" lon="6.95871">
        <ele>2859.1</ele>
        <time>2018-09-10T11:21:09Z</time>
      </trkpt>
      <trkpt lat="44.67374" lon="6.95868">
        <ele>2858.62</ele>
        <time>2018-09-10T11:21:19Z</time>
      </trkpt>
      <trkpt lat="44.67382" lon="6.95868">
        <ele>2859.1</ele>
        <time>2018-09-10T11:21:30Z</time>
      </trkpt>
      <trkpt lat="44.6739" lon="6.95875">
        <ele>2860.54</ele>
        <time>2018-09-10T11:22:07Z</time>
      </trkpt>
      <trkpt lat="44.67393" lon="6.95889">
        <ele>2862.46</ele>
        <time>2018-09-10T11:22:21Z</time>
      </trkpt>
      <trkpt lat="44.67402" lon="6.95887">
        <ele>2864.39</ele>
        <time>2018-09-10T11:22:33Z</time>
      </trkpt>
      <trkpt lat="44.6741" lon="6.95891">
        <ele>2865.35</ele>
        <time>2018-09-10T11:22:45Z</time>
      </trkpt>
      <trkpt lat="44.67417" lon="6.95896">
        <ele>2866.79</ele>
        <time>2018-09-10T11:22:57Z</time>
      </trkpt>
      <trkpt lat="44.67426" lon="6.95894">
        <ele>2869.19</ele>
        <time>2018-09-10T11:23:11Z</time>
      </trkpt>
      <trkpt lat="44.67433" lon="6.95895">
        <ele>2869.67</ele>
        <time>2018-09-10T11:23:28Z</time>
      </trkpt>
      <trkpt lat="44.6744" lon="6.95902">
        <ele>2871.6</ele>
        <time>2018-09-10T11:23:46Z</time>
      </trkpt>
      <trkpt lat="44.67444" lon="6.95915">
        <ele>2874.96</ele>
        <time>2018-09-10T11:24:09Z</time>
      </trkpt>
      <trkpt lat="44.67454" lon="6.95917">
        <ele>2876.88</ele>
        <time>2018-09-10T11:24:32Z</time>
      </trkpt>
      <trkpt lat="44.67456" lon="6.95929">
        <ele>2879.77</ele>
        <time>2018-09-10T11:24:50Z</time>
      </trkpt>
      <trkpt lat="44.67457" lon="6.9594">
        <ele>2882.17</ele>
        <time>2018-09-10T11:25:07Z</time>
      </trkpt>
      <trkpt lat="44.67459" lon="6.95951">
        <ele>2885.05</ele>
        <time>2018-09-10T11:25:29Z</time>
      </trkpt>
      <trkpt lat="44.67465" lon="6.95959">
        <ele>2887.46</ele>
        <time>2018-09-10T11:25:46Z</time>
      </trkpt>
      <trkpt lat="44.67473" lon="6.95969">
        <ele>2889.38</ele>
        <time>2018-09-10T11:26:02Z</time>
      </trkpt>
      <trkpt lat="44.67476" lon="6.95978">
        <ele>2890.82</ele>
        <time>2018-09-10T11:26:17Z</time>
      </trkpt>
      <trkpt lat="44.67478" lon="6.95993">
        <ele>2893.71</ele>
        <time>2018-09-10T11:26:36Z</time>
      </trkpt>
      <trkpt lat="44.67484" lon="6.95997">
        <ele>2896.11</ele>
        <time>2018-09-10T11:26:56Z</time>
      </trkpt>
      <trkpt lat="44.67491" lon="6.96005">
        <ele>2898.99</ele>
        <time>2018-09-10T11:27:18Z</time>
      </trkpt>
      <trkpt lat="44.67493" lon="6.96018">
        <ele>2901.88</ele>
        <time>2018-09-10T11:27:37Z</time>
      </trkpt>
      <trkpt lat="44.67501" lon="6.96024">
        <ele>2904.28</ele>
        <time>2018-09-10T11:27:58Z</time>
      </trkpt>
      <trkpt lat="44.67508" lon="6.96029">
        <ele>2908.13</ele>
        <time>2018-09-10T11:28:22Z</time>
      </trkpt>
      <trkpt lat="44.67514" lon="6.96035">
        <ele>2911.01</ele>
        <time>2018-09-10T11:28:42Z</time>
      </trkpt>
      <trkpt lat="44.67518" lon="6.96043">
        <ele>2913.41</ele>
        <time>2018-09-10T11:29:03Z</time>
      </trkpt>
      <trkpt lat="44.67525" lon="6.96049">
        <ele>2917.26</ele>
        <time>2018-09-10T11:29:29Z</time>
      </trkpt>
      <trkpt lat="44.67529" lon="6.96059">
        <ele>2920.62</ele>
        <time>2018-09-10T11:29:52Z</time>
      </trkpt>
      <trkpt lat="44.67528" lon="6.96075">
        <ele>2922.54</ele>
        <time>2018-09-10T11:30:16Z</time>
      </trkpt>
      <trkpt lat="44.67524" lon="6.96087">
        <ele>2924.95</ele>
        <time>2018-09-10T11:30:33Z</time>
      </trkpt>
      <trkpt lat="44.67529" lon="6.961">
        <ele>2928.79</ele>
        <time>2018-09-10T11:31:00Z</time>
      </trkpt>
      <trkpt lat="44.67534" lon="6.96113">
        <ele>2931.68</ele>
        <time>2018-09-10T11:31:21Z</time>
      </trkpt>
      <trkpt lat="44.67536" lon="6.96126">
        <ele>2933.12</ele>
        <time>2018-09-10T11:31:37Z</time>
      </trkpt>
      <trkpt lat="44.67537" lon="6.96138">
        <ele>2935.04</ele>
        <time>2018-09-10T11:31:52Z</time>
      </trkpt>
      <trkpt lat="44.67541" lon="6.96148">
        <ele>2937.93</ele>
        <time>2018-09-10T11:32:10Z</time>
      </trkpt>
      <trkpt lat="44.67544" lon="6.9616">
        <ele>2941.29</ele>
        <time>2018-09-10T11:32:31Z</time>
      </trkpt>
      <trkpt lat="44.67548" lon="6.96167">
        <ele>2944.17</ele>
        <time>2018-09-10T11:32:51Z</time>
      </trkpt>
      <trkpt lat="44.67552" lon="6.96178">
        <ele>2947.06</ele>
        <time>2018-09-10T11:33:10Z</time>
      </trkpt>
      <trkpt lat="44.67559" lon="6.96181">
        <ele>2950.42</ele>
        <time>2018-09-10T11:33:32Z</time>
      </trkpt>
      <trkpt lat="44.67566" lon="6.96171">
        <ele>2952.35</ele>
        <time>2018-09-10T11:33:49Z</time>
      </trkpt>
      <trkpt lat="44.67573" lon="6.96163">
        <ele>2955.71</ele>
        <time>2018-09-10T11:34:10Z</time>
      </trkpt>
      <trkpt lat="44.67579" lon="6.96153">
        <ele>2957.15</ele>
        <time>2018-09-10T11:34:26Z</time>
      </trkpt>
      <trkpt lat="44.67585" lon="6.96149">
        <ele>2960.52</ele>
        <time>2018-09-10T11:34:49Z</time>
      </trkpt>
      <trkpt lat="44.67592" lon="6.96158">
        <ele>2966.29</ele>
        <time>2018-09-10T11:35:21Z</time>
      </trkpt>
      <trkpt lat="44.676" lon="6.96152">
        <ele>2969.17</ele>
        <time>2018-09-10T11:35:46Z</time>
      </trkpt>
      <trkpt lat="44.67603" lon="6.96165">
        <ele>2971.57</ele>
        <time>2018-09-10T11:36:03Z</time>
      </trkpt>
      <trkpt lat="44.67613" lon="6.96163">
        <ele>2974.94</ele>
        <time>2018-09-10T11:36:26Z</time>
      </trkpt>
      <trkpt lat="44.67622" lon="6.96163">
        <ele>2977.82</ele>
        <time>2018-09-10T11:36:49Z</time>
      </trkpt>
      <trkpt lat="44.67624" lon="6.96175">
        <ele>2981.19</ele>
        <time>2018-09-10T11:37:08Z</time>
      </trkpt>
      <trkpt lat="44.67632" lon="6.96168">
        <ele>2982.15</ele>
        <time>2018-09-10T11:37:25Z</time>
      </trkpt>
      <trkpt lat="44.6764" lon="6.96167">
        <ele>2985.99</ele>
        <time>2018-09-10T11:37:48Z</time>
      </trkpt>
      <trkpt lat="44.67649" lon="6.96164">
        <ele>2990.8</ele>
        <time>2018-09-10T11:38:14Z</time>
      </trkpt>
      <trkpt lat="44.67658" lon="6.96165">
        <ele>2992.24</ele>
        <time>2018-09-10T11:38:31Z</time>
      </trkpt>
      <trkpt lat="44.67667" lon="6.96164">
        <ele>2994.16</ele>
        <time>2018-09-10T11:38:47Z</time>
      </trkpt>
      <trkpt lat="44.67668" lon="6.96177">
        <ele>2996.09</ele>
        <time>2018-09-10T11:39:06Z</time>
      </trkpt>
      <trkpt lat="44.67677" lon="6.96184">
        <ele>2999.93</ele>
        <time>2018-09-10T11:39:25Z</time>
      </trkpt>
      <trkpt lat="44.67686" lon="6.96191">
        <ele>3001.85</ele>
        <time>2018-09-10T11:39:44Z</time>
      </trkpt>
      <trkpt lat="44.67695" lon="6.96196">
        <ele>3004.26</ele>
        <time>2018-09-10T11:40:00Z</time>
      </trkpt>
      <trkpt lat="44.67708" lon="6.96201">
        <ele>3004.74</ele>
        <time>2018-09-10T11:40:13Z</time>
      </trkpt>
      <trkpt lat="44.67711" lon="6.96205">
        <ele>3009.06</ele>
        <time>2018-09-10T11:40:36Z</time>
      </trkpt>
      <trkpt lat="44.6774" lon="6.96228">
        <ele>3011.47</ele>
        <time>2018-09-10T11:40:57Z</time>
      </trkpt>
      <trkpt lat="44.67751" lon="6.96244">
        <ele>3013.39</ele>
        <time>2018-09-10T11:41:15Z</time>
      </trkpt>
      <trkpt lat="44.67758" lon="6.96251">
        <ele>3016.27</ele>
        <time>2018-09-10T11:41:36Z</time>
      </trkpt>
      <trkpt lat="44.67776" lon="6.9626">
        <ele>3018.68</ele>
        <time>2018-09-10T11:41:57Z</time>
      </trkpt>
      <trkpt lat="44.67789" lon="6.9627">
        <ele>3019.16</ele>
        <time>2018-09-10T11:42:15Z</time>
      </trkpt>
      <trkpt lat="44.67809" lon="6.96288">
        <ele>3019.64</ele>
        <time>2018-09-10T11:43:22Z</time>
      </trkpt>
      <trkpt lat="44.67822" lon="6.96314">
        <ele>3020.6</ele>
        <time>2018-09-10T11:45:14Z</time>
      </trkpt>
      <trkpt lat="44.67824" lon="6.96334">
        <ele>3021.08</ele>
        <time>2018-09-10T11:46:33Z</time>
      </trkpt>
      <trkpt lat="44.67822" lon="6.96315">
        <ele>3022.04</ele>
        <time>2018-09-10T11:48:48Z</time>
      </trkpt>
      <trkpt lat="44.67813" lon="6.96301">
        <ele>3023</ele>
        <time>2018-09-10T11:50:22Z</time>
      </trkpt>
      <trkpt lat="44.67808" lon="6.96287">
        <ele>3023.48</ele>
        <time>2018-09-10T11:52:41Z</time>
      </trkpt>
      <trkpt lat="44.67798" lon="6.9628">
        <ele>3023.96</ele>
        <time>2018-09-10T11:58:57Z</time>
      </trkpt>
      <trkpt lat="44.67788" lon="6.96267">
        <ele>3023</ele>
        <time>2018-09-10T12:00:03Z</time>
      </trkpt>
      <trkpt lat="44.67776" lon="6.96259">
        <ele>3023.48</ele>
        <time>2018-09-10T12:01:56Z</time>
      </trkpt>
      <trkpt lat="44.67766" lon="6.96255">
        <ele>3023.96</ele>
        <time>2018-09-10T12:02:47Z</time>
      </trkpt>
      <trkpt lat="44.67756" lon="6.96251">
        <ele>3023.48</ele>
        <time>2018-09-10T12:04:22Z</time>
      </trkpt>
      <trkpt lat="44.67749" lon="6.96241">
        <ele>3021.08</ele>
        <time>2018-09-10T12:04:46Z</time>
      </trkpt>
      <trkpt lat="44.67726" lon="6.96223">
        <ele>3019.16</ele>
        <time>2018-09-10T12:04:55Z</time>
      </trkpt>
      <trkpt lat="44.67719" lon="6.96216">
        <ele>3016.27</ele>
        <time>2018-09-10T12:05:07Z</time>
      </trkpt>
      <trkpt lat="44.67713" lon="6.9621">
        <ele>3013.39</ele>
        <time>2018-09-10T12:05:19Z</time>
      </trkpt>
      <trkpt lat="44.67708" lon="6.96198">
        <ele>3010.99</ele>
        <time>2018-09-10T12:05:30Z</time>
      </trkpt>
      <trkpt lat="44.67692" lon="6.96195">
        <ele>3010.51</ele>
        <time>2018-09-10T12:05:40Z</time>
      </trkpt>
      <trkpt lat="44.67684" lon="6.96189">
        <ele>3007.62</ele>
        <time>2018-09-10T12:05:51Z</time>
      </trkpt>
      <trkpt lat="44.67675" lon="6.96184">
        <ele>3005.7</ele>
        <time>2018-09-10T12:06:02Z</time>
      </trkpt>
      <trkpt lat="44.67668" lon="6.96175">
        <ele>3003.78</ele>
        <time>2018-09-10T12:06:12Z</time>
      </trkpt>
      <trkpt lat="44.67664" lon="6.96162">
        <ele>3000.41</ele>
        <time>2018-09-10T12:06:23Z</time>
      </trkpt>
      <trkpt lat="44.67656" lon="6.96164">
        <ele>2998.49</ele>
        <time>2018-09-10T12:06:32Z</time>
      </trkpt>
      <trkpt lat="44.67647" lon="6.96165">
        <ele>2996.57</ele>
        <time>2018-09-10T12:06:42Z</time>
      </trkpt>
      <trkpt lat="44.67638" lon="6.96167">
        <ele>2992.72</ele>
        <time>2018-09-10T12:06:55Z</time>
      </trkpt>
      <trkpt lat="44.67629" lon="6.96171">
        <ele>2988.88</ele>
        <time>2018-09-10T12:07:05Z</time>
      </trkpt>
      <trkpt lat="44.67622" lon="6.9617">
        <ele>2986.47</ele>
        <time>2018-09-10T12:07:16Z</time>
      </trkpt>
      <trkpt lat="44.67616" lon="6.96164">
        <ele>2983.11</ele>
        <time>2018-09-10T12:07:29Z</time>
      </trkpt>
      <trkpt lat="44.67606" lon="6.96166">
        <ele>2979.74</ele>
        <time>2018-09-10T12:07:39Z</time>
      </trkpt>
      <trkpt lat="44.67599" lon="6.96157">
        <ele>2977.34</ele>
        <time>2018-09-10T12:07:48Z</time>
      </trkpt>
      <trkpt lat="44.67595" lon="6.96158">
        <ele>2973.98</ele>
        <time>2018-09-10T12:08:00Z</time>
      </trkpt>
      <trkpt lat="44.67587" lon="6.96152">
        <ele>2969.17</ele>
        <time>2018-09-10T12:08:20Z</time>
      </trkpt>
      <trkpt lat="44.6758" lon="6.96152">
        <ele>2964.84</ele>
        <time>2018-09-10T12:08:34Z</time>
      </trkpt>
      <trkpt lat="44.67575" lon="6.96164">
        <ele>2963.88</ele>
        <time>2018-09-10T12:08:43Z</time>
      </trkpt>
      <trkpt lat="44.67568" lon="6.96171">
        <ele>2962.44</ele>
        <time>2018-09-10T12:08:53Z</time>
      </trkpt>
      <trkpt lat="44.6756" lon="6.96179">
        <ele>2959.56</ele>
        <time>2018-09-10T12:09:02Z</time>
      </trkpt>
      <trkpt lat="44.67553" lon="6.96183">
        <ele>2956.67</ele>
        <time>2018-09-10T12:09:10Z</time>
      </trkpt>
      <trkpt lat="44.67548" lon="6.96169">
        <ele>2953.79</ele>
        <time>2018-09-10T12:09:19Z</time>
      </trkpt>
      <trkpt lat="44.67543" lon="6.96162">
        <ele>2950.42</ele>
        <time>2018-09-10T12:09:27Z</time>
      </trkpt>
      <trkpt lat="44.67541" lon="6.96148">
        <ele>2947.54</ele>
        <time>2018-09-10T12:09:36Z</time>
      </trkpt>
      <trkpt lat="44.67538" lon="6.96136">
        <ele>2943.69</ele>
        <time>2018-09-10T12:09:46Z</time>
      </trkpt>
      <trkpt lat="44.67536" lon="6.96122">
        <ele>2941.29</ele>
        <time>2018-09-10T12:09:54Z</time>
      </trkpt>
      <trkpt lat="44.67531" lon="6.96109">
        <ele>2938.41</ele>
        <time>2018-09-10T12:10:04Z</time>
      </trkpt>
      <trkpt lat="44.67528" lon="6.96095">
        <ele>2936</ele>
        <time>2018-09-10T12:10:15Z</time>
      </trkpt>
      <trkpt lat="44.67526" lon="6.96082">
        <ele>2934.08</ele>
        <time>2018-09-10T12:10:27Z</time>
      </trkpt>
      <trkpt lat="44.67529" lon="6.96069">
        <ele>2932.16</ele>
        <time>2018-09-10T12:10:38Z</time>
      </trkpt>
      <trkpt lat="44.67531" lon="6.96056">
        <ele>2929.27</ele>
        <time>2018-09-10T12:10:45Z</time>
      </trkpt>
      <trkpt lat="44.67525" lon="6.96048">
        <ele>2925.91</ele>
        <time>2018-09-10T12:10:54Z</time>
      </trkpt>
      <trkpt lat="44.67518" lon="6.96044">
        <ele>2923.03</ele>
        <time>2018-09-10T12:11:03Z</time>
      </trkpt>
      <trkpt lat="44.67514" lon="6.96035">
        <ele>2920.14</ele>
        <time>2018-09-10T12:11:13Z</time>
      </trkpt>
      <trkpt lat="44.67507" lon="6.96029">
        <ele>2915.82</ele>
        <time>2018-09-10T12:11:26Z</time>
      </trkpt>
      <trkpt lat="44.67499" lon="6.96024">
        <ele>2912.93</ele>
        <time>2018-09-10T12:11:39Z</time>
      </trkpt>
      <trkpt lat="44.67493" lon="6.96014">
        <ele>2910.53</ele>
        <time>2018-09-10T12:11:51Z</time>
      </trkpt>
      <trkpt lat="44.67489" lon="6.96">
        <ele>2907.65</ele>
        <time>2018-09-10T12:12:03Z</time>
      </trkpt>
      <trkpt lat="44.67483" lon="6.95991">
        <ele>2904.76</ele>
        <time>2018-09-10T12:12:14Z</time>
      </trkpt>
      <trkpt lat="44.67477" lon="6.95984">
        <ele>2902.36</ele>
        <time>2018-09-10T12:12:25Z</time>
      </trkpt>
      <trkpt lat="44.67478" lon="6.95971">
        <ele>2899.95</ele>
        <time>2018-09-10T12:12:35Z</time>
      </trkpt>
      <trkpt lat="44.67469" lon="6.95965">
        <ele>2898.03</ele>
        <time>2018-09-10T12:12:44Z</time>
      </trkpt>
      <trkpt lat="44.67463" lon="6.95955">
        <ele>2896.11</ele>
        <time>2018-09-10T12:12:53Z</time>
      </trkpt>
      <trkpt lat="44.67462" lon="6.95945">
        <ele>2894.19</ele>
        <time>2018-09-10T12:13:01Z</time>
      </trkpt>
      <trkpt lat="44.67459" lon="6.95934">
        <ele>2891.78</ele>
        <time>2018-09-10T12:13:09Z</time>
      </trkpt>
      <trkpt lat="44.67453" lon="6.95924">
        <ele>2887.94</ele>
        <time>2018-09-10T12:13:17Z</time>
      </trkpt>
      <trkpt lat="44.67449" lon="6.95913">
        <ele>2885.05</ele>
        <time>2018-09-10T12:13:27Z</time>
      </trkpt>
      <trkpt lat="44.67442" lon="6.95904">
        <ele>2882.17</ele>
        <time>2018-09-10T12:13:39Z</time>
      </trkpt>
      <trkpt lat="44.67434" lon="6.95896">
        <ele>2879.77</ele>
        <time>2018-09-10T12:13:49Z</time>
      </trkpt>
      <trkpt lat="44.67425" lon="6.95894">
        <ele>2878.81</ele>
        <time>2018-09-10T12:13:58Z</time>
      </trkpt>
      <trkpt lat="44.67416" lon="6.95896">
        <ele>2877.36</ele>
        <time>2018-09-10T12:14:08Z</time>
      </trkpt>
      <trkpt lat="44.67408" lon="6.95893">
        <ele>2874.96</ele>
        <time>2018-09-10T12:14:17Z</time>
      </trkpt>
      <trkpt lat="44.67399" lon="6.95886">
        <ele>2872.08</ele>
        <time>2018-09-10T12:14:27Z</time>
      </trkpt>
      <trkpt lat="44.67392" lon="6.95878">
        <ele>2870.63</ele>
        <time>2018-09-10T12:14:38Z</time>
      </trkpt>
      <trkpt lat="44.67385" lon="6.95869">
        <ele>2868.71</ele>
        <time>2018-09-10T12:14:49Z</time>
      </trkpt>
      <trkpt lat="44.67376" lon="6.95868">
        <ele>2867.27</ele>
        <time>2018-09-10T12:14:59Z</time>
      </trkpt>
      <trkpt lat="44.67367" lon="6.95869">
        <ele>2867.27</ele>
        <time>2018-09-10T12:15:08Z</time>
      </trkpt>
      <trkpt lat="44.67358" lon="6.95874">
        <ele>2867.27</ele>
        <time>2018-09-10T12:15:16Z</time>
      </trkpt>
      <trkpt lat="44.67348" lon="6.95878">
        <ele>2869.19</ele>
        <time>2018-09-10T12:15:26Z</time>
      </trkpt>
      <trkpt lat="44.67339" lon="6.9588">
        <ele>2868.23</ele>
        <time>2018-09-10T12:15:35Z</time>
      </trkpt>
      <trkpt lat="44.67329" lon="6.95883">
        <ele>2866.79</ele>
        <time>2018-09-10T12:15:43Z</time>
      </trkpt>
      <trkpt lat="44.6732" lon="6.9588">
        <ele>2867.27</ele>
        <time>2018-09-10T12:15:52Z</time>
      </trkpt>
      <trkpt lat="44.67312" lon="6.95874">
        <ele>2865.83</ele>
        <time>2018-09-10T12:16:00Z</time>
      </trkpt>
      <trkpt lat="44.67305" lon="6.95868">
        <ele>2864.39</ele>
        <time>2018-09-10T12:16:08Z</time>
      </trkpt>
      <trkpt lat="44.67298" lon="6.95858">
        <ele>2861.98</ele>
        <time>2018-09-10T12:16:17Z</time>
      </trkpt>
      <trkpt lat="44.67289" lon="6.95855">
        <ele>2861.02</ele>
        <time>2018-09-10T12:16:25Z</time>
      </trkpt>
      <trkpt lat="44.67281" lon="6.95849">
        <ele>2861.5</ele>
        <time>2018-09-10T12:16:34Z</time>
      </trkpt>
      <trkpt lat="44.67272" lon="6.95849">
        <ele>2861.02</ele>
        <time>2018-09-10T12:16:45Z</time>
      </trkpt>
      <trkpt lat="44.67265" lon="6.95837">
        <ele>2858.14</ele>
        <time>2018-09-10T12:16:53Z</time>
      </trkpt>
      <trkpt lat="44.67259" lon="6.95833">
        <ele>2857.18</ele>
        <time>2018-09-10T12:17:06Z</time>
      </trkpt>
      <trkpt lat="44.67249" lon="6.95827">
        <ele>2856.21</ele>
        <time>2018-09-10T12:17:18Z</time>
      </trkpt>
      <trkpt lat="44.67243" lon="6.95815">
        <ele>2856.21</ele>
        <time>2018-09-10T12:17:41Z</time>
      </trkpt>
      <trkpt lat="44.67242" lon="6.95804">
        <ele>2855.25</ele>
        <time>2018-09-10T12:18:03Z</time>
      </trkpt>
      <trkpt lat="44.67241" lon="6.9579">
        <ele>2853.81</ele>
        <time>2018-09-10T12:18:14Z</time>
      </trkpt>
      <trkpt lat="44.67241" lon="6.95777">
        <ele>2851.41</ele>
        <time>2018-09-10T12:18:29Z</time>
      </trkpt>
      <trkpt lat="44.6724" lon="6.95762">
        <ele>2848.52</ele>
        <time>2018-09-10T12:18:48Z</time>
      </trkpt>
      <trkpt lat="44.6724" lon="6.95749">
        <ele>2845.16</ele>
        <time>2018-09-10T12:19:03Z</time>
      </trkpt>
      <trkpt lat="44.67242" lon="6.95737">
        <ele>2842.28</ele>
        <time>2018-09-10T12:19:15Z</time>
      </trkpt>
      <trkpt lat="44.6724" lon="6.95724">
        <ele>2838.91</ele>
        <time>2018-09-10T12:19:25Z</time>
      </trkpt>
      <trkpt lat="44.67245" lon="6.95713">
        <ele>2837.47</ele>
        <time>2018-09-10T12:19:36Z</time>
      </trkpt>
      <trkpt lat="44.67249" lon="6.95698">
        <ele>2835.55</ele>
        <time>2018-09-10T12:19:50Z</time>
      </trkpt>
      <trkpt lat="44.67255" lon="6.95688">
        <ele>2834.58</ele>
        <time>2018-09-10T12:20:00Z</time>
      </trkpt>
      <trkpt lat="44.67256" lon="6.95672">
        <ele>2832.66</ele>
        <time>2018-09-10T12:20:10Z</time>
      </trkpt>
      <trkpt lat="44.67259" lon="6.95659">
        <ele>2833.14</ele>
        <time>2018-09-10T12:20:20Z</time>
      </trkpt>
      <trkpt lat="44.67255" lon="6.95647">
        <ele>2830.26</ele>
        <time>2018-09-10T12:20:32Z</time>
      </trkpt>
      <trkpt lat="44.67259" lon="6.95634">
        <ele>2828.82</ele>
        <time>2018-09-10T12:20:42Z</time>
      </trkpt>
      <trkpt lat="44.67258" lon="6.95621">
        <ele>2826.89</ele>
        <time>2018-09-10T12:20:53Z</time>
      </trkpt>
      <trkpt lat="44.67262" lon="6.95609">
        <ele>2825.45</ele>
        <time>2018-09-10T12:21:05Z</time>
      </trkpt>
      <trkpt lat="44.67259" lon="6.95596">
        <ele>2823.05</ele>
        <time>2018-09-10T12:21:17Z</time>
      </trkpt>
      <trkpt lat="44.67263" lon="6.95587">
        <ele>2819.2</ele>
        <time>2018-09-10T12:21:29Z</time>
      </trkpt>
      <trkpt lat="44.67258" lon="6.95574">
        <ele>2816.32</ele>
        <time>2018-09-10T12:21:39Z</time>
      </trkpt>
      <trkpt lat="44.67263" lon="6.95565">
        <ele>2814.88</ele>
        <time>2018-09-10T12:21:55Z</time>
      </trkpt>
      <trkpt lat="44.67271" lon="6.95561">
        <ele>2813.44</ele>
        <time>2018-09-10T12:22:13Z</time>
      </trkpt>
      <trkpt lat="44.67269" lon="6.95548">
        <ele>2810.55</ele>
        <time>2018-09-10T12:22:52Z</time>
      </trkpt>
      <trkpt lat="44.6727" lon="6.95538">
        <ele>2808.15</ele>
        <time>2018-09-10T12:23:07Z</time>
      </trkpt>
      <trkpt lat="44.67263" lon="6.95528">
        <ele>2805.75</ele>
        <time>2018-09-10T12:23:18Z</time>
      </trkpt>
      <trkpt lat="44.67272" lon="6.95529">
        <ele>2804.3</ele>
        <time>2018-09-10T12:23:32Z</time>
      </trkpt>
      <trkpt lat="44.6728" lon="6.95521">
        <ele>2801.9</ele>
        <time>2018-09-10T12:23:45Z</time>
      </trkpt>
      <trkpt lat="44.67285" lon="6.95513">
        <ele>2800.46</ele>
        <time>2018-09-10T12:24:02Z</time>
      </trkpt>
      <trkpt lat="44.67288" lon="6.95501">
        <ele>2798.05</ele>
        <time>2018-09-10T12:24:11Z</time>
      </trkpt>
      <trkpt lat="44.67289" lon="6.95487">
        <ele>2797.09</ele>
        <time>2018-09-10T12:24:20Z</time>
      </trkpt>
      <trkpt lat="44.67293" lon="6.95477">
        <ele>2795.65</ele>
        <time>2018-09-10T12:24:31Z</time>
      </trkpt>
      <trkpt lat="44.67293" lon="6.95465">
        <ele>2792.77</ele>
        <time>2018-09-10T12:24:40Z</time>
      </trkpt>
      <trkpt lat="44.67298" lon="6.95459">
        <ele>2791.33</ele>
        <time>2018-09-10T12:24:51Z</time>
      </trkpt>
      <trkpt lat="44.67298" lon="6.95446">
        <ele>2789.4</ele>
        <time>2018-09-10T12:25:00Z</time>
      </trkpt>
      <trkpt lat="44.67295" lon="6.95433">
        <ele>2787.96</ele>
        <time>2018-09-10T12:25:10Z</time>
      </trkpt>
      <trkpt lat="44.67295" lon="6.95417">
        <ele>2785.56</ele>
        <time>2018-09-10T12:25:23Z</time>
      </trkpt>
      <trkpt lat="44.67299" lon="6.95403">
        <ele>2784.12</ele>
        <time>2018-09-10T12:25:34Z</time>
      </trkpt>
      <trkpt lat="44.67299" lon="6.95388">
        <ele>2784.12</ele>
        <time>2018-09-10T12:25:45Z</time>
      </trkpt>
      <trkpt lat="44.67308" lon="6.95382">
        <ele>2782.19</ele>
        <time>2018-09-10T12:25:55Z</time>
      </trkpt>
      <trkpt lat="44.67315" lon="6.95371">
        <ele>2779.79</ele>
        <time>2018-09-10T12:26:08Z</time>
      </trkpt>
      <trkpt lat="44.67318" lon="6.95358">
        <ele>2777.87</ele>
        <time>2018-09-10T12:26:20Z</time>
      </trkpt>
      <trkpt lat="44.67321" lon="6.95347">
        <ele>2774.98</ele>
        <time>2018-09-10T12:26:32Z</time>
      </trkpt>
      <trkpt lat="44.6733" lon="6.95345">
        <ele>2773.54</ele>
        <time>2018-09-10T12:26:47Z</time>
      </trkpt>
      <trkpt lat="44.67338" lon="6.95336">
        <ele>2770.66</ele>
        <time>2018-09-10T12:27:00Z</time>
      </trkpt>
      <trkpt lat="44.67336" lon="6.95322">
        <ele>2768.25</ele>
        <time>2018-09-10T12:27:11Z</time>
      </trkpt>
      <trkpt lat="44.67345" lon="6.95317">
        <ele>2764.89</ele>
        <time>2018-09-10T12:27:21Z</time>
      </trkpt>
      <trkpt lat="44.67351" lon="6.95305">
        <ele>2762.97</ele>
        <time>2018-09-10T12:27:31Z</time>
      </trkpt>
      <trkpt lat="44.67356" lon="6.95293">
        <ele>2763.45</ele>
        <time>2018-09-10T12:27:41Z</time>
      </trkpt>
      <trkpt lat="44.67364" lon="6.95284">
        <ele>2762.97</ele>
        <time>2018-09-10T12:27:51Z</time>
      </trkpt>
      <trkpt lat="44.67374" lon="6.95275">
        <ele>2762</ele>
        <time>2018-09-10T12:28:13Z</time>
      </trkpt>
      <trkpt lat="44.67376" lon="6.95263">
        <ele>2761.52</ele>
        <time>2018-09-10T12:28:23Z</time>
      </trkpt>
      <trkpt lat="44.67375" lon="6.95251">
        <ele>2759.6</ele>
        <time>2018-09-10T12:28:33Z</time>
      </trkpt>
      <trkpt lat="44.67378" lon="6.95243">
        <ele>2758.64</ele>
        <time>2018-09-10T12:29:11Z</time>
      </trkpt>
      <trkpt lat="44.6737" lon="6.95234">
        <ele>2757.2</ele>
        <time>2018-09-10T12:29:33Z</time>
      </trkpt>
      <trkpt lat="44.67361" lon="6.95231">
        <ele>2755.28</ele>
        <time>2018-09-10T12:29:42Z</time>
      </trkpt>
      <trkpt lat="44.67352" lon="6.95231">
        <ele>2754.31</ele>
        <time>2018-09-10T12:29:51Z</time>
      </trkpt>
      <trkpt lat="44.67343" lon="6.95227">
        <ele>2752.39</ele>
        <time>2018-09-10T12:30:01Z</time>
      </trkpt>
      <trkpt lat="44.67334" lon="6.9523">
        <ele>2752.39</ele>
        <time>2018-09-10T12:30:09Z</time>
      </trkpt>
      <trkpt lat="44.67326" lon="6.95235">
        <ele>2750.95</ele>
        <time>2018-09-10T12:30:16Z</time>
      </trkpt>
      <trkpt lat="44.67316" lon="6.95237">
        <ele>2749.99</ele>
        <time>2018-09-10T12:30:25Z</time>
      </trkpt>
      <trkpt lat="44.67309" lon="6.9524">
        <ele>2749.51</ele>
        <time>2018-09-10T12:30:33Z</time>
      </trkpt>
      <trkpt lat="44.673" lon="6.95245">
        <ele>2749.51</ele>
        <time>2018-09-10T12:30:41Z</time>
      </trkpt>
      <trkpt lat="44.6729" lon="6.95247">
        <ele>2749.03</ele>
        <time>2018-09-10T12:30:49Z</time>
      </trkpt>
      <trkpt lat="44.67282" lon="6.95244">
        <ele>2747.59</ele>
        <time>2018-09-10T12:30:58Z</time>
      </trkpt>
      <trkpt lat="44.67274" lon="6.95239">
        <ele>2747.1</ele>
        <time>2018-09-10T12:31:06Z</time>
      </trkpt>
      <trkpt lat="44.67268" lon="6.95228">
        <ele>2747.1</ele>
        <time>2018-09-10T12:31:14Z</time>
      </trkpt>
      <trkpt lat="44.67262" lon="6.9522">
        <ele>2746.14</ele>
        <time>2018-09-10T12:31:22Z</time>
      </trkpt>
      <trkpt lat="44.67253" lon="6.95217">
        <ele>2744.22</ele>
        <time>2018-09-10T12:31:31Z</time>
      </trkpt>
      <trkpt lat="44.67244" lon="6.95211">
        <ele>2741.82</ele>
        <time>2018-09-10T12:31:38Z</time>
      </trkpt>
      <trkpt lat="44.67235" lon="6.95208">
        <ele>2739.89</ele>
        <time>2018-09-10T12:31:46Z</time>
      </trkpt>
      <trkpt lat="44.67228" lon="6.95201">
        <ele>2739.41</ele>
        <time>2018-09-10T12:31:54Z</time>
      </trkpt>
      <trkpt lat="44.6722" lon="6.95194">
        <ele>2737.97</ele>
        <time>2018-09-10T12:32:02Z</time>
      </trkpt>
      <trkpt lat="44.67211" lon="6.95186">
        <ele>2737.49</ele>
        <time>2018-09-10T12:32:11Z</time>
      </trkpt>
      <trkpt lat="44.67202" lon="6.95181">
        <ele>2735.57</ele>
        <time>2018-09-10T12:32:20Z</time>
      </trkpt>
      <trkpt lat="44.67193" lon="6.95177">
        <ele>2734.13</ele>
        <time>2018-09-10T12:32:28Z</time>
      </trkpt>
      <trkpt lat="44.67185" lon="6.9517">
        <ele>2733.17</ele>
        <time>2018-09-10T12:32:36Z</time>
      </trkpt>
      <trkpt lat="44.67176" lon="6.95164">
        <ele>2732.68</ele>
        <time>2018-09-10T12:32:44Z</time>
      </trkpt>
      <trkpt lat="44.67167" lon="6.95161">
        <ele>2731.24</ele>
        <time>2018-09-10T12:32:53Z</time>
      </trkpt>
      <trkpt lat="44.6716" lon="6.9515">
        <ele>2729.8</ele>
        <time>2018-09-10T12:33:01Z</time>
      </trkpt>
      <trkpt lat="44.67158" lon="6.95138">
        <ele>2728.36</ele>
        <time>2018-09-10T12:33:09Z</time>
      </trkpt>
      <trkpt lat="44.67157" lon="6.95124">
        <ele>2725.96</ele>
        <time>2018-09-10T12:33:19Z</time>
      </trkpt>
      <trkpt lat="44.67158" lon="6.95111">
        <ele>2724.03</ele>
        <time>2018-09-10T12:33:28Z</time>
      </trkpt>
      <trkpt lat="44.67156" lon="6.95098">
        <ele>2721.63</ele>
        <time>2018-09-10T12:33:39Z</time>
      </trkpt>
      <trkpt lat="44.67153" lon="6.95086">
        <ele>2718.75</ele>
        <time>2018-09-10T12:33:49Z</time>
      </trkpt>
      <trkpt lat="44.67147" lon="6.95076">
        <ele>2715.86</ele>
        <time>2018-09-10T12:33:59Z</time>
      </trkpt>
      <trkpt lat="44.67141" lon="6.95065">
        <ele>2713.46</ele>
        <time>2018-09-10T12:34:08Z</time>
      </trkpt>
      <trkpt lat="44.67138" lon="6.95052">
        <ele>2711.06</ele>
        <time>2018-09-10T12:34:18Z</time>
      </trkpt>
      <trkpt lat="44.67135" lon="6.95041">
        <ele>2708.65</ele>
        <time>2018-09-10T12:34:27Z</time>
      </trkpt>
      <trkpt lat="44.67131" lon="6.95028">
        <ele>2707.21</ele>
        <time>2018-09-10T12:34:35Z</time>
      </trkpt>
      <trkpt lat="44.6713" lon="6.95014">
        <ele>2704.81</ele>
        <time>2018-09-10T12:34:43Z</time>
      </trkpt>
      <trkpt lat="44.67125" lon="6.95004">
        <ele>2701.44</ele>
        <time>2018-09-10T12:34:51Z</time>
      </trkpt>
      <trkpt lat="44.67119" lon="6.94995">
        <ele>2698.56</ele>
        <time>2018-09-10T12:35:02Z</time>
      </trkpt>
      <trkpt lat="44.67116" lon="6.94982">
        <ele>2696.15</ele>
        <time>2018-09-10T12:35:13Z</time>
      </trkpt>
      <trkpt lat="44.67111" lon="6.94972">
        <ele>2693.75</ele>
        <time>2018-09-10T12:35:20Z</time>
      </trkpt>
      <trkpt lat="44.6711" lon="6.94958">
        <ele>2690.39</ele>
        <time>2018-09-10T12:35:31Z</time>
      </trkpt>
      <trkpt lat="44.67102" lon="6.94951">
        <ele>2687.98</ele>
        <time>2018-09-10T12:35:39Z</time>
      </trkpt>
      <trkpt lat="44.67095" lon="6.94944">
        <ele>2684.14</ele>
        <time>2018-09-10T12:35:51Z</time>
      </trkpt>
      <trkpt lat="44.67087" lon="6.94938">
        <ele>2682.22</ele>
        <time>2018-09-10T12:36:03Z</time>
      </trkpt>
      <trkpt lat="44.67083" lon="6.94928">
        <ele>2679.81</ele>
        <time>2018-09-10T12:36:14Z</time>
      </trkpt>
      <trkpt lat="44.67076" lon="6.94921">
        <ele>2676.45</ele>
        <time>2018-09-10T12:36:27Z</time>
      </trkpt>
      <trkpt lat="44.67068" lon="6.94914">
        <ele>2674.52</ele>
        <time>2018-09-10T12:36:38Z</time>
      </trkpt>
      <trkpt lat="44.67063" lon="6.94903">
        <ele>2672.6</ele>
        <time>2018-09-10T12:36:48Z</time>
      </trkpt>
      <trkpt lat="44.67059" lon="6.94891">
        <ele>2670.68</ele>
        <time>2018-09-10T12:36:58Z</time>
      </trkpt>
      <trkpt lat="44.67057" lon="6.94879">
        <ele>2669.72</ele>
        <time>2018-09-10T12:37:07Z</time>
      </trkpt>
      <trkpt lat="44.67053" lon="6.94867">
        <ele>2667.8</ele>
        <time>2018-09-10T12:37:16Z</time>
      </trkpt>
      <trkpt lat="44.67049" lon="6.94855">
        <ele>2665.87</ele>
        <time>2018-09-10T12:37:25Z</time>
      </trkpt>
      <trkpt lat="44.67044" lon="6.94845">
        <ele>2664.43</ele>
        <time>2018-09-10T12:37:34Z</time>
      </trkpt>
      <trkpt lat="44.6704" lon="6.94832">
        <ele>2662.99</ele>
        <time>2018-09-10T12:37:43Z</time>
      </trkpt>
      <trkpt lat="44.67036" lon="6.94823">
        <ele>2662.03</ele>
        <time>2018-09-10T12:37:51Z</time>
      </trkpt>
      <trkpt lat="44.6703" lon="6.94813">
        <ele>2660.59</ele>
        <time>2018-09-10T12:38:00Z</time>
      </trkpt>
      <trkpt lat="44.67028" lon="6.948">
        <ele>2660.11</ele>
        <time>2018-09-10T12:38:09Z</time>
      </trkpt>
      <trkpt lat="44.67028" lon="6.94786">
        <ele>2659.14</ele>
        <time>2018-09-10T12:38:17Z</time>
      </trkpt>
      <trkpt lat="44.67027" lon="6.94774">
        <ele>2657.7</ele>
        <time>2018-09-10T12:38:25Z</time>
      </trkpt>
      <trkpt lat="44.67028" lon="6.9476">
        <ele>2656.26</ele>
        <time>2018-09-10T12:38:34Z</time>
      </trkpt>
      <trkpt lat="44.67035" lon="6.94751">
        <ele>2654.82</ele>
        <time>2018-09-10T12:38:43Z</time>
      </trkpt>
      <trkpt lat="44.67029" lon="6.94743">
        <ele>2652.42</ele>
        <time>2018-09-10T12:38:52Z</time>
      </trkpt>
      <trkpt lat="44.67022" lon="6.94735">
        <ele>2650.97</ele>
        <time>2018-09-10T12:39:02Z</time>
      </trkpt>
      <trkpt lat="44.67019" lon="6.94722">
        <ele>2648.09</ele>
        <time>2018-09-10T12:39:11Z</time>
      </trkpt>
      <trkpt lat="44.67013" lon="6.94713">
        <ele>2646.17</ele>
        <time>2018-09-10T12:39:20Z</time>
      </trkpt>
      <trkpt lat="44.67008" lon="6.94703">
        <ele>2645.21</ele>
        <time>2018-09-10T12:39:28Z</time>
      </trkpt>
      <trkpt lat="44.67006" lon="6.94692">
        <ele>2643.28</ele>
        <time>2018-09-10T12:39:37Z</time>
      </trkpt>
      <trkpt lat="44.66999" lon="6.94683">
        <ele>2641.84</ele>
        <time>2018-09-10T12:39:47Z</time>
      </trkpt>
      <trkpt lat="44.66993" lon="6.94674">
        <ele>2640.4</ele>
        <time>2018-09-10T12:39:55Z</time>
      </trkpt>
      <trkpt lat="44.66989" lon="6.94664">
        <ele>2638.48</ele>
        <time>2018-09-10T12:40:04Z</time>
      </trkpt>
      <trkpt lat="44.66983" lon="6.94656">
        <ele>2636.07</ele>
        <time>2018-09-10T12:40:13Z</time>
      </trkpt>
      <trkpt lat="44.66975" lon="6.94649">
        <ele>2635.59</ele>
        <time>2018-09-10T12:40:21Z</time>
      </trkpt>
      <trkpt lat="44.66971" lon="6.94637">
        <ele>2634.15</ele>
        <time>2018-09-10T12:40:30Z</time>
      </trkpt>
      <trkpt lat="44.66962" lon="6.94628">
        <ele>2633.67</ele>
        <time>2018-09-10T12:40:37Z</time>
      </trkpt>
      <trkpt lat="44.66957" lon="6.94618">
        <ele>2632.23</ele>
        <time>2018-09-10T12:40:46Z</time>
      </trkpt>
      <trkpt lat="44.66955" lon="6.94604">
        <ele>2630.3</ele>
        <time>2018-09-10T12:40:57Z</time>
      </trkpt>
      <trkpt lat="44.66957" lon="6.94594">
        <ele>2628.38</ele>
        <time>2018-09-10T12:41:06Z</time>
      </trkpt>
      <trkpt lat="44.66953" lon="6.94581">
        <ele>2626.94</ele>
        <time>2018-09-10T12:41:14Z</time>
      </trkpt>
      <trkpt lat="44.66943" lon="6.94581">
        <ele>2625.98</ele>
        <time>2018-09-10T12:41:21Z</time>
      </trkpt>
      <trkpt lat="44.66939" lon="6.94571">
        <ele>2624.06</ele>
        <time>2018-09-10T12:41:30Z</time>
      </trkpt>
      <trkpt lat="44.66931" lon="6.94565">
        <ele>2621.65</ele>
        <time>2018-09-10T12:41:37Z</time>
      </trkpt>
      <trkpt lat="44.66923" lon="6.94561">
        <ele>2619.73</ele>
        <time>2018-09-10T12:41:45Z</time>
      </trkpt>
      <trkpt lat="44.66918" lon="6.94553">
        <ele>2616.37</ele>
        <time>2018-09-10T12:41:53Z</time>
      </trkpt>
      <trkpt lat="44.66916" lon="6.94539">
        <ele>2613</ele>
        <time>2018-09-10T12:42:04Z</time>
      </trkpt>
      <trkpt lat="44.66913" lon="6.94528">
        <ele>2610.6</ele>
        <time>2018-09-10T12:42:12Z</time>
      </trkpt>
      <trkpt lat="44.66905" lon="6.94525">
        <ele>2606.27</ele>
        <time>2018-09-10T12:42:21Z</time>
      </trkpt>
      <trkpt lat="44.66897" lon="6.94516">
        <ele>2605.31</ele>
        <time>2018-09-10T12:42:32Z</time>
      </trkpt>
      <trkpt lat="44.66891" lon="6.94505">
        <ele>2601.46</ele>
        <time>2018-09-10T12:42:40Z</time>
      </trkpt>
      <trkpt lat="44.66884" lon="6.94501">
        <ele>2599.06</ele>
        <time>2018-09-10T12:42:47Z</time>
      </trkpt>
      <trkpt lat="44.66875" lon="6.94496">
        <ele>2596.18</ele>
        <time>2018-09-10T12:42:56Z</time>
      </trkpt>
      <trkpt lat="44.66864" lon="6.94494">
        <ele>2595.22</ele>
        <time>2018-09-10T12:43:05Z</time>
      </trkpt>
      <trkpt lat="44.66866" lon="6.94485">
        <ele>2592.81</ele>
        <time>2018-09-10T12:43:16Z</time>
      </trkpt>
      <trkpt lat="44.66865" lon="6.94473">
        <ele>2591.37</ele>
        <time>2018-09-10T12:43:24Z</time>
      </trkpt>
      <trkpt lat="44.66862" lon="6.9446">
        <ele>2588.97</ele>
        <time>2018-09-10T12:43:33Z</time>
      </trkpt>
      <trkpt lat="44.66858" lon="6.94448">
        <ele>2587.04</ele>
        <time>2018-09-10T12:43:40Z</time>
      </trkpt>
      <trkpt lat="44.66853" lon="6.94438">
        <ele>2585.6</ele>
        <time>2018-09-10T12:43:47Z</time>
      </trkpt>
      <trkpt lat="44.66852" lon="6.94426">
        <ele>2583.68</ele>
        <time>2018-09-10T12:43:56Z</time>
      </trkpt>
      <trkpt lat="44.66847" lon="6.94414">
        <ele>2581.76</ele>
        <time>2018-09-10T12:44:06Z</time>
      </trkpt>
      <trkpt lat="44.66841" lon="6.94404">
        <ele>2579.35</ele>
        <time>2018-09-10T12:44:13Z</time>
      </trkpt>
      <trkpt lat="44.66835" lon="6.94395">
        <ele>2577.91</ele>
        <time>2018-09-10T12:44:19Z</time>
      </trkpt>
      <trkpt lat="44.6683" lon="6.94383">
        <ele>2577.43</ele>
        <time>2018-09-10T12:44:27Z</time>
      </trkpt>
      <trkpt lat="44.66826" lon="6.94371">
        <ele>2575.51</ele>
        <time>2018-09-10T12:44:35Z</time>
      </trkpt>
      <trkpt lat="44.66816" lon="6.94366">
        <ele>2572.63</ele>
        <time>2018-09-10T12:44:44Z</time>
      </trkpt>
      <trkpt lat="44.66815" lon="6.94354">
        <ele>2570.22</ele>
        <time>2018-09-10T12:44:52Z</time>
      </trkpt>
      <trkpt lat="44.66808" lon="6.94347">
        <ele>2568.3</ele>
        <time>2018-09-10T12:44:59Z</time>
      </trkpt>
      <trkpt lat="44.66803" lon="6.94336">
        <ele>2567.34</ele>
        <time>2018-09-10T12:45:06Z</time>
      </trkpt>
      <trkpt lat="44.66798" lon="6.94325">
        <ele>2565.42</ele>
        <time>2018-09-10T12:45:14Z</time>
      </trkpt>
      <trkpt lat="44.66794" lon="6.94314">
        <ele>2563.97</ele>
        <time>2018-09-10T12:45:48Z</time>
      </trkpt>
      <trkpt lat="44.66789" lon="6.94308">
        <ele>2561.09</ele>
        <time>2018-09-10T12:46:00Z</time>
      </trkpt>
      <trkpt lat="44.6678" lon="6.94311">
        <ele>2558.69</ele>
        <time>2018-09-10T12:46:10Z</time>
      </trkpt>
      <trkpt lat="44.66771" lon="6.94316">
        <ele>2556.76</ele>
        <time>2018-09-10T12:46:17Z</time>
      </trkpt>
      <trkpt lat="44.66763" lon="6.94308">
        <ele>2554.36</ele>
        <time>2018-09-10T12:46:25Z</time>
      </trkpt>
      <trkpt lat="44.66757" lon="6.94298">
        <ele>2551.48</ele>
        <time>2018-09-10T12:46:34Z</time>
      </trkpt>
      <trkpt lat="44.66751" lon="6.94288">
        <ele>2549.07</ele>
        <time>2018-09-10T12:46:43Z</time>
      </trkpt>
      <trkpt lat="44.66747" lon="6.94277">
        <ele>2547.63</ele>
        <time>2018-09-10T12:46:52Z</time>
      </trkpt>
      <trkpt lat="44.66743" lon="6.94265">
        <ele>2545.71</ele>
        <time>2018-09-10T12:47:00Z</time>
      </trkpt>
      <trkpt lat="44.6674" lon="6.94253">
        <ele>2545.23</ele>
        <time>2018-09-10T12:47:07Z</time>
      </trkpt>
      <trkpt lat="44.66737" lon="6.94241">
        <ele>2543.79</ele>
        <time>2018-09-10T12:47:15Z</time>
      </trkpt>
      <trkpt lat="44.6673" lon="6.94238">
        <ele>2540.9</ele>
        <time>2018-09-10T12:47:25Z</time>
      </trkpt>
      <trkpt lat="44.66724" lon="6.94228">
        <ele>2538.02</ele>
        <time>2018-09-10T12:47:34Z</time>
      </trkpt>
      <trkpt lat="44.6672" lon="6.94214">
        <ele>2535.61</ele>
        <time>2018-09-10T12:47:43Z</time>
      </trkpt>
      <trkpt lat="44.66714" lon="6.94202">
        <ele>2532.73</ele>
        <time>2018-09-10T12:47:50Z</time>
      </trkpt>
      <trkpt lat="44.66707" lon="6.94193">
        <ele>2530.81</ele>
        <time>2018-09-10T12:47:57Z</time>
      </trkpt>
      <trkpt lat="44.66702" lon="6.94181">
        <ele>2529.37</ele>
        <time>2018-09-10T12:48:05Z</time>
      </trkpt>
      <trkpt lat="44.66695" lon="6.94169">
        <ele>2528.89</ele>
        <time>2018-09-10T12:48:13Z</time>
      </trkpt>
      <trkpt lat="44.66686" lon="6.94167">
        <ele>2526.48</ele>
        <time>2018-09-10T12:48:26Z</time>
      </trkpt>
      <trkpt lat="44.66678" lon="6.94169">
        <ele>2524.08</ele>
        <time>2018-09-10T12:48:34Z</time>
      </trkpt>
      <trkpt lat="44.66669" lon="6.94163">
        <ele>2524.08</ele>
        <time>2018-09-10T12:48:47Z</time>
      </trkpt>
      <trkpt lat="44.66661" lon="6.94155">
        <ele>2524.08</ele>
        <time>2018-09-10T12:48:59Z</time>
      </trkpt>
      <trkpt lat="44.66655" lon="6.94144">
        <ele>2522.16</ele>
        <time>2018-09-10T12:49:12Z</time>
      </trkpt>
      <trkpt lat="44.66654" lon="6.94133">
        <ele>2520.71</ele>
        <time>2018-09-10T12:49:21Z</time>
      </trkpt>
      <trkpt lat="44.66655" lon="6.94119">
        <ele>2519.75</ele>
        <time>2018-09-10T12:49:30Z</time>
      </trkpt>
      <trkpt lat="44.66658" lon="6.94108">
        <ele>2519.75</ele>
        <time>2018-09-10T12:49:40Z</time>
      </trkpt>
      <trkpt lat="44.6666" lon="6.94095">
        <ele>2518.31</ele>
        <time>2018-09-10T12:49:48Z</time>
      </trkpt>
      <trkpt lat="44.66657" lon="6.94083">
        <ele>2518.79</ele>
        <time>2018-09-10T12:49:58Z</time>
      </trkpt>
      <trkpt lat="44.66652" lon="6.94072">
        <ele>2519.27</ele>
        <time>2018-09-10T12:50:09Z</time>
      </trkpt>
      <trkpt lat="44.66649" lon="6.94057">
        <ele>2519.75</ele>
        <time>2018-09-10T12:50:20Z</time>
      </trkpt>
      <trkpt lat="44.66642" lon="6.94047">
        <ele>2522.16</ele>
        <time>2018-09-10T12:50:32Z</time>
      </trkpt>
      <trkpt lat="44.66633" lon="6.94038">
        <ele>2524.08</ele>
        <time>2018-09-10T12:50:46Z</time>
      </trkpt>
      <trkpt lat="44.66633" lon="6.94041">
        <ele>2491.87</ele>
        <time>2018-09-11T05:32:53Z</time>
      </trkpt>
      <trkpt lat="44.66639" lon="6.94035">
        <ele>2504.37</ele>
        <time>2018-09-11T05:33:19Z</time>
      </trkpt>
      <trkpt lat="44.66638" lon="6.9404">
        <ele>2419.78</ele>
        <time>2018-09-11T05:39:17Z</time>
      </trkpt>
    </trkseg>
  </trk>
</gpx>